<?xml version='1.0' encoding='UTF-8'?><gpx version="1.1" creator="JPX - https://github.com/jenetics/jpx" xmlns="http://www.topografix.com/GPX/1/1"><trk><trkseg><trkpt lat="44.29722083494564" lon="10.829214088094451"><ele>849.5</ele><time>2026-04-05T13:39:56.999Z</time></trkpt><trkpt lat="44.29730248688813" lon="10.82916164864427"><ele>850.0</ele><time>2026-04-05T13:39:59.999Z</time></trkpt><trkpt lat="44.297360067408356" lon="10.829227745018573"><ele>850.5</ele><time>2026-04-05T13:40:01.999Z</time></trkpt><trkpt lat="44.2973387131233" lon="10.829313390804872"><ele>851.0</ele><time>2026-04-05T13:40:04Z</time></trkpt><trkpt lat="44.29723034214203" lon="10.829363423843974"><ele>851.5</ele><time>2026-04-05T13:40:06Z</time></trkpt><trkpt lat="44.29715893868846" lon="10.829399626621829"><ele>852.0</ele><time>2026-04-05T13:40:07Z</time></trkpt><trkpt lat="44.297082702839695" lon="10.829457203928216"><ele>852.0</ele><time>2026-04-05T13:40:08Z</time></trkpt><trkpt lat="44.29700467303885" lon="10.829537971677917"><ele>852.0</ele><time>2026-04-05T13:40:09Z</time></trkpt><trkpt lat="44.29692420389576" lon="10.829624365434027"><ele>852.0</ele><time>2026-04-05T13:40:10Z</time></trkpt><trkpt lat="44.29682730673558" lon="10.8297271161286"><ele>852.0</ele><time>2026-04-05T13:40:11Z</time></trkpt><trkpt lat="44.29670268023349" lon="10.82987120810329"><ele>852.0</ele><time>2026-04-05T13:40:12Z</time></trkpt><trkpt lat="44.29660969255395" lon="10.82997231535887"><ele>852.0</ele><time>2026-04-05T13:40:13Z</time></trkpt><trkpt lat="44.29650042981472" lon="10.830056050948977"><ele>852.0</ele><time>2026-04-05T13:40:14Z</time></trkpt><trkpt lat="44.296423958108235" lon="10.830131221920716"><ele>852.0</ele><time>2026-04-05T13:40:15Z</time></trkpt><trkpt lat="44.296356205401594" lon="10.830196041970234"><ele>852.0</ele><time>2026-04-05T13:40:16Z</time></trkpt><trkpt lat="44.29628242884811" lon="10.830292430465157"><ele>852.1666666666666</ele><time>2026-04-05T13:40:17Z</time></trkpt><trkpt lat="44.296199676197894" lon="10.830375589452673"><ele>852.3333333333333</ele><time>2026-04-05T13:40:18Z</time></trkpt><trkpt lat="44.296132792993745" lon="10.830448032664618"><ele>852.5</ele><time>2026-04-05T13:40:19Z</time></trkpt><trkpt lat="44.29608207342314" lon="10.830519611533612"><ele>852.6666666666666</ele><time>2026-04-05T13:40:20Z</time></trkpt><trkpt lat="44.2960360685924" lon="10.830587600548872"><ele>852.8333333333333</ele><time>2026-04-05T13:40:21Z</time></trkpt><trkpt lat="44.29596052234009" lon="10.830704552127933"><ele>853.0</ele><time>2026-04-05T13:40:23Z</time></trkpt><trkpt lat="44.29604534176867" lon="10.830910536926302"><ele>851.0</ele><time>2026-04-05T13:40:26Z</time></trkpt><trkpt lat="44.29611945914641" lon="10.830991156592646"><ele>849.0</ele><time>2026-04-05T13:40:27Z</time></trkpt><trkpt lat="44.29618208180581" lon="10.831103876820691"><ele>847.0</ele><time>2026-04-05T13:40:28Z</time></trkpt><trkpt lat="44.2962574484055" lon="10.831213302242054"><ele>845.0</ele><time>2026-04-05T13:40:29Z</time></trkpt><trkpt lat="44.29632569451476" lon="10.831316112376037"><ele>843.0</ele><time>2026-04-05T13:40:30Z</time></trkpt><trkpt lat="44.2963917116591" lon="10.831416410243703"><ele>843.8</ele><time>2026-04-05T13:40:31Z</time></trkpt><trkpt lat="44.296454766363105" lon="10.83152036804844"><ele>844.5999999999999</ele><time>2026-04-05T13:40:32Z</time></trkpt><trkpt lat="44.296509371530306" lon="10.831623852759497"><ele>845.4000000000001</ele><time>2026-04-05T13:40:33Z</time></trkpt><trkpt lat="44.29656261145009" lon="10.831725511189472"><ele>846.2</ele><time>2026-04-05T13:40:34Z</time></trkpt><trkpt lat="44.2966361444039" lon="10.83181219081654"><ele>847.0</ele><time>2026-04-05T13:40:35Z</time></trkpt><trkpt lat="44.2967011475744" lon="10.831909080936862"><ele>844.8</ele><time>2026-04-05T13:40:36Z</time></trkpt><trkpt lat="44.296780690153156" lon="10.831991738512752"><ele>842.6</ele><time>2026-04-05T13:40:37Z</time></trkpt><trkpt lat="44.29687527300277" lon="10.832052098483869"><ele>840.4</ele><time>2026-04-05T13:40:38Z</time></trkpt><trkpt lat="44.2969815863835" lon="10.832090804397577"><ele>838.1999999999999</ele><time>2026-04-05T13:40:39Z</time></trkpt><trkpt lat="44.297084724039586" lon="10.8321536346168"><ele>836.0</ele><time>2026-04-05T13:40:40Z</time></trkpt><trkpt lat="44.29717594391866" lon="10.832251182891298"><ele>836.0</ele><time>2026-04-05T13:40:41Z</time></trkpt><trkpt lat="44.29724555717003" lon="10.832377640862036"><ele>836.0</ele><time>2026-04-05T13:40:42Z</time></trkpt><trkpt lat="44.29731870954079" lon="10.832511077779177"><ele>836.0</ele><time>2026-04-05T13:40:43Z</time></trkpt><trkpt lat="44.2974050042586" lon="10.83263318007743"><ele>836.0</ele><time>2026-04-05T13:40:44Z</time></trkpt><trkpt lat="44.29747644274578" lon="10.832768629089248"><ele>835.1999999999999</ele><time>2026-04-05T13:40:45Z</time></trkpt><trkpt lat="44.29754854714321" lon="10.832873045640357"><ele>834.4</ele><time>2026-04-05T13:40:46Z</time></trkpt><trkpt lat="44.297635754426956" lon="10.832967288720022"><ele>833.6</ele><time>2026-04-05T13:40:47Z</time></trkpt><trkpt lat="44.2977150911936" lon="10.833037420668093"><ele>832.8</ele><time>2026-04-05T13:40:48Z</time></trkpt><trkpt lat="44.29780213030652" lon="10.833102121880922"><ele>832.0</ele><time>2026-04-05T13:40:49Z</time></trkpt><trkpt lat="44.29788659688438" lon="10.83315597361316"><ele>831.9999999999999</ele><time>2026-04-05T13:40:50Z</time></trkpt><trkpt lat="44.29796969679718" lon="10.833209951149755"><ele>832.0</ele><time>2026-04-05T13:40:51Z</time></trkpt><trkpt lat="44.2980387481394" lon="10.833258819611709"><ele>832.0</ele><time>2026-04-05T13:40:52Z</time></trkpt><trkpt lat="44.29807943939167" lon="10.833352019948254"><ele>832.0</ele><time>2026-04-05T13:40:53Z</time></trkpt><trkpt lat="44.29809804078806" lon="10.8334564078802"><ele>831.9999999999999</ele><time>2026-04-05T13:40:54Z</time></trkpt><trkpt lat="44.2981142015798" lon="10.833543282876672"><ele>832.0</ele><time>2026-04-05T13:40:55Z</time></trkpt><trkpt lat="44.29813331096434" lon="10.833669458717024"><ele>831.0</ele><time>2026-04-05T13:40:57Z</time></trkpt><trkpt lat="44.29837002872092" lon="10.833712370338956"><ele>830.0</ele><time>2026-04-05T13:41:01Z</time></trkpt><trkpt lat="44.2984262708006" lon="10.833771564458123"><ele>829.0</ele><time>2026-04-05T13:41:02Z</time></trkpt><trkpt lat="44.29849004039699" lon="10.833791226249408"><ele>828.0</ele><time>2026-04-05T13:41:03Z</time></trkpt><trkpt lat="44.298542226249545" lon="10.83371850569495"><ele>827.0</ele><time>2026-04-05T13:41:05Z</time></trkpt><trkpt lat="44.298618606195525" lon="10.833647634979512"><ele>827.0000000000001</ele><time>2026-04-05T13:41:06.999Z</time></trkpt><trkpt lat="44.298685668191396" lon="10.833618594246204"><ele>827.0</ele><time>2026-04-05T13:41:07.999Z</time></trkpt><trkpt lat="44.29875743494894" lon="10.833725301057461"><ele>827.0</ele><time>2026-04-05T13:41:09.999Z</time></trkpt><trkpt lat="44.298805030608264" lon="10.833810756601423"><ele>827.0</ele><time>2026-04-05T13:41:10.999Z</time></trkpt><trkpt lat="44.298857181120674" lon="10.833902351953364"><ele>827.0000000000001</ele><time>2026-04-05T13:41:11.999Z</time></trkpt><trkpt lat="44.29891761435476" lon="10.833982845099058"><ele>827.0</ele><time>2026-04-05T13:41:12.999Z</time></trkpt><trkpt lat="44.29901049746986" lon="10.834004435785443"><ele>825.8333333333334</ele><time>2026-04-05T13:41:14.999Z</time></trkpt><trkpt lat="44.29909183256487" lon="10.833969522909562"><ele>824.6666666666667</ele><time>2026-04-05T13:41:16.999Z</time></trkpt><trkpt lat="44.2991795721895" lon="10.833939283496395"><ele>823.5</ele><time>2026-04-05T13:41:18.999Z</time></trkpt><trkpt lat="44.299248579496826" lon="10.833896771086163"><ele>822.3333333333333</ele><time>2026-04-05T13:41:20.999Z</time></trkpt><trkpt lat="44.2993079880162" lon="10.833860558437406"><ele>821.1666666666666</ele><time>2026-04-05T13:41:21.999Z</time></trkpt><trkpt lat="44.29941710216585" lon="10.83376469639152"><ele>820.0</ele><time>2026-04-05T13:41:23.999Z</time></trkpt><trkpt lat="44.29951784073572" lon="10.833684051231492"><ele>820.0</ele><time>2026-04-05T13:41:25.999Z</time></trkpt><trkpt lat="44.299611988203246" lon="10.83367103010919"><ele>820.0</ele><time>2026-04-05T13:41:27.999Z</time></trkpt><trkpt lat="44.29971172138511" lon="10.833693379764945"><ele>820.0</ele><time>2026-04-05T13:41:30.999Z</time></trkpt><trkpt lat="44.29973560005284" lon="10.833778169012726"><ele>820.0</ele><time>2026-04-05T13:41:32.999Z</time></trkpt><trkpt lat="44.299624346843565" lon="10.833868702444882"><ele>820.0</ele><time>2026-04-05T13:41:35.999Z</time></trkpt><trkpt lat="44.29954722691503" lon="10.83383221719721"><ele>820.0</ele><time>2026-04-05T13:41:36.999Z</time></trkpt><trkpt lat="44.299512891686184" lon="10.83374649556855"><ele>820.0</ele><time>2026-04-05T13:41:38.999Z</time></trkpt><trkpt lat="44.299577096481926" lon="10.833679735477844"><ele>820.0</ele><time>2026-04-05T13:42:11Z</time></trkpt><trkpt lat="44.29963469578966" lon="10.833619392362344"><ele>820.0</ele><time>2026-04-05T13:42:13Z</time></trkpt><trkpt lat="44.299700862243846" lon="10.833579071606914"><ele>820.0</ele><time>2026-04-05T13:42:15Z</time></trkpt><trkpt lat="44.29976159634461" lon="10.833553521631751"><ele>820.0</ele><time>2026-04-05T13:42:16Z</time></trkpt><trkpt lat="44.299818648774206" lon="10.833485641856257"><ele>820.0</ele><time>2026-04-05T13:42:18Z</time></trkpt><trkpt lat="44.29984523897071" lon="10.833399625947138"><ele>816.4999999999999</ele><time>2026-04-05T13:42:20Z</time></trkpt><trkpt lat="44.29988503523344" lon="10.833295021489981"><ele>813.0</ele><time>2026-04-05T13:42:24Z</time></trkpt><trkpt lat="44.2999275832034" lon="10.833204426808996"><ele>809.5</ele><time>2026-04-05T13:42:27Z</time></trkpt><trkpt lat="44.300014862037315" lon="10.833151714363352"><ele>806.0</ele><time>2026-04-05T13:42:29Z</time></trkpt><trkpt lat="44.30008896730747" lon="10.833100902806901"><ele>802.4999999999999</ele><time>2026-04-05T13:42:31Z</time></trkpt><trkpt lat="44.30014811749493" lon="10.833056709801989"><ele>799.0</ele><time>2026-04-05T13:42:33Z</time></trkpt><trkpt lat="44.30017804155266" lon="10.833149142332429"><ele>799.0</ele><time>2026-04-05T13:42:35Z</time></trkpt><trkpt lat="44.30016871766664" lon="10.833290241222112"><ele>799.0</ele><time>2026-04-05T13:42:37Z</time></trkpt><trkpt lat="44.30025737465721" lon="10.833336718354374"><ele>799.0</ele><time>2026-04-05T13:42:39Z</time></trkpt><trkpt lat="44.30031904131182" lon="10.833363883588861"><ele>799.0</ele><time>2026-04-05T13:42:40Z</time></trkpt><trkpt lat="44.30039874229149" lon="10.833462771455164"><ele>799.0</ele><time>2026-04-05T13:42:42Z</time></trkpt><trkpt lat="44.300463453600344" lon="10.833584618009839"><ele>799.3333333333333</ele><time>2026-04-05T13:42:44Z</time></trkpt><trkpt lat="44.300431929884525" lon="10.83368335797938"><ele>799.6666666666666</ele><time>2026-04-05T13:42:46Z</time></trkpt><trkpt lat="44.300364351188165" lon="10.833714544611096"><ele>800.0</ele><time>2026-04-05T13:42:47Z</time></trkpt><trkpt lat="44.30030042468403" lon="10.833756736588425"><ele>800.3333333333333</ele><time>2026-04-05T13:42:48Z</time></trkpt><trkpt lat="44.300214952310824" lon="10.83392010442843"><ele>800.6666666666666</ele><time>2026-04-05T13:42:50Z</time></trkpt><trkpt lat="44.300194647535044" lon="10.83400894710562"><ele>801.0</ele><time>2026-04-05T13:42:51Z</time></trkpt><trkpt lat="44.30021528518556" lon="10.834169021767432"><ele>801.0</ele><time>2026-04-05T13:42:53Z</time></trkpt><trkpt lat="44.30022926197793" lon="10.834276151445495"><ele>801.0</ele><time>2026-04-05T13:42:54Z</time></trkpt><trkpt lat="44.30026479787406" lon="10.834355005215341"><ele>801.0</ele><time>2026-04-05T13:42:55Z</time></trkpt><trkpt lat="44.30031423507695" lon="10.834434084562899"><ele>801.0</ele><time>2026-04-05T13:42:56Z</time></trkpt><trkpt lat="44.300369098732254" lon="10.83451180400561"><ele>801.0</ele><time>2026-04-05T13:42:57Z</time></trkpt><trkpt lat="44.30043237925843" lon="10.834626591416606"><ele>801.0</ele><time>2026-04-05T13:42:58Z</time></trkpt><trkpt lat="44.300505541316504" lon="10.834723657937694"><ele>801.1666666666666</ele><time>2026-04-05T13:42:59Z</time></trkpt><trkpt lat="44.30058243447207" lon="10.834832425565144"><ele>801.3333333333333</ele><time>2026-04-05T13:43:01Z</time></trkpt><trkpt lat="44.30063538357485" lon="10.834887524099692"><ele>801.5</ele><time>2026-04-05T13:43:02Z</time></trkpt><trkpt lat="44.30069077082122" lon="10.834953153122246"><ele>801.6666666666666</ele><time>2026-04-05T13:43:03Z</time></trkpt><trkpt lat="44.30073786364536" lon="10.835022914187308"><ele>801.8333333333333</ele><time>2026-04-05T13:43:04Z</time></trkpt><trkpt lat="44.300822937310144" lon="10.835160267633848"><ele>802.0</ele><time>2026-04-05T13:43:06Z</time></trkpt><trkpt lat="44.300924344605214" lon="10.835226311377042"><ele>799.4000000000001</ele><time>2026-04-05T13:43:07.999Z</time></trkpt><trkpt lat="44.30102526037934" lon="10.83533454395544"><ele>796.8000000000001</ele><time>2026-04-05T13:43:09.999Z</time></trkpt><trkpt lat="44.30106915773929" lon="10.835404460382566"><ele>794.2</ele><time>2026-04-05T13:43:10.999Z</time></trkpt><trkpt lat="44.30116534656831" lon="10.835523863942505"><ele>791.6</ele><time>2026-04-05T13:43:12.999Z</time></trkpt><trkpt lat="44.301200760897174" lon="10.835641705335792"><ele>789.0</ele><time>2026-04-05T13:43:14.999Z</time></trkpt><trkpt lat="44.30117593361704" lon="10.835785442736352"><ele>789.0</ele><time>2026-04-05T13:43:16.999Z</time></trkpt><trkpt lat="44.30110845487576" lon="10.835893169691849"><ele>789.0</ele><time>2026-04-05T13:43:18.999Z</time></trkpt><trkpt lat="44.30104433440313" lon="10.835923720914046"><ele>789.0</ele><time>2026-04-05T13:43:19.999Z</time></trkpt><trkpt lat="44.30098081778369" lon="10.835975214723792"><ele>789.0</ele><time>2026-04-05T13:43:20.999Z</time></trkpt><trkpt lat="44.30090534798739" lon="10.836061300637457"><ele>789.0</ele><time>2026-04-05T13:43:22.999Z</time></trkpt><trkpt lat="44.30090633147066" lon="10.836163312535465"><ele>789.0</ele><time>2026-04-05T13:43:24.999Z</time></trkpt><trkpt lat="44.30089263526838" lon="10.836299959961233"><ele>787.0</ele><time>2026-04-05T13:43:26.999Z</time></trkpt><trkpt lat="44.300885375716696" lon="10.83646455782338"><ele>785.0</ele><time>2026-04-05T13:43:28.999Z</time></trkpt><trkpt lat="44.300882283141235" lon="10.836560483602026"><ele>783.0</ele><time>2026-04-05T13:43:29.999Z</time></trkpt><trkpt lat="44.30092218374624" lon="10.836680047721327"><ele>781.0</ele><time>2026-04-05T13:43:31.999Z</time></trkpt><trkpt lat="44.30096472140626" lon="10.836812775199268"><ele>779.0</ele><time>2026-04-05T13:43:33.999Z</time></trkpt><trkpt lat="44.300988475890804" lon="10.836921222438232"><ele>776.8000000000001</ele><time>2026-04-05T13:43:35.999Z</time></trkpt><trkpt lat="44.30103934501102" lon="10.83698605611081"><ele>774.6</ele><time>2026-04-05T13:43:37.999Z</time></trkpt><trkpt lat="44.30112584271451" lon="10.836999501952473"><ele>772.4</ele><time>2026-04-05T13:43:39.999Z</time></trkpt><trkpt lat="44.30124527296805" lon="10.837077120745368"><ele>770.2</ele><time>2026-04-05T13:43:42.999Z</time></trkpt><trkpt lat="44.30130927858713" lon="10.837179812879976"><ele>768.0</ele><time>2026-04-05T13:43:44.999Z</time></trkpt><trkpt lat="44.30140086256525" lon="10.837251007274656"><ele>766.3333333333334</ele><time>2026-04-05T13:43:46.999Z</time></trkpt><trkpt lat="44.30149386178563" lon="10.837319838335855"><ele>764.6666666666666</ele><time>2026-04-05T13:43:48.999Z</time></trkpt><trkpt lat="44.30154149946651" lon="10.837392985724154"><ele>763.0</ele><time>2026-04-05T13:43:50.999Z</time></trkpt><trkpt lat="44.30159003008959" lon="10.83749302010793"><ele>761.3333333333333</ele><time>2026-04-05T13:43:52.999Z</time></trkpt><trkpt lat="44.301641801268644" lon="10.837556531472387"><ele>759.6666666666666</ele><time>2026-04-05T13:43:53.999Z</time></trkpt><trkpt lat="44.30169705949057" lon="10.837666194582338"><ele>758.0</ele><time>2026-04-05T13:43:55.999Z</time></trkpt><trkpt lat="44.301765166150766" lon="10.83779507775456"><ele>756.0</ele><time>2026-04-05T13:43:57.999Z</time></trkpt><trkpt lat="44.3018212611393" lon="10.837866979703273"><ele>754.0</ele><time>2026-04-05T13:43:59.999Z</time></trkpt><trkpt lat="44.30189803992967" lon="10.837927086520873"><ele>752.0</ele><time>2026-04-05T13:44:01.999Z</time></trkpt><trkpt lat="44.301938508580704" lon="10.83807444577112"><ele>750.0</ele><time>2026-04-05T13:44:03.999Z</time></trkpt><trkpt lat="44.30196825333398" lon="10.838194959614697"><ele>748.0</ele><time>2026-04-05T13:44:05.999Z</time></trkpt><trkpt lat="44.30201483852609" lon="10.838267532262979"><ele>746.0</ele><time>2026-04-05T13:44:07.999Z</time></trkpt><trkpt lat="44.30211710920672" lon="10.838344357480324"><ele>746.0</ele><time>2026-04-05T13:44:09.999Z</time></trkpt><trkpt lat="44.30218287890311" lon="10.838325248399366"><ele>746.0</ele><time>2026-04-05T13:44:10.999Z</time></trkpt><trkpt lat="44.30223740363958" lon="10.83839779308724"><ele>746.0</ele><time>2026-04-05T13:44:13.999Z</time></trkpt><trkpt lat="44.30226967780307" lon="10.838552792897275"><ele>746.0</ele><time>2026-04-05T13:44:16Z</time></trkpt><trkpt lat="44.302245499246595" lon="10.838687590589968"><ele>746.0</ele><time>2026-04-05T13:44:18Z</time></trkpt><trkpt lat="44.30227894856505" lon="10.838833043540648"><ele>743.0</ele><time>2026-04-05T13:44:20Z</time></trkpt><trkpt lat="44.30232829971863" lon="10.838959607741648"><ele>740.0</ele><time>2026-04-05T13:44:22Z</time></trkpt><trkpt lat="44.30235149071361" lon="10.839062649045458"><ele>737.0</ele><time>2026-04-05T13:44:24Z</time></trkpt><trkpt lat="44.302474660848034" lon="10.83909561221532"><ele>734.0</ele><time>2026-04-05T13:44:26Z</time></trkpt><trkpt lat="44.302523804763254" lon="10.839229324909661"><ele>731.0</ele><time>2026-04-05T13:44:28Z</time></trkpt><trkpt lat="44.30251898525697" lon="10.839380786391258"><ele>730.0</ele><time>2026-04-05T13:44:30Z</time></trkpt><trkpt lat="44.30252323857231" lon="10.839475385344128"><ele>729.0</ele><time>2026-04-05T13:44:32Z</time></trkpt><trkpt lat="44.30249853004297" lon="10.839583505062556"><ele>728.0</ele><time>2026-04-05T13:44:34Z</time></trkpt><trkpt lat="44.30242862633714" lon="10.839735255947412"><ele>727.0</ele><time>2026-04-05T13:44:36Z</time></trkpt><trkpt lat="44.30236782345004" lon="10.839834076508579"><ele>726.0</ele><time>2026-04-05T13:44:38Z</time></trkpt><trkpt lat="44.302391779679404" lon="10.839972290804223"><ele>726.0</ele><time>2026-04-05T13:44:40Z</time></trkpt><trkpt lat="44.30246912071976" lon="10.839967324410384"><ele>726.0</ele><time>2026-04-05T13:44:42Z</time></trkpt><trkpt lat="44.30252342538278" lon="10.839905962485494"><ele>726.0</ele><time>2026-04-05T13:44:43Z</time></trkpt><trkpt lat="44.30260056341257" lon="10.839807004136036"><ele>726.0</ele><time>2026-04-05T13:44:45Z</time></trkpt><trkpt lat="44.30266873467138" lon="10.83973185895637"><ele>726.0</ele><time>2026-04-05T13:44:47Z</time></trkpt><trkpt lat="44.302726527243344" lon="10.839640204952424"><ele>726.0</ele><time>2026-04-05T13:44:49Z</time></trkpt><trkpt lat="44.30281798763651" lon="10.83963977555571"><ele>726.0</ele><time>2026-04-05T13:44:53Z</time></trkpt><trkpt lat="44.302904313326145" lon="10.839644909532137"><ele>726.0</ele><time>2026-04-05T13:44:55Z</time></trkpt><trkpt lat="44.30298586348126" lon="10.839625002615207"><ele>726.0</ele><time>2026-04-05T13:44:57Z</time></trkpt><trkpt lat="44.30304641130636" lon="10.839666657748296"><ele>726.0</ele><time>2026-04-05T13:44:59Z</time></trkpt><trkpt lat="44.30309732934224" lon="10.839755687594272"><ele>726.0</ele><time>2026-04-05T13:45:01Z</time></trkpt><trkpt lat="44.30316360546775" lon="10.839846221817192"><ele>726.0</ele><time>2026-04-05T13:45:04Z</time></trkpt><trkpt lat="44.30324132114159" lon="10.83988075659901"><ele>724.1428571428571</ele><time>2026-04-05T13:45:08.999Z</time></trkpt><trkpt lat="44.303305746373205" lon="10.839902508275197"><ele>722.2857142857142</ele><time>2026-04-05T13:45:10.999Z</time></trkpt><trkpt lat="44.3033756995551" lon="10.839926730115405"><ele>720.4285714285713</ele><time>2026-04-05T13:45:13.999Z</time></trkpt><trkpt lat="44.30343446822308" lon="10.839963946976122"><ele>718.5714285714286</ele><time>2026-04-05T13:45:21.999Z</time></trkpt><trkpt lat="44.30347786520878" lon="10.840059967628738"><ele>716.7142857142858</ele><time>2026-04-05T13:45:30.999Z</time></trkpt><trkpt lat="44.30351503449226" lon="10.840144249087547"><ele>714.8571428571428</ele><time>2026-04-05T13:45:33.999Z</time></trkpt><trkpt lat="44.303545598644675" lon="10.840240094487365"><ele>713.0</ele><time>2026-04-05T13:45:37.999Z</time></trkpt><trkpt lat="44.30354991863316" lon="10.840332837350918"><ele>712.5</ele><time>2026-04-05T13:45:44.999Z</time></trkpt><trkpt lat="44.303533705054704" lon="10.84041836224487"><ele>712.0</ele><time>2026-04-05T13:45:48.999Z</time></trkpt><trkpt lat="44.303561312055294" lon="10.840513620807021"><ele>711.5</ele><time>2026-04-05T13:45:53.999Z</time></trkpt><trkpt lat="44.3036138887018" lon="10.840627302141979"><ele>711.0</ele><time>2026-04-05T13:45:56.999Z</time></trkpt><trkpt lat="44.30368095669561" lon="10.84066778623463"><ele>710.5</ele><time>2026-04-05T13:46:02.999Z</time></trkpt><trkpt lat="44.30373926265411" lon="10.840739592836915"><ele>710.0</ele><time>2026-04-05T13:46:04.999Z</time></trkpt><trkpt lat="44.303800047390936" lon="10.840777644526748"><ele>710.0</ele><time>2026-04-05T13:46:08.999Z</time></trkpt><trkpt lat="44.303851825810504" lon="10.84068183643027"><ele>710.0</ele><time>2026-04-05T13:46:11.999Z</time></trkpt><trkpt lat="44.303881141609416" lon="10.840558672049172"><ele>710.0</ele><time>2026-04-05T13:46:14.999Z</time></trkpt><trkpt lat="44.30390233589413" lon="10.84043277662347"><ele>710.0</ele><time>2026-04-05T13:46:17.998Z</time></trkpt><trkpt lat="44.30393550839859" lon="10.84029112802017"><ele>710.0</ele><time>2026-04-05T13:46:21Z</time></trkpt><trkpt lat="44.30397891020805" lon="10.840221589575936"><ele>710.0</ele><time>2026-04-05T13:46:22Z</time></trkpt><trkpt lat="44.3040241889584" lon="10.840109826293034"><ele>706.0</ele><time>2026-04-05T13:46:24Z</time></trkpt><trkpt lat="44.3041001636581" lon="10.840009628161088"><ele>702.0</ele><time>2026-04-05T13:46:26Z</time></trkpt><trkpt lat="44.30411102308189" lon="10.839891572349343"><ele>698.0</ele><time>2026-04-05T13:46:29Z</time></trkpt><trkpt lat="44.30416617193939" lon="10.83981623888189"><ele>694.0</ele><time>2026-04-05T13:46:32Z</time></trkpt><trkpt lat="44.30409335814124" lon="10.839766596442878"><ele>690.0</ele><time>2026-04-05T13:46:35Z</time></trkpt><trkpt lat="44.304019509167894" lon="10.839688723655511"><ele>686.0</ele><time>2026-04-05T13:46:37Z</time></trkpt><trkpt lat="44.304010360643154" lon="10.839569524989868"><ele>686.0</ele><time>2026-04-05T13:46:39Z</time></trkpt><trkpt lat="44.304060733136666" lon="10.839493706950078"><ele>686.0</ele><time>2026-04-05T13:46:41Z</time></trkpt><trkpt lat="44.30413258419454" lon="10.839524800418749"><ele>686.0</ele><time>2026-04-05T13:46:43Z</time></trkpt><trkpt lat="44.30420517694003" lon="10.839554621363481"><ele>686.0</ele><time>2026-04-05T13:46:45Z</time></trkpt><trkpt lat="44.3042933110266" lon="10.83957488680207"><ele>686.0</ele><time>2026-04-05T13:46:48Z</time></trkpt><trkpt lat="44.304364752035426" lon="10.83957359841992"><ele>686.0</ele><time>2026-04-05T13:46:50Z</time></trkpt><trkpt lat="44.30442678606368" lon="10.839623411912553"><ele>686.0</ele><time>2026-04-05T13:46:52Z</time></trkpt><trkpt lat="44.304488081312336" lon="10.839676070528748"><ele>686.0</ele><time>2026-04-05T13:46:54Z</time></trkpt><trkpt lat="44.304547692469875" lon="10.839720374387523"><ele>686.0</ele><time>2026-04-05T13:46:56Z</time></trkpt><trkpt lat="44.30462405053975" lon="10.839752408735293"><ele>686.0</ele><time>2026-04-05T13:47:37.999Z</time></trkpt><trkpt lat="44.30469702480912" lon="10.839820803349179"><ele>686.0</ele><time>2026-04-05T13:47:39.999Z</time></trkpt><trkpt lat="44.30480397820843" lon="10.839841868736341"><ele>686.0</ele><time>2026-04-05T13:47:42.999Z</time></trkpt><trkpt lat="44.30487171726452" lon="10.83987242070251"><ele>681.8571428571429</ele><time>2026-04-05T13:47:44.999Z</time></trkpt><trkpt lat="44.30494303794524" lon="10.839905487601532"><ele>677.7142857142858</ele><time>2026-04-05T13:47:46.999Z</time></trkpt><trkpt lat="44.30497615081069" lon="10.839991893312488"><ele>673.5714285714286</ele><time>2026-04-05T13:47:48.999Z</time></trkpt><trkpt lat="44.30505090471204" lon="10.84002472534427"><ele>669.4285714285714</ele><time>2026-04-05T13:47:50.999Z</time></trkpt><trkpt lat="44.30512424138783" lon="10.840102413462787"><ele>665.2857142857143</ele><time>2026-04-05T13:47:53.999Z</time></trkpt><trkpt lat="44.30519243444565" lon="10.840090831213214"><ele>661.1428571428571</ele><time>2026-04-05T13:47:57.999Z</time></trkpt><trkpt lat="44.30525528721468" lon="10.840096390291928"><ele>657.0</ele><time>2026-04-05T13:48:00.999Z</time></trkpt><trkpt lat="44.305314300673324" lon="10.840155200609399"><ele>656.8333333333334</ele><time>2026-04-05T13:48:02.999Z</time></trkpt><trkpt lat="44.305336769207365" lon="10.840279709009005"><ele>656.6666666666666</ele><time>2026-04-05T13:48:05.999Z</time></trkpt><trkpt lat="44.305389264547884" lon="10.8403578564001"><ele>656.5</ele><time>2026-04-05T13:48:07.999Z</time></trkpt><trkpt lat="44.30550632224579" lon="10.840401906937833"><ele>656.3333333333333</ele><time>2026-04-05T13:48:09.999Z</time></trkpt><trkpt lat="44.30556572642495" lon="10.840439925093394"><ele>656.1666666666666</ele><time>2026-04-05T13:48:10.999Z</time></trkpt><trkpt lat="44.30562720209769" lon="10.840500876555943"><ele>656.0</ele><time>2026-04-05T13:48:11.999Z</time></trkpt><trkpt lat="44.305685363451325" lon="10.840564101808233"><ele>656.0</ele><time>2026-04-05T13:48:12.999Z</time></trkpt><trkpt lat="44.3057528549271" lon="10.840665855551888"><ele>656.0</ele><time>2026-04-05T13:48:14.999Z</time></trkpt><trkpt lat="44.305786376931316" lon="10.840758759761016"><ele>656.0</ele><time>2026-04-05T13:48:15.999Z</time></trkpt><trkpt lat="44.3058236113066" lon="10.840874833972485"><ele>656.0</ele><time>2026-04-05T13:48:16.999Z</time></trkpt><trkpt lat="44.305901242695384" lon="10.841043193546376"><ele>656.0</ele><time>2026-04-05T13:48:18.999Z</time></trkpt><trkpt lat="44.30596039744785" lon="10.841194251297091"><ele>657.4</ele><time>2026-04-05T13:48:19.998Z</time></trkpt><trkpt lat="44.30602060463406" lon="10.841340755121497"><ele>658.8</ele><time>2026-04-05T13:48:20.998Z</time></trkpt><trkpt lat="44.30608604727901" lon="10.841494789318467"><ele>660.1999999999999</ele><time>2026-04-05T13:48:21.998Z</time></trkpt><trkpt lat="44.30611724298157" lon="10.84161279897999"><ele>661.5999999999999</ele><time>2026-04-05T13:48:22.998Z</time></trkpt><trkpt lat="44.306126814682216" lon="10.841713618456744"><ele>663.0</ele><time>2026-04-05T13:48:23.998Z</time></trkpt><trkpt lat="44.30607045394605" lon="10.84188791168014"><ele>663.0</ele><time>2026-04-05T13:48:26Z</time></trkpt><trkpt lat="44.306088161346715" lon="10.841976283968858"><ele>663.0</ele><time>2026-04-05T13:48:28Z</time></trkpt><trkpt lat="44.30616539194549" lon="10.842058300737177"><ele>663.0</ele><time>2026-04-05T13:48:30Z</time></trkpt><trkpt lat="44.30624927891703" lon="10.842113624564634"><ele>663.0</ele><time>2026-04-05T13:48:32Z</time></trkpt><trkpt lat="44.306334731472866" lon="10.842167557247103"><ele>663.0</ele><time>2026-04-05T13:48:34Z</time></trkpt><trkpt lat="44.30644484600835" lon="10.842202363495687"><ele>664.4</ele><time>2026-04-05T13:48:36Z</time></trkpt><trkpt lat="44.30654660122685" lon="10.84221282919224"><ele>665.8</ele><time>2026-04-05T13:48:38Z</time></trkpt><trkpt lat="44.306625813484665" lon="10.842256030095365"><ele>667.2</ele><time>2026-04-05T13:48:40Z</time></trkpt><trkpt lat="44.30658372778235" lon="10.842416099618417"><ele>668.6</ele><time>2026-04-05T13:48:42Z</time></trkpt><trkpt lat="44.30664347366574" lon="10.842556488435044"><ele>670.0</ele><time>2026-04-05T13:48:44Z</time></trkpt><trkpt lat="44.30666792580533" lon="10.842639895504254"><ele>667.8571428571428</ele><time>2026-04-05T13:48:45Z</time></trkpt><trkpt lat="44.30670003991217" lon="10.842729998091167"><ele>665.7142857142857</ele><time>2026-04-05T13:48:46Z</time></trkpt><trkpt lat="44.30673260957135" lon="10.842820387293951"><ele>663.5714285714286</ele><time>2026-04-05T13:48:47Z</time></trkpt><trkpt lat="44.306765479484035" lon="10.842903283398876"><ele>661.4285714285713</ele><time>2026-04-05T13:48:48Z</time></trkpt><trkpt lat="44.30680198872253" lon="10.842997209738234"><ele>659.2857142857142</ele><time>2026-04-05T13:48:49Z</time></trkpt><trkpt lat="44.30684316808058" lon="10.843081020752347"><ele>657.1428571428571</ele><time>2026-04-05T13:48:50Z</time></trkpt><trkpt lat="44.30688158118642" lon="10.843164893883582"><ele>655.0</ele><time>2026-04-05T13:48:51Z</time></trkpt><trkpt lat="44.306934732237124" lon="10.843314828023141"><ele>655.0</ele><time>2026-04-05T13:48:53Z</time></trkpt><trkpt lat="44.30699075897255" lon="10.84343701062362"><ele>655.0</ele><time>2026-04-05T13:48:55Z</time></trkpt><trkpt lat="44.30706626514877" lon="10.843573940042441"><ele>655.0</ele><time>2026-04-05T13:48:57Z</time></trkpt><trkpt lat="44.30710194850761" lon="10.843673627697237"><ele>655.0</ele><time>2026-04-05T13:48:58Z</time></trkpt><trkpt lat="44.3071305523783" lon="10.843754578247546"><ele>655.0</ele><time>2026-04-05T13:48:59Z</time></trkpt><trkpt lat="44.30716245884325" lon="10.843836605880924"><ele>655.0</ele><time>2026-04-05T13:49:00Z</time></trkpt><trkpt lat="44.3072366312232" lon="10.843965104545779"><ele>657.0</ele><time>2026-04-05T13:49:02Z</time></trkpt><trkpt lat="44.30734861111081" lon="10.844021601652758"><ele>659.0</ele><time>2026-04-05T13:49:04Z</time></trkpt><trkpt lat="44.30742013002249" lon="10.844028142356866"><ele>661.0</ele><time>2026-04-05T13:49:05Z</time></trkpt><trkpt lat="44.307562604363405" lon="10.844011212783363"><ele>663.0</ele><time>2026-04-05T13:49:06Z</time></trkpt><trkpt lat="44.30767054155019" lon="10.844027087320224"><ele>665.0</ele><time>2026-04-05T13:49:07Z</time></trkpt><trkpt lat="44.307793555391285" lon="10.84405781222786"><ele>665.0</ele><time>2026-04-05T13:49:09Z</time></trkpt><trkpt lat="44.30785819933059" lon="10.844086260721275"><ele>665.0</ele><time>2026-04-05T13:49:10Z</time></trkpt><trkpt lat="44.30796023178308" lon="10.84412782574366"><ele>665.0</ele><time>2026-04-05T13:49:11Z</time></trkpt><trkpt lat="44.30804035817377" lon="10.8441481182432"><ele>665.0</ele><time>2026-04-05T13:49:12Z</time></trkpt><trkpt lat="44.3081395024551" lon="10.844158288724023"><ele>665.0</ele><time>2026-04-05T13:49:14Z</time></trkpt><trkpt lat="44.30820409950286" lon="10.84416551103111"><ele>665.0</ele><time>2026-04-05T13:49:15.999Z</time></trkpt><trkpt lat="44.308319353448866" lon="10.844178397061091"><ele>666.8</ele><time>2026-04-05T13:49:25.999Z</time></trkpt><trkpt lat="44.30838295003306" lon="10.84406531049828"><ele>668.6</ele><time>2026-04-05T13:49:26.999Z</time></trkpt><trkpt lat="44.30845416390549" lon="10.844016547427746"><ele>670.4000000000001</ele><time>2026-04-05T13:49:27.999Z</time></trkpt><trkpt lat="44.30854118205003" lon="10.843968737757836"><ele>672.2</ele><time>2026-04-05T13:49:28.999Z</time></trkpt><trkpt lat="44.3086311548346" lon="10.843913258294217"><ele>674.0</ele><time>2026-04-05T13:49:29.999Z</time></trkpt><trkpt lat="44.30873474122377" lon="10.843871875334232"><ele>674.0</ele><time>2026-04-05T13:49:30.999Z</time></trkpt><trkpt lat="44.30881456200928" lon="10.843811290020838"><ele>674.0</ele><time>2026-04-05T13:49:31.999Z</time></trkpt><trkpt lat="44.30887471086126" lon="10.843689058627156"><ele>674.0</ele><time>2026-04-05T13:49:32.999Z</time></trkpt><trkpt lat="44.308964914701065" lon="10.843635472865003"><ele>674.0</ele><time>2026-04-05T13:49:33.999Z</time></trkpt><trkpt lat="44.309066157904915" lon="10.843576825878047"><ele>674.0</ele><time>2026-04-05T13:49:34.999Z</time></trkpt><trkpt lat="44.30915869230224" lon="10.843509507924383"><ele>678.2</ele><time>2026-04-05T13:49:35.999Z</time></trkpt><trkpt lat="44.309248053002264" lon="10.843441571248807"><ele>682.4000000000001</ele><time>2026-04-05T13:49:36.999Z</time></trkpt><trkpt lat="44.3093300436618" lon="10.8433496528884"><ele>686.6</ele><time>2026-04-05T13:49:37.999Z</time></trkpt><trkpt lat="44.30944267465757" lon="10.843283460305344"><ele>690.8</ele><time>2026-04-05T13:49:38.999Z</time></trkpt><trkpt lat="44.30956185426791" lon="10.843267077708909"><ele>695.0</ele><time>2026-04-05T13:49:39.999Z</time></trkpt><trkpt lat="44.30969399889813" lon="10.843261532317486"><ele>696.5</ele><time>2026-04-05T13:49:40.999Z</time></trkpt><trkpt lat="44.30983297895246" lon="10.843264203505026"><ele>698.0</ele><time>2026-04-05T13:49:41.999Z</time></trkpt><trkpt lat="44.30996872235087" lon="10.84329407404662"><ele>699.5</ele><time>2026-04-05T13:49:42.999Z</time></trkpt><trkpt lat="44.31006725551792" lon="10.843348413839097"><ele>701.0</ele><time>2026-04-05T13:49:43.999Z</time></trkpt><trkpt lat="44.31016586067399" lon="10.84343274220295"><ele>699.25</ele><time>2026-04-05T13:49:44.999Z</time></trkpt><trkpt lat="44.31022094161513" lon="10.843560927238032"><ele>697.5</ele><time>2026-04-05T13:49:45.999Z</time></trkpt><trkpt lat="44.31024481832193" lon="10.843701467334549"><ele>695.75</ele><time>2026-04-05T13:49:46.999Z</time></trkpt><trkpt lat="44.31023036576197" lon="10.843877734506806"><ele>694.0</ele><time>2026-04-05T13:49:47.999Z</time></trkpt><trkpt lat="44.310222944182186" lon="10.844086974664929"><ele>693.6666666666667</ele><time>2026-04-05T13:49:48.999Z</time></trkpt><trkpt lat="44.310228670384795" lon="10.844317210154914"><ele>693.3333333333334</ele><time>2026-04-05T13:49:49.999Z</time></trkpt><trkpt lat="44.31023852319013" lon="10.844571209881739"><ele>693.0</ele><time>2026-04-05T13:49:50.999Z</time></trkpt><trkpt lat="44.31024263433606" lon="10.8448040183682"><ele>693.0</ele><time>2026-04-05T13:49:51.999Z</time></trkpt><trkpt lat="44.31024127174852" lon="10.844996764633427"><ele>693.0</ele><time>2026-04-05T13:49:52.999Z</time></trkpt><trkpt lat="44.31025046339745" lon="10.845193059647409"><ele>693.0</ele><time>2026-04-05T13:49:53.999Z</time></trkpt><trkpt lat="44.31027542024163" lon="10.84537232504615"><ele>693.0</ele><time>2026-04-05T13:49:54.999Z</time></trkpt><trkpt lat="44.31031257647219" lon="10.845552105345998"><ele>692.25</ele><time>2026-04-05T13:49:55.999Z</time></trkpt><trkpt lat="44.31036170962348" lon="10.84573381280451"><ele>691.5</ele><time>2026-04-05T13:49:56.999Z</time></trkpt><trkpt lat="44.31040653107843" lon="10.845894258163819"><ele>690.75</ele><time>2026-04-05T13:49:57.999Z</time></trkpt><trkpt lat="44.31045118689826" lon="10.846047177005747"><ele>690.0</ele><time>2026-04-05T13:49:58.999Z</time></trkpt><trkpt lat="44.31050804576925" lon="10.846156300132327"><ele>691.4</ele><time>2026-04-05T13:49:59.999Z</time></trkpt><trkpt lat="44.31056996057702" lon="10.846228884615316"><ele>692.8</ele><time>2026-04-05T13:50:00.999Z</time></trkpt><trkpt lat="44.310655023544655" lon="10.846252940188952"><ele>694.2</ele><time>2026-04-05T13:50:01.999Z</time></trkpt><trkpt lat="44.31075789830525" lon="10.84621185755991"><ele>695.6</ele><time>2026-04-05T13:50:02.999Z</time></trkpt><trkpt lat="44.31086472746895" lon="10.846078155737933"><ele>697.0</ele><time>2026-04-05T13:50:03.999Z</time></trkpt><trkpt lat="44.31093692011916" lon="10.845927017517889"><ele>703.0</ele><time>2026-04-05T13:50:04.999Z</time></trkpt><trkpt lat="44.31101007123274" lon="10.845742155435332"><ele>709.0</ele><time>2026-04-05T13:50:05.999Z</time></trkpt><trkpt lat="44.31109232195397" lon="10.845574504919119"><ele>715.0</ele><time>2026-04-05T13:50:06.999Z</time></trkpt><trkpt lat="44.311189987617446" lon="10.845373361432689"><ele>715.0</ele><time>2026-04-05T13:50:07.999Z</time></trkpt><trkpt lat="44.31127974385388" lon="10.845189628570493"><ele>715.0</ele><time>2026-04-05T13:50:08.999Z</time></trkpt><trkpt lat="44.311343091020944" lon="10.845054265710447"><ele>715.0</ele><time>2026-04-05T13:50:09.999Z</time></trkpt><trkpt lat="44.311387065394634" lon="10.84489569265083"><ele>715.0</ele><time>2026-04-05T13:50:10.999Z</time></trkpt><trkpt lat="44.311406283379405" lon="10.844691505420586"><ele>715.0</ele><time>2026-04-05T13:50:11.999Z</time></trkpt><trkpt lat="44.31141134128473" lon="10.844465884603878"><ele>715.0</ele><time>2026-04-05T13:50:12.999Z</time></trkpt><trkpt lat="44.31141425731367" lon="10.84421372691791"><ele>715.0</ele><time>2026-04-05T13:50:13.999Z</time></trkpt><trkpt lat="44.31141650635143" lon="10.843949292873512"><ele>717.6666666666667</ele><time>2026-04-05T13:50:14.999Z</time></trkpt><trkpt lat="44.311418558549484" lon="10.843692128525653"><ele>720.3333333333334</ele><time>2026-04-05T13:50:15.999Z</time></trkpt><trkpt lat="44.31142277042595" lon="10.843449535456207"><ele>723.0</ele><time>2026-04-05T13:50:16.999Z</time></trkpt><trkpt lat="44.31142744930145" lon="10.843236967293503"><ele>724.25</ele><time>2026-04-05T13:50:17.999Z</time></trkpt><trkpt lat="44.31143705202745" lon="10.843052271137617"><ele>725.5</ele><time>2026-04-05T13:50:18.999Z</time></trkpt><trkpt lat="44.31146202236308" lon="10.842872064389534"><ele>726.75</ele><time>2026-04-05T13:50:19.999Z</time></trkpt><trkpt lat="44.31153789597745" lon="10.842679155626541"><ele>728.0</ele><time>2026-04-05T13:50:20.999Z</time></trkpt><trkpt lat="44.3115928684093" lon="10.842460048794544"><ele>731.0</ele><time>2026-04-05T13:50:21.999Z</time></trkpt><trkpt lat="44.31166933007481" lon="10.842220163178592"><ele>734.0</ele><time>2026-04-05T13:50:22.999Z</time></trkpt><trkpt lat="44.311763061518235" lon="10.842027394249422"><ele>737.0</ele><time>2026-04-05T13:50:23.999Z</time></trkpt><trkpt lat="44.311832551373165" lon="10.841838708562971"><ele>742.3333333333333</ele><time>2026-04-05T13:50:24.999Z</time></trkpt><trkpt lat="44.311935358964476" lon="10.841657787824442"><ele>747.6666666666666</ele><time>2026-04-05T13:50:25.999Z</time></trkpt><trkpt lat="44.312035294053054" lon="10.841492120690912"><ele>753.0</ele><time>2026-04-05T13:50:26.998Z</time></trkpt><trkpt lat="44.31213762743659" lon="10.841331556099075"><ele>748.5</ele><time>2026-04-05T13:50:27.998Z</time></trkpt><trkpt lat="44.31224478610883" lon="10.84119070768476"><ele>744.0</ele><time>2026-04-05T13:50:28.998Z</time></trkpt><trkpt lat="44.31234432343384" lon="10.841106600282709"><ele>739.5</ele><time>2026-04-05T13:50:29.998Z</time></trkpt><trkpt lat="44.312456005547695" lon="10.841047206465234"><ele>735.0</ele><time>2026-04-05T13:50:30.998Z</time></trkpt><trkpt lat="44.3125762139678" lon="10.841036807445692"><ele>735.0</ele><time>2026-04-05T13:50:32Z</time></trkpt><trkpt lat="44.312696100482626" lon="10.841072988267275"><ele>735.0</ele><time>2026-04-05T13:50:33Z</time></trkpt><trkpt lat="44.31281491052816" lon="10.841117263059658"><ele>735.0</ele><time>2026-04-05T13:50:34Z</time></trkpt><trkpt lat="44.31293638600682" lon="10.841162458099491"><ele>735.0</ele><time>2026-04-05T13:50:35Z</time></trkpt><trkpt lat="44.3130556178586" lon="10.841205649804506"><ele>736.0</ele><time>2026-04-05T13:50:36Z</time></trkpt><trkpt lat="44.31315867928976" lon="10.84124298377839"><ele>737.0</ele><time>2026-04-05T13:50:37Z</time></trkpt><trkpt lat="44.31324838505049" lon="10.841273442910106"><ele>738.0</ele><time>2026-04-05T13:50:38Z</time></trkpt><trkpt lat="44.313330893437694" lon="10.841298405553514"><ele>739.0</ele><time>2026-04-05T13:50:39Z</time></trkpt><trkpt lat="44.31343551277912" lon="10.841326714311771"><ele>740.0</ele><time>2026-04-05T13:50:40Z</time></trkpt><trkpt lat="44.31353350974015" lon="10.841340435867064"><ele>740.0</ele><time>2026-04-05T13:50:41Z</time></trkpt><trkpt lat="44.31361467320299" lon="10.841335805925025"><ele>740.0</ele><time>2026-04-05T13:50:42Z</time></trkpt><trkpt lat="44.31369085637719" lon="10.841331979072834"><ele>740.0</ele><time>2026-04-05T13:50:43Z</time></trkpt><trkpt lat="44.31377698142236" lon="10.841324814542345"><ele>740.0</ele><time>2026-04-05T13:50:45Z</time></trkpt><trkpt lat="44.31378384164176" lon="10.841535741729103"><ele>740.0</ele><time>2026-04-05T13:50:48Z</time></trkpt><trkpt lat="44.31381075210719" lon="10.841621010992366"><ele>740.0</ele><time>2026-04-05T13:50:49Z</time></trkpt><trkpt lat="44.31384351466274" lon="10.84170004128723"><ele>740.0</ele><time>2026-04-05T13:50:49.999Z</time></trkpt><trkpt lat="44.31390803716757" lon="10.841793077699926"><ele>740.0</ele><time>2026-04-05T13:50:50.999Z</time></trkpt><trkpt lat="44.3139851757336" lon="10.841907380682889"><ele>740.0</ele><time>2026-04-05T13:50:51.999Z</time></trkpt><trkpt lat="44.31405893728628" lon="10.84198686917855"><ele>740.0</ele><time>2026-04-05T13:50:52.999Z</time></trkpt><trkpt lat="44.314109493462915" lon="10.842079340303462"><ele>740.0</ele><time>2026-04-05T13:50:53.999Z</time></trkpt><trkpt lat="44.31418483247983" lon="10.842183094266526"><ele>737.0</ele><time>2026-04-05T13:50:54.999Z</time></trkpt><trkpt lat="44.314273796936185" lon="10.842308363024689"><ele>734.0</ele><time>2026-04-05T13:50:55.999Z</time></trkpt><trkpt lat="44.31436497041938" lon="10.842406125572996"><ele>731.0</ele><time>2026-04-05T13:50:56.999Z</time></trkpt><trkpt lat="44.3144525497161" lon="10.842512818799491"><ele>728.0</ele><time>2026-04-05T13:50:57.999Z</time></trkpt><trkpt lat="44.314530648505986" lon="10.842636263113098"><ele>729.0</ele><time>2026-04-05T13:50:58.999Z</time></trkpt><trkpt lat="44.3146269611508" lon="10.842757635202332"><ele>730.0</ele><time>2026-04-05T13:50:59.999Z</time></trkpt><trkpt lat="44.31471689634842" lon="10.842855641965414"><ele>731.0</ele><time>2026-04-05T13:51:00.999Z</time></trkpt><trkpt lat="44.314790971013366" lon="10.842979553132277"><ele>732.0</ele><time>2026-04-05T13:51:01.999Z</time></trkpt><trkpt lat="44.31480571706611" lon="10.84311957470509"><ele>732.0</ele><time>2026-04-05T13:51:02.999Z</time></trkpt><trkpt lat="44.31481277078477" lon="10.843237283193897"><ele>732.0</ele><time>2026-04-05T13:51:03.999Z</time></trkpt><trkpt lat="44.31480493247633" lon="10.84335625956215"><ele>732.0</ele><time>2026-04-05T13:51:04.999Z</time></trkpt><trkpt lat="44.314824469312185" lon="10.84348720399138"><ele>732.0</ele><time>2026-04-05T13:51:05.999Z</time></trkpt><trkpt lat="44.314837618788104" lon="10.843591264118746"><ele>732.0</ele><time>2026-04-05T13:51:06.998Z</time></trkpt><trkpt lat="44.31486483990741" lon="10.843686122588268"><ele>732.0</ele><time>2026-04-05T13:51:07.998Z</time></trkpt><trkpt lat="44.314889057841285" lon="10.843799912314568"><ele>729.4000000000001</ele><time>2026-04-05T13:51:08.998Z</time></trkpt><trkpt lat="44.31492917298245" lon="10.843907565892206"><ele>726.8000000000001</ele><time>2026-04-05T13:51:09.998Z</time></trkpt><trkpt lat="44.314993872962276" lon="10.84403280853653"><ele>724.2</ele><time>2026-04-05T13:51:10.998Z</time></trkpt><trkpt lat="44.31503134564855" lon="10.84416001900415"><ele>721.6</ele><time>2026-04-05T13:51:11.998Z</time></trkpt><trkpt lat="44.31508764974254" lon="10.844308284640404"><ele>719.0</ele><time>2026-04-05T13:51:13.998Z</time></trkpt><trkpt lat="44.31513443833279" lon="10.84444188849037"><ele>717.5</ele><time>2026-04-05T13:51:15.998Z</time></trkpt><trkpt lat="44.31517739686733" lon="10.84452282755068"><ele>716.0</ele><time>2026-04-05T13:51:19.998Z</time></trkpt><trkpt lat="44.31542906781671" lon="10.844447933368288"><ele>714.5</ele><time>2026-04-05T13:51:21.998Z</time></trkpt><trkpt lat="44.3155016606273" lon="10.844435170282354"><ele>713.0</ele><time>2026-04-05T13:51:22.998Z</time></trkpt><trkpt lat="44.315578705256655" lon="10.84442555443127"><ele>713.0</ele><time>2026-04-05T13:51:23.998Z</time></trkpt><trkpt lat="44.315689464672104" lon="10.844418112312958"><ele>713.0</ele><time>2026-04-05T13:51:25.999Z</time></trkpt><trkpt lat="44.31580428078863" lon="10.84444563323771"><ele>713.0</ele><time>2026-04-05T13:51:27.999Z</time></trkpt><trkpt lat="44.31586763154321" lon="10.844467888531419"><ele>713.0</ele><time>2026-04-05T13:51:28.999Z</time></trkpt><trkpt lat="44.3159437279544" lon="10.844482310687324"><ele>713.0</ele><time>2026-04-05T13:51:29.999Z</time></trkpt><trkpt lat="44.31606154777818" lon="10.844514707388752"><ele>713.0</ele><time>2026-04-05T13:51:31.999Z</time></trkpt><trkpt lat="44.316125548261596" lon="10.844568626927018"><ele>713.0</ele><time>2026-04-05T13:51:32.999Z</time></trkpt><trkpt lat="44.316185199734036" lon="10.844633737867845"><ele>713.0</ele><time>2026-04-05T13:51:33.999Z</time></trkpt><trkpt lat="44.31624744251277" lon="10.844726915489476"><ele>713.0</ele><time>2026-04-05T13:51:34.999Z</time></trkpt><trkpt lat="44.316270878508" lon="10.844830000319567"><ele>713.0</ele><time>2026-04-05T13:51:35.999Z</time></trkpt><trkpt lat="44.31629391210936" lon="10.844962761688945"><ele>713.0</ele><time>2026-04-05T13:51:36.999Z</time></trkpt><trkpt lat="44.31632058011626" lon="10.845075308308955"><ele>711.5</ele><time>2026-04-05T13:51:37.999Z</time></trkpt><trkpt lat="44.316374683755605" lon="10.845220227917661"><ele>710.0</ele><time>2026-04-05T13:51:39.999Z</time></trkpt><trkpt lat="44.31647148556927" lon="10.84534259849475"><ele>708.5</ele><time>2026-04-05T13:51:41.999Z</time></trkpt><trkpt lat="44.31656421910181" lon="10.845341252862067"><ele>707.0</ele><time>2026-04-05T13:51:43.999Z</time></trkpt><trkpt lat="44.3167030259527" lon="10.84532596876252"><ele>707.0</ele><time>2026-04-05T13:51:45.999Z</time></trkpt><trkpt lat="44.31677570244106" lon="10.845319667936783"><ele>707.0</ele><time>2026-04-05T13:51:46.999Z</time></trkpt><trkpt lat="44.31684434637717" lon="10.845316291978571"><ele>707.0</ele><time>2026-04-05T13:51:47.999Z</time></trkpt><trkpt lat="44.31691355194156" lon="10.84531789228609"><ele>707.0</ele><time>2026-04-05T13:51:48.999Z</time></trkpt><trkpt lat="44.31698097076778" lon="10.845327589086468"><ele>707.0</ele><time>2026-04-05T13:51:49.999Z</time></trkpt><trkpt lat="44.317070659968735" lon="10.84542533411873"><ele>707.0</ele><time>2026-04-05T13:51:51.999Z</time></trkpt><trkpt lat="44.317122950819204" lon="10.845504731896844"><ele>707.0</ele><time>2026-04-05T13:51:52.999Z</time></trkpt><trkpt lat="44.317163867654905" lon="10.84558323404343"><ele>707.0</ele><time>2026-04-05T13:51:53.999Z</time></trkpt><trkpt lat="44.317200948304546" lon="10.845679002588355"><ele>707.0</ele><time>2026-04-05T13:51:54.999Z</time></trkpt><trkpt lat="44.31723785975671" lon="10.845793120030518"><ele>707.0</ele><time>2026-04-05T13:51:55.999Z</time></trkpt><trkpt lat="44.317271658340665" lon="10.845914689609511"><ele>707.0</ele><time>2026-04-05T13:51:57.999Z</time></trkpt><trkpt lat="44.31732189114281" lon="10.846069134911215"><ele>706.2</ele><time>2026-04-05T13:52:00.999Z</time></trkpt><trkpt lat="44.31736251541822" lon="10.846184868104933"><ele>705.4000000000001</ele><time>2026-04-05T13:52:02.999Z</time></trkpt><trkpt lat="44.31741338618956" lon="10.84630294490747"><ele>704.5999999999999</ele><time>2026-04-05T13:52:04.999Z</time></trkpt><trkpt lat="44.31746864714509" lon="10.84641071144779"><ele>703.8</ele><time>2026-04-05T13:52:06.999Z</time></trkpt><trkpt lat="44.317551605441714" lon="10.846485701911115"><ele>703.0</ele><time>2026-04-05T13:52:08.999Z</time></trkpt><trkpt lat="44.317648171489395" lon="10.846509592645148"><ele>703.0</ele><time>2026-04-05T13:52:10.999Z</time></trkpt><trkpt lat="44.317773074640165" lon="10.846511611401894"><ele>703.0</ele><time>2026-04-05T13:52:12.999Z</time></trkpt><trkpt lat="44.31784003924914" lon="10.846510687854556"><ele>703.0</ele><time>2026-04-05T13:52:13.999Z</time></trkpt><trkpt lat="44.31791364570961" lon="10.846500446652268"><ele>703.0</ele><time>2026-04-05T13:52:14.999Z</time></trkpt><trkpt lat="44.317987174753185" lon="10.846482647025892"><ele>703.0</ele><time>2026-04-05T13:52:15.999Z</time></trkpt><trkpt lat="44.318051894884164" lon="10.846463937133729"><ele>703.0</ele><time>2026-04-05T13:52:16.999Z</time></trkpt><trkpt lat="44.31811228803938" lon="10.84643357041308"><ele>704.8</ele><time>2026-04-05T13:52:17.999Z</time></trkpt><trkpt lat="44.3182441524988" lon="10.84644043571207"><ele>706.5999999999999</ele><time>2026-04-05T13:52:19.999Z</time></trkpt><trkpt lat="44.31832575435418" lon="10.846463301857376"><ele>708.4000000000001</ele><time>2026-04-05T13:52:20.999Z</time></trkpt><trkpt lat="44.31839879287421" lon="10.84649955648682"><ele>710.2</ele><time>2026-04-05T13:52:21.999Z</time></trkpt><trkpt lat="44.318453394637416" lon="10.84656627305717"><ele>712.0</ele><time>2026-04-05T13:52:22.999Z</time></trkpt><trkpt lat="44.318527818046654" lon="10.846632547383628"><ele>712.0</ele><time>2026-04-05T13:52:23.999Z</time></trkpt><trkpt lat="44.31859846503411" lon="10.846703954769662"><ele>712.0</ele><time>2026-04-05T13:52:24.999Z</time></trkpt><trkpt lat="44.31865993151431" lon="10.84675629075888"><ele>712.0</ele><time>2026-04-05T13:52:25.999Z</time></trkpt><trkpt lat="44.318726984329935" lon="10.846818645941978"><ele>712.0</ele><time>2026-04-05T13:52:26.998Z</time></trkpt><trkpt lat="44.31877825217348" lon="10.846883368806372"><ele>712.0</ele><time>2026-04-05T13:52:27.998Z</time></trkpt><trkpt lat="44.318820639457684" lon="10.846971269229263"><ele>712.0</ele><time>2026-04-05T13:52:28.998Z</time></trkpt><trkpt lat="44.318830501881465" lon="10.847172278599555"><ele>710.6</ele><time>2026-04-05T13:52:30.998Z</time></trkpt><trkpt lat="44.31882129132215" lon="10.847292368602497"><ele>709.2</ele><time>2026-04-05T13:52:31.998Z</time></trkpt><trkpt lat="44.318787291030155" lon="10.8473720394416"><ele>707.8</ele><time>2026-04-05T13:52:32.998Z</time></trkpt><trkpt lat="44.318740468082105" lon="10.847468527729141"><ele>706.4</ele><time>2026-04-05T13:52:33.998Z</time></trkpt><trkpt lat="44.318665282150214" lon="10.847563360874675"><ele>705.0</ele><time>2026-04-05T13:52:34.998Z</time></trkpt><trkpt lat="44.318621261400594" lon="10.847715922697693"><ele>705.3333333333334</ele><time>2026-04-05T13:52:36.998Z</time></trkpt><trkpt lat="44.318596294187806" lon="10.847804158271789"><ele>705.6666666666666</ele><time>2026-04-05T13:52:39Z</time></trkpt><trkpt lat="44.31866337271749" lon="10.847851261077192"><ele>706.0</ele><time>2026-04-05T13:52:41Z</time></trkpt><trkpt lat="44.31877692077025" lon="10.847919686272878"><ele>706.3333333333333</ele><time>2026-04-05T13:52:43Z</time></trkpt><trkpt lat="44.31885927167825" lon="10.847946553585682"><ele>706.6666666666666</ele><time>2026-04-05T13:52:44Z</time></trkpt><trkpt lat="44.318934529963954" lon="10.847978380409327"><ele>707.0</ele><time>2026-04-05T13:52:45Z</time></trkpt><trkpt lat="44.319005985735735" lon="10.847973948064078"><ele>707.0</ele><time>2026-04-05T13:52:46Z</time></trkpt><trkpt lat="44.3190890110467" lon="10.847976752331384"><ele>707.0</ele><time>2026-04-05T13:52:47Z</time></trkpt><trkpt lat="44.31920763876677" lon="10.847966130914378"><ele>707.0</ele><time>2026-04-05T13:52:48Z</time></trkpt><trkpt lat="44.31929772899356" lon="10.84795021579449"><ele>707.0</ele><time>2026-04-05T13:52:49Z</time></trkpt><trkpt lat="44.3193683773117" lon="10.84793601877271"><ele>707.0</ele><time>2026-04-05T13:52:50Z</time></trkpt><trkpt lat="44.31943956895412" lon="10.847917884961516"><ele>707.0</ele><time>2026-04-05T13:52:51Z</time></trkpt><trkpt lat="44.31951411200876" lon="10.84791682885652"><ele>707.0</ele><time>2026-04-05T13:52:52Z</time></trkpt><trkpt lat="44.31958903214582" lon="10.84790618670755"><ele>707.0</ele><time>2026-04-05T13:52:53Z</time></trkpt><trkpt lat="44.3196683372093" lon="10.847869266991808"><ele>707.0</ele><time>2026-04-05T13:52:54Z</time></trkpt><trkpt lat="44.31973852894183" lon="10.847794428834161"><ele>707.0</ele><time>2026-04-05T13:52:55Z</time></trkpt><trkpt lat="44.31984673072721" lon="10.847759043431953"><ele>707.0</ele><time>2026-04-05T13:52:56Z</time></trkpt><trkpt lat="44.31997799694853" lon="10.84768464879417"><ele>714.0</ele><time>2026-04-05T13:52:57Z</time></trkpt><trkpt lat="44.32009516926356" lon="10.847617545397918"><ele>721.0</ele><time>2026-04-05T13:52:58Z</time></trkpt><trkpt lat="44.32018473008852" lon="10.84756741459975"><ele>728.0</ele><time>2026-04-05T13:52:59Z</time></trkpt><trkpt lat="44.32028315218993" lon="10.847511205910752"><ele>735.0</ele><time>2026-04-05T13:53:00Z</time></trkpt><trkpt lat="44.32039087754232" lon="10.847460619386888"><ele>742.0</ele><time>2026-04-05T13:53:01Z</time></trkpt><trkpt lat="44.32050965943889" lon="10.847447492760491"><ele>742.75</ele><time>2026-04-05T13:53:02Z</time></trkpt><trkpt lat="44.32071510412173" lon="10.847353639151141"><ele>743.5</ele><time>2026-04-05T13:53:04Z</time></trkpt><trkpt lat="44.32082853383419" lon="10.847301716738901"><ele>744.25</ele><time>2026-04-05T13:53:05Z</time></trkpt><trkpt lat="44.320939131334185" lon="10.847267644174101"><ele>745.0</ele><time>2026-04-05T13:53:06Z</time></trkpt><trkpt lat="44.321045277400984" lon="10.847255873131383"><ele>745.0</ele><time>2026-04-05T13:53:07Z</time></trkpt><trkpt lat="44.321150290892206" lon="10.847265074884497"><ele>745.0</ele><time>2026-04-05T13:53:08Z</time></trkpt><trkpt lat="44.32126887239931" lon="10.847280683892999"><ele>745.0</ele><time>2026-04-05T13:53:09Z</time></trkpt><trkpt lat="44.321385599297635" lon="10.847285381315878"><ele>745.0</ele><time>2026-04-05T13:53:10Z</time></trkpt><trkpt lat="44.321493418843836" lon="10.847310964546843"><ele>745.1666666666667</ele><time>2026-04-05T13:53:11Z</time></trkpt><trkpt lat="44.32159114468133" lon="10.847330773300186"><ele>745.3333333333334</ele><time>2026-04-05T13:53:12Z</time></trkpt><trkpt lat="44.321669699219385" lon="10.847343329651398"><ele>745.5</ele><time>2026-04-05T13:53:13Z</time></trkpt><trkpt lat="44.321757599449484" lon="10.847350022963223"><ele>745.6666666666666</ele><time>2026-04-05T13:53:14Z</time></trkpt><trkpt lat="44.321836123537224" lon="10.847383526287956"><ele>745.8333333333333</ele><time>2026-04-05T13:53:15Z</time></trkpt><trkpt lat="44.321928090554074" lon="10.84737234773889"><ele>746.0</ele><time>2026-04-05T13:53:16Z</time></trkpt><trkpt lat="44.322011246294394" lon="10.847397484208448"><ele>746.0</ele><time>2026-04-05T13:53:18Z</time></trkpt><trkpt lat="44.32203154538406" lon="10.847546250874917"><ele>746.0</ele><time>2026-04-05T13:53:42.999Z</time></trkpt><trkpt lat="44.3220777905218" lon="10.847657603898137"><ele>746.0</ele><time>2026-04-05T13:53:44.999Z</time></trkpt><trkpt lat="44.32211758335232" lon="10.847755067329786"><ele>746.0</ele><time>2026-04-05T13:53:46.999Z</time></trkpt><trkpt lat="44.3221509819767" lon="10.847845869160421"><ele>746.0</ele><time>2026-04-05T13:53:48.999Z</time></trkpt><trkpt lat="44.32221137619094" lon="10.847797834700406"><ele>746.0</ele><time>2026-04-05T13:53:53.999Z</time></trkpt><trkpt lat="44.322100448315155" lon="10.84767974365971"><ele>746.0</ele><time>2026-04-05T13:53:54.999Z</time></trkpt><trkpt lat="44.322065840137824" lon="10.847580013435604"><ele>746.0</ele><time>2026-04-05T13:53:55.999Z</time></trkpt><trkpt lat="44.3220306362232" lon="10.847485390001259"><ele>746.0</ele><time>2026-04-05T13:53:56.999Z</time></trkpt><trkpt lat="44.32202526207868" lon="10.847360995815373"><ele>746.0</ele><time>2026-04-05T13:53:58.999Z</time></trkpt><trkpt lat="44.32211230896054" lon="10.847289613032705"><ele>746.0</ele><time>2026-04-05T13:54:00.999Z</time></trkpt><trkpt lat="44.3221777438385" lon="10.84729479163645"><ele>746.0</ele><time>2026-04-05T13:54:01.999Z</time></trkpt><trkpt lat="44.32224438904614" lon="10.847365038790338"><ele>748.75</ele><time>2026-04-05T13:54:02.999Z</time></trkpt><trkpt lat="44.32233739543848" lon="10.847338963046711"><ele>751.5</ele><time>2026-04-05T13:54:04.999Z</time></trkpt><trkpt lat="44.32247604396137" lon="10.847310113366207"><ele>754.25</ele><time>2026-04-05T13:54:06.999Z</time></trkpt><trkpt lat="44.32257922648735" lon="10.847299840341774"><ele>757.0</ele><time>2026-04-05T13:54:07.999Z</time></trkpt><trkpt lat="44.32271467846971" lon="10.847290266177984"><ele>757.0</ele><time>2026-04-05T13:54:08.999Z</time></trkpt><trkpt lat="44.322851366129264" lon="10.847281922430724"><ele>757.0</ele><time>2026-04-05T13:54:09.999Z</time></trkpt><trkpt lat="44.32297609796418" lon="10.847288892728498"><ele>757.0</ele><time>2026-04-05T13:54:10.999Z</time></trkpt><trkpt lat="44.32307754847462" lon="10.847352521312468"><ele>757.0</ele><time>2026-04-05T13:54:11.999Z</time></trkpt><trkpt lat="44.32315999284346" lon="10.847404252166196"><ele>757.4000000000001</ele><time>2026-04-05T13:54:12.999Z</time></trkpt><trkpt lat="44.32325093163041" lon="10.8474558913494"><ele>757.8000000000001</ele><time>2026-04-05T13:54:13.999Z</time></trkpt><trkpt lat="44.323337256806774" lon="10.84751470680148"><ele>758.2</ele><time>2026-04-05T13:54:14.999Z</time></trkpt><trkpt lat="44.323416730722876" lon="10.84756890316109"><ele>758.6</ele><time>2026-04-05T13:54:15.999Z</time></trkpt><trkpt lat="44.32350345221712" lon="10.847636544034792"><ele>759.0</ele><time>2026-04-05T13:54:16.999Z</time></trkpt><trkpt lat="44.3235815373025" lon="10.847714835219369"><ele>760.2</ele><time>2026-04-05T13:54:17.999Z</time></trkpt><trkpt lat="44.32363342153542" lon="10.847808570989779"><ele>761.4000000000001</ele><time>2026-04-05T13:54:18.999Z</time></trkpt><trkpt lat="44.32366046037099" lon="10.847917107074245"><ele>762.6</ele><time>2026-04-05T13:54:19.999Z</time></trkpt><trkpt lat="44.32365791403606" lon="10.848048256355336"><ele>763.8</ele><time>2026-04-05T13:54:20.999Z</time></trkpt><trkpt lat="44.32363524486224" lon="10.848173674229132"><ele>765.0</ele><time>2026-04-05T13:54:21.999Z</time></trkpt><trkpt lat="44.32356199590525" lon="10.848287472458836"><ele>765.0</ele><time>2026-04-05T13:54:22.999Z</time></trkpt><trkpt lat="44.3234621373037" lon="10.848344059413643"><ele>765.0</ele><time>2026-04-05T13:54:23.999Z</time></trkpt><trkpt lat="44.323348479731415" lon="10.848408977389692"><ele>765.0</ele><time>2026-04-05T13:54:24.999Z</time></trkpt><trkpt lat="44.323232364777155" lon="10.848499721630505"><ele>765.0</ele><time>2026-04-05T13:54:25.999Z</time></trkpt><trkpt lat="44.323123864779475" lon="10.848584212684695"><ele>763.0</ele><time>2026-04-05T13:54:26.999Z</time></trkpt><trkpt lat="44.32302184293635" lon="10.848675585565092"><ele>761.0</ele><time>2026-04-05T13:54:27.999Z</time></trkpt><trkpt lat="44.32295009907482" lon="10.848766552688588"><ele>759.0</ele><time>2026-04-05T13:54:28.999Z</time></trkpt><trkpt lat="44.32287959868548" lon="10.848881270239964"><ele>757.0</ele><time>2026-04-05T13:54:29.999Z</time></trkpt><trkpt lat="44.32284004595171" lon="10.848991633951478"><ele>755.0</ele><time>2026-04-05T13:54:30.999Z</time></trkpt><trkpt lat="44.32280518069361" lon="10.849109980314362"><ele>755.0</ele><time>2026-04-05T13:54:31.999Z</time></trkpt><trkpt lat="44.32282273323826" lon="10.849274771731677"><ele>755.0</ele><time>2026-04-05T13:54:32.999Z</time></trkpt><trkpt lat="44.32282756584109" lon="10.849389294734994"><ele>755.0</ele><time>2026-04-05T13:54:33.999Z</time></trkpt><trkpt lat="44.322835335185154" lon="10.849525946978694"><ele>755.0</ele><time>2026-04-05T13:54:34.998Z</time></trkpt><trkpt lat="44.32284824253432" lon="10.849678255479187"><ele>755.0</ele><time>2026-04-05T13:54:35.998Z</time></trkpt><trkpt lat="44.3228632591939" lon="10.849801381351398"><ele>754.8333333333333</ele><time>2026-04-05T13:54:36.998Z</time></trkpt><trkpt lat="44.32287015368602" lon="10.849928582546191"><ele>754.6666666666666</ele><time>2026-04-05T13:54:37.998Z</time></trkpt><trkpt lat="44.32287751869379" lon="10.85003187372448"><ele>754.5</ele><time>2026-04-05T13:54:38.998Z</time></trkpt><trkpt lat="44.32287987402992" lon="10.850120192665871"><ele>754.3333333333334</ele><time>2026-04-05T13:54:39.998Z</time></trkpt><trkpt lat="44.32287168239143" lon="10.850216577646123"><ele>754.1666666666667</ele><time>2026-04-05T13:54:40.998Z</time></trkpt><trkpt lat="44.32284768243252" lon="10.850343195239653"><ele>754.0</ele><time>2026-04-05T13:54:43Z</time></trkpt><trkpt lat="44.32295645910404" lon="10.850303638242389"><ele>753.2</ele><time>2026-04-05T13:54:47Z</time></trkpt><trkpt lat="44.32302419145714" lon="10.850191419308272"><ele>752.4000000000001</ele><time>2026-04-05T13:54:49Z</time></trkpt><trkpt lat="44.323080692760996" lon="10.850111458466381"><ele>751.6</ele><time>2026-04-05T13:54:50Z</time></trkpt><trkpt lat="44.32316078338861" lon="10.849952229955292"><ele>750.8</ele><time>2026-04-05T13:54:52Z</time></trkpt><trkpt lat="44.32319743513189" lon="10.849849887603169"><ele>750.0</ele><time>2026-04-05T13:54:53Z</time></trkpt><trkpt lat="44.3232458340479" lon="10.849739464646563"><ele>750.0</ele><time>2026-04-05T13:54:54Z</time></trkpt><trkpt lat="44.32329780061241" lon="10.849638069695638"><ele>750.0</ele><time>2026-04-05T13:54:55Z</time></trkpt><trkpt lat="44.32335473562967" lon="10.84951532642658"><ele>750.0</ele><time>2026-04-05T13:54:56Z</time></trkpt><trkpt lat="44.32342242745635" lon="10.849400842926478"><ele>750.0</ele><time>2026-04-05T13:54:57Z</time></trkpt><trkpt lat="44.323489150785676" lon="10.84931194770441"><ele>750.0</ele><time>2026-04-05T13:54:58Z</time></trkpt><trkpt lat="44.323601479382646" lon="10.849209120808064"><ele>751.0</ele><time>2026-04-05T13:55:00Z</time></trkpt><trkpt lat="44.32368916149076" lon="10.849179070706143"><ele>752.0</ele><time>2026-04-05T13:55:01Z</time></trkpt><trkpt lat="44.323775256485256" lon="10.849146181699318"><ele>753.0</ele><time>2026-04-05T13:55:02Z</time></trkpt><trkpt lat="44.3238299448268" lon="10.849258868073287"><ele>754.0</ele><time>2026-04-05T13:55:03Z</time></trkpt><trkpt lat="44.32391999739321" lon="10.849263210073456"><ele>755.0</ele><time>2026-04-05T13:55:04Z</time></trkpt><trkpt lat="44.32401224839006" lon="10.849248581489888"><ele>751.6</ele><time>2026-04-05T13:55:05Z</time></trkpt><trkpt lat="44.3240918136537" lon="10.849234965917882"><ele>748.2</ele><time>2026-04-05T13:55:06Z</time></trkpt><trkpt lat="44.32415898526915" lon="10.849218201551144"><ele>744.8</ele><time>2026-04-05T13:55:07Z</time></trkpt><trkpt lat="44.32425259699258" lon="10.84915733093814"><ele>741.4</ele><time>2026-04-05T13:55:09Z</time></trkpt><trkpt lat="44.324273205209494" lon="10.84924606244251"><ele>738.0</ele><time>2026-04-05T13:55:13Z</time></trkpt><trkpt lat="44.32420524236933" lon="10.849411898432818"><ele>736.5999999999999</ele><time>2026-04-05T13:55:15Z</time></trkpt><trkpt lat="44.32418072139017" lon="10.849547258420786"><ele>735.1999999999999</ele><time>2026-04-05T13:55:16Z</time></trkpt><trkpt lat="44.32415643763729" lon="10.849699629146837"><ele>733.8</ele><time>2026-04-05T13:55:17Z</time></trkpt><trkpt lat="44.32412370046451" lon="10.84982780459322"><ele>732.4</ele><time>2026-04-05T13:55:18Z</time></trkpt><trkpt lat="44.32406755787301" lon="10.849931419930732"><ele>731.0</ele><time>2026-04-05T13:55:19Z</time></trkpt><trkpt lat="44.32404751221257" lon="10.850041728352137"><ele>730.8</ele><time>2026-04-05T13:55:20Z</time></trkpt><trkpt lat="44.32403411723512" lon="10.850133141472108"><ele>730.5999999999999</ele><time>2026-04-05T13:55:21Z</time></trkpt><trkpt lat="44.324084578382525" lon="10.85021429237706"><ele>730.4</ele><time>2026-04-05T13:55:22Z</time></trkpt><trkpt lat="44.32409939946218" lon="10.850300168352344"><ele>730.2</ele><time>2026-04-05T13:55:23Z</time></trkpt><trkpt lat="44.324257306256655" lon="10.850316087579829"><ele>730.0</ele><time>2026-04-05T13:55:24Z</time></trkpt><trkpt lat="44.324334096883014" lon="10.850377125763009"><ele>730.0</ele><time>2026-04-05T13:55:25Z</time></trkpt><trkpt lat="44.324389072902946" lon="10.850467898241076"><ele>730.0</ele><time>2026-04-05T13:55:26Z</time></trkpt><trkpt lat="44.32443082833701" lon="10.850586275548647"><ele>730.0</ele><time>2026-04-05T13:55:26.999Z</time></trkpt><trkpt lat="44.32444770844559" lon="10.85073674832755"><ele>730.0</ele><time>2026-04-05T13:55:27.999Z</time></trkpt><trkpt lat="44.324463476028974" lon="10.850909930750879"><ele>730.0</ele><time>2026-04-05T13:55:28.999Z</time></trkpt><trkpt lat="44.32446901473139" lon="10.851147945295095"><ele>729.6666666666667</ele><time>2026-04-05T13:55:29.999Z</time></trkpt><trkpt lat="44.324489866163134" lon="10.851432671366444"><ele>729.3333333333334</ele><time>2026-04-05T13:55:30.999Z</time></trkpt><trkpt lat="44.3245146863482" lon="10.85170111742516"><ele>729.0</ele><time>2026-04-05T13:55:31.999Z</time></trkpt><trkpt lat="44.324543144398234" lon="10.851927305538274"><ele>726.75</ele><time>2026-04-05T13:55:32.999Z</time></trkpt><trkpt lat="44.32456887961642" lon="10.852127225386681"><ele>724.5</ele><time>2026-04-05T13:55:33.999Z</time></trkpt><trkpt lat="44.32460442083011" lon="10.852309568967236"><ele>722.25</ele><time>2026-04-05T13:55:34.999Z</time></trkpt><trkpt lat="44.32465176523267" lon="10.85247829978696"><ele>720.0</ele><time>2026-04-05T13:55:35.999Z</time></trkpt><trkpt lat="44.32469775653658" lon="10.852621331530218"><ele>716.5</ele><time>2026-04-05T13:55:36.999Z</time></trkpt><trkpt lat="44.32475012198197" lon="10.852746378890782"><ele>713.0</ele><time>2026-04-05T13:55:37.999Z</time></trkpt><trkpt lat="44.32479472609331" lon="10.852888262389465"><ele>709.5</ele><time>2026-04-05T13:55:38.999Z</time></trkpt><trkpt lat="44.324879383587614" lon="10.853022191804307"><ele>706.0</ele><time>2026-04-05T13:55:39.999Z</time></trkpt><trkpt lat="44.32493857524654" lon="10.853148905391388"><ele>706.0</ele><time>2026-04-05T13:55:40.999Z</time></trkpt><trkpt lat="44.32497921020564" lon="10.85326465283556"><ele>706.0</ele><time>2026-04-05T13:55:41.999Z</time></trkpt><trkpt lat="44.3250252733526" lon="10.853353745094724"><ele>706.0</ele><time>2026-04-05T13:55:42.999Z</time></trkpt><trkpt lat="44.325100433470304" lon="10.853475113810186"><ele>706.0</ele><time>2026-04-05T13:55:43.999Z</time></trkpt><trkpt lat="44.32519723975668" lon="10.853612893587268"><ele>706.0</ele><time>2026-04-05T13:55:44.999Z</time></trkpt><trkpt lat="44.32525689539987" lon="10.85375995632053"><ele>703.0</ele><time>2026-04-05T13:55:45.999Z</time></trkpt><trkpt lat="44.32531958467551" lon="10.853882286971592"><ele>700.0</ele><time>2026-04-05T13:55:46.999Z</time></trkpt><trkpt lat="44.325378920524436" lon="10.854000455247801"><ele>697.0</ele><time>2026-04-05T13:55:47.999Z</time></trkpt><trkpt lat="44.32545437622657" lon="10.854112950569021"><ele>694.0</ele><time>2026-04-05T13:55:48.999Z</time></trkpt><trkpt lat="44.32550858508691" lon="10.854213041755662"><ele>691.0</ele><time>2026-04-05T13:55:49.999Z</time></trkpt><trkpt lat="44.32555556040292" lon="10.85429505321446"><ele>692.5714285714286</ele><time>2026-04-05T13:55:50.999Z</time></trkpt><trkpt lat="44.32561330705213" lon="10.854380767244983"><ele>694.1428571428571</ele><time>2026-04-05T13:55:51.999Z</time></trkpt><trkpt lat="44.32564993906194" lon="10.854459622365372"><ele>695.7142857142858</ele><time>2026-04-05T13:55:52.999Z</time></trkpt><trkpt lat="44.32569458757141" lon="10.854522128315146"><ele>697.2857142857142</ele><time>2026-04-05T13:55:53.999Z</time></trkpt><trkpt lat="44.32575076711718" lon="10.854577611197653"><ele>698.8571428571429</ele><time>2026-04-05T13:55:54.999Z</time></trkpt><trkpt lat="44.325782159129" lon="10.85467060326319"><ele>700.4285714285714</ele><time>2026-04-05T13:55:55.999Z</time></trkpt><trkpt lat="44.3258070037324" lon="10.854753117914356"><ele>702.0</ele><time>2026-04-05T13:55:56.999Z</time></trkpt><trkpt lat="44.32584625425723" lon="10.854911749824133"><ele>702.0</ele><time>2026-04-05T13:55:58.999Z</time></trkpt><trkpt lat="44.325873818653044" lon="10.855084572896452"><ele>702.0</ele><time>2026-04-05T13:56:00.999Z</time></trkpt><trkpt lat="44.32589516200948" lon="10.855168728734123"><ele>702.0</ele><time>2026-04-05T13:56:01.999Z</time></trkpt><trkpt lat="44.32596637569796" lon="10.855233186482215"><ele>702.0</ele><time>2026-04-05T13:56:02.999Z</time></trkpt><trkpt lat="44.32606091283082" lon="10.855310630173038"><ele>702.0</ele><time>2026-04-05T13:56:03.999Z</time></trkpt><trkpt lat="44.326156619853435" lon="10.85540521962239"><ele>699.5</ele><time>2026-04-05T13:56:04.999Z</time></trkpt><trkpt lat="44.32620789922278" lon="10.855498412938866"><ele>697.0</ele><time>2026-04-05T13:56:07.999Z</time></trkpt><trkpt lat="44.32623274026877" lon="10.855589972999915"><ele>694.5</ele><time>2026-04-05T13:56:08.999Z</time></trkpt><trkpt lat="44.326224174169845" lon="10.855698700464506"><ele>692.0</ele><time>2026-04-05T13:56:09.999Z</time></trkpt><trkpt lat="44.32621279260154" lon="10.855788438669082"><ele>689.5</ele><time>2026-04-05T13:56:10.999Z</time></trkpt><trkpt lat="44.326201732246645" lon="10.855876957872484"><ele>687.0</ele><time>2026-04-05T13:56:11.999Z</time></trkpt><trkpt lat="44.32616719979141" lon="10.85605815701913"><ele>684.3333333333334</ele><time>2026-04-05T13:56:13.999Z</time></trkpt><trkpt lat="44.32615035056464" lon="10.856155132545585"><ele>681.6666666666666</ele><time>2026-04-05T13:56:14.999Z</time></trkpt><trkpt lat="44.326140954263884" lon="10.856277939686445"><ele>679.0</ele><time>2026-04-05T13:56:15.999Z</time></trkpt><trkpt lat="44.326151375953195" lon="10.856390085005346"><ele>676.3333333333333</ele><time>2026-04-05T13:56:16.999Z</time></trkpt><trkpt lat="44.32619786230011" lon="10.856506063733764"><ele>673.6666666666666</ele><time>2026-04-05T13:56:17.999Z</time></trkpt><trkpt lat="44.32625842682419" lon="10.856581822271334"><ele>671.0</ele><time>2026-04-05T13:56:18.999Z</time></trkpt><trkpt lat="44.326304432921866" lon="10.856651949204055"><ele>671.0</ele><time>2026-04-05T13:56:19.999Z</time></trkpt><trkpt lat="44.32637184947214" lon="10.856721805669276"><ele>671.0</ele><time>2026-04-05T13:56:20.999Z</time></trkpt><trkpt lat="44.3264300565753" lon="10.856774078595159"><ele>671.0</ele><time>2026-04-05T13:56:21.999Z</time></trkpt><trkpt lat="44.32648392828373" lon="10.856823874351075"><ele>671.0</ele><time>2026-04-05T13:56:22.999Z</time></trkpt><trkpt lat="44.32655552488754" lon="10.856824317176615"><ele>671.0</ele><time>2026-04-05T13:56:23.999Z</time></trkpt><trkpt lat="44.32662838847171" lon="10.85676122182438"><ele>671.0</ele><time>2026-04-05T13:56:24.999Z</time></trkpt><trkpt lat="44.32671115504775" lon="10.856751945894576"><ele>676.8</ele><time>2026-04-05T13:56:25.999Z</time></trkpt><trkpt lat="44.32677212406829" lon="10.856710492309686"><ele>682.5999999999999</ele><time>2026-04-05T13:56:26.999Z</time></trkpt><trkpt lat="44.32687819308206" lon="10.856679133426827"><ele>688.4</ele><time>2026-04-05T13:56:28.999Z</time></trkpt><trkpt lat="44.326972690169946" lon="10.856656869770068"><ele>694.2</ele><time>2026-04-05T13:56:30.999Z</time></trkpt><trkpt lat="44.327060264864365" lon="10.856670604355735"><ele>700.0</ele><time>2026-04-05T13:56:32.999Z</time></trkpt><trkpt lat="44.32715325663622" lon="10.856681300621066"><ele>700.0</ele><time>2026-04-05T13:56:34.999Z</time></trkpt><trkpt lat="44.32723647000767" lon="10.856696301683899"><ele>700.0</ele><time>2026-04-05T13:56:36.999Z</time></trkpt><trkpt lat="44.32717473991833" lon="10.856670301289196"><ele>700.0</ele><time>2026-04-05T13:56:53Z</time></trkpt><trkpt lat="44.327106659299574" lon="10.856669654194787"><ele>700.0</ele><time>2026-04-05T13:56:54Z</time></trkpt><trkpt lat="44.32703752769364" lon="10.856680358750944"><ele>700.0</ele><time>2026-04-05T13:56:55Z</time></trkpt><trkpt lat="44.32695744008014" lon="10.856685606979381"><ele>700.0</ele><time>2026-04-05T13:56:56Z</time></trkpt><trkpt lat="44.326887443201464" lon="10.856685670950258"><ele>700.0</ele><time>2026-04-05T13:56:57Z</time></trkpt><trkpt lat="44.32679375452751" lon="10.856709626195507"><ele>700.0</ele><time>2026-04-05T13:56:59Z</time></trkpt><trkpt lat="44.32667864078117" lon="10.856740514792008"><ele>700.0</ele><time>2026-04-05T13:57:01Z</time></trkpt><trkpt lat="44.32659665683612" lon="10.856769905983814"><ele>700.0</ele><time>2026-04-05T13:57:03Z</time></trkpt><trkpt lat="44.32652153490078" lon="10.856786265238924"><ele>700.0</ele><time>2026-04-05T13:57:05Z</time></trkpt><trkpt lat="44.326443350361046" lon="10.856781455383555"><ele>700.0</ele><time>2026-04-05T13:57:07Z</time></trkpt><trkpt lat="44.326376710504" lon="10.856710101051467"><ele>700.0</ele><time>2026-04-05T13:57:09Z</time></trkpt><trkpt lat="44.32636871250136" lon="10.85680359752051"><ele>696.1666666666667</ele><time>2026-04-05T13:57:10Z</time></trkpt><trkpt lat="44.326363374134" lon="10.856922706773759"><ele>692.3333333333334</ele><time>2026-04-05T13:57:12Z</time></trkpt><trkpt lat="44.32640469253759" lon="10.857022257636604"><ele>688.5</ele><time>2026-04-05T13:57:14Z</time></trkpt><trkpt lat="44.326460421213525" lon="10.857097885863714"><ele>684.6666666666666</ele><time>2026-04-05T13:57:16Z</time></trkpt><trkpt lat="44.32654880365837" lon="10.857134409997935"><ele>680.8333333333333</ele><time>2026-04-05T13:57:19Z</time></trkpt><trkpt lat="44.32662541415373" lon="10.857204791995542"><ele>677.0</ele><time>2026-04-05T13:57:21Z</time></trkpt><trkpt lat="44.32671217210471" lon="10.857233964041287"><ele>677.0</ele><time>2026-04-05T13:57:23Z</time></trkpt><trkpt lat="44.32681136085808" lon="10.857275474812848"><ele>677.0</ele><time>2026-04-05T13:57:25Z</time></trkpt><trkpt lat="44.32690232825043" lon="10.857304449882463"><ele>677.0</ele><time>2026-04-05T13:57:27Z</time></trkpt><trkpt lat="44.32696573999138" lon="10.85730365016255"><ele>677.0</ele><time>2026-04-05T13:57:29Z</time></trkpt><trkpt lat="44.32705698078199" lon="10.857287542541403"><ele>677.0</ele><time>2026-04-05T13:57:38.999Z</time></trkpt><trkpt lat="44.327136639007925" lon="10.857289621257078"><ele>677.0</ele><time>2026-04-05T13:57:41.999Z</time></trkpt><trkpt lat="44.327229678032445" lon="10.857330495399186"><ele>678.3333333333333</ele><time>2026-04-05T13:57:44.999Z</time></trkpt><trkpt lat="44.32728314728042" lon="10.857431402499172"><ele>679.6666666666666</ele><time>2026-04-05T13:57:51.999Z</time></trkpt><trkpt lat="44.327331120230234" lon="10.857492675370466"><ele>681.0</ele><time>2026-04-05T13:57:58.999Z</time></trkpt><trkpt lat="44.32737971053156" lon="10.857568103590088"><ele>682.3333333333334</ele><time>2026-04-05T13:58:03.999Z</time></trkpt><trkpt lat="44.32743195419303" lon="10.857630718579076"><ele>683.6666666666667</ele><time>2026-04-05T13:58:07.999Z</time></trkpt><trkpt lat="44.32749313534588" lon="10.857717737587764"><ele>685.0</ele><time>2026-04-05T13:58:11.999Z</time></trkpt><trkpt lat="44.32754351115954" lon="10.85780688547021"><ele>685.0</ele><time>2026-04-05T13:58:13.999Z</time></trkpt><trkpt lat="44.32761149841104" lon="10.857825736383209"><ele>685.0</ele><time>2026-04-05T13:58:15.999Z</time></trkpt><trkpt lat="44.327680738930994" lon="10.85780734869985"><ele>685.0</ele><time>2026-04-05T13:58:17.999Z</time></trkpt><trkpt lat="44.32775567402103" lon="10.857824001069238"><ele>685.0</ele><time>2026-04-05T13:58:20.999Z</time></trkpt><trkpt lat="44.327805277736616" lon="10.857879238614093"><ele>685.0</ele><time>2026-04-05T13:58:22.999Z</time></trkpt><trkpt lat="44.3278585716404" lon="10.85793617375901"><ele>685.0</ele><time>2026-04-05T13:59:33Z</time></trkpt><trkpt lat="44.32791040729142" lon="10.857996458381441"><ele>685.0</ele><time>2026-04-05T13:59:37Z</time></trkpt><trkpt lat="44.32795731294101" lon="10.85808011749428"><ele>685.0</ele><time>2026-04-05T14:01:04Z</time></trkpt><trkpt lat="44.32799843747451" lon="10.858148026672302"><ele>685.0</ele><time>2026-04-05T14:01:33Z</time></trkpt><trkpt lat="44.327937222857514" lon="10.858211854799157"><ele>685.0</ele><time>2026-04-05T14:01:37Z</time></trkpt><trkpt lat="44.32786638614946" lon="10.858237056985125"><ele>685.0</ele><time>2026-04-05T14:01:39Z</time></trkpt><trkpt lat="44.32779426644428" lon="10.8582460803371"><ele>685.0</ele><time>2026-04-05T14:01:42Z</time></trkpt><trkpt lat="44.32772816486381" lon="10.858299617049434"><ele>685.0</ele><time>2026-04-05T14:01:44Z</time></trkpt><trkpt lat="44.32765680699985" lon="10.85840275443535"><ele>685.0</ele><time>2026-04-05T14:01:49.999Z</time></trkpt><trkpt lat="44.32755380571467" lon="10.858445969848995"><ele>685.0</ele><time>2026-04-05T14:01:51.999Z</time></trkpt><trkpt lat="44.32744885233383" lon="10.858441964128154"><ele>685.0</ele><time>2026-04-05T14:01:53.999Z</time></trkpt><trkpt lat="44.327367712998715" lon="10.858526514543014"><ele>685.0</ele><time>2026-04-05T14:01:55.999Z</time></trkpt><trkpt lat="44.327311091630655" lon="10.858586967482685"><ele>685.0</ele><time>2026-04-05T14:01:56.999Z</time></trkpt><trkpt lat="44.32724907532522" lon="10.85869734743676"><ele>683.8</ele><time>2026-04-05T14:01:58.999Z</time></trkpt><trkpt lat="44.327168297312895" lon="10.858767349262441"><ele>682.6</ele><time>2026-04-05T14:02:01.999Z</time></trkpt><trkpt lat="44.32706212548961" lon="10.858793777131392"><ele>681.4000000000001</ele><time>2026-04-05T14:02:03.999Z</time></trkpt><trkpt lat="44.32695889848589" lon="10.858882369095772"><ele>680.2</ele><time>2026-04-05T14:02:05.999Z</time></trkpt><trkpt lat="44.32688060500671" lon="10.858959531884913"><ele>679.0</ele><time>2026-04-05T14:02:07.999Z</time></trkpt><trkpt lat="44.32681624231898" lon="10.859074132886313"><ele>679.0</ele><time>2026-04-05T14:02:09.999Z</time></trkpt><trkpt lat="44.326818585468104" lon="10.859196110247506"><ele>679.0</ele><time>2026-04-05T14:02:11.999Z</time></trkpt><trkpt lat="44.32686853789093" lon="10.85926646300148"><ele>679.0</ele><time>2026-04-05T14:02:13.999Z</time></trkpt><trkpt lat="44.32692685546755" lon="10.859224225480494"><ele>679.0</ele><time>2026-04-05T14:02:16.999Z</time></trkpt><trkpt lat="44.32698842918921" lon="10.85918005033114"><ele>679.0</ele><time>2026-04-05T14:02:18.999Z</time></trkpt><trkpt lat="44.32706697383739" lon="10.859161101222863"><ele>679.0</ele><time>2026-04-05T14:02:20.999Z</time></trkpt><trkpt lat="44.32716147529798" lon="10.859148918275157"><ele>685.75</ele><time>2026-04-05T14:02:22.999Z</time></trkpt><trkpt lat="44.327277626304195" lon="10.859112034278747"><ele>692.5</ele><time>2026-04-05T14:02:24.999Z</time></trkpt><trkpt lat="44.327373181977215" lon="10.859123406461208"><ele>699.25</ele><time>2026-04-05T14:02:27.999Z</time></trkpt><trkpt lat="44.327498244310334" lon="10.859086633348666"><ele>706.0</ele><time>2026-04-05T14:02:29.999Z</time></trkpt><trkpt lat="44.32761135830735" lon="10.859040773619256"><ele>706.0</ele><time>2026-04-05T14:02:31.999Z</time></trkpt><trkpt lat="44.32768193763692" lon="10.859019750794396"><ele>706.0</ele><time>2026-04-05T14:02:32.999Z</time></trkpt><trkpt lat="44.32777615315401" lon="10.858992932459012"><ele>706.0</ele><time>2026-04-05T14:02:33.999Z</time></trkpt><trkpt lat="44.32786348054442" lon="10.858981043495957"><ele>706.0</ele><time>2026-04-05T14:02:34.999Z</time></trkpt><trkpt lat="44.327967467855316" lon="10.858954563222227"><ele>706.0</ele><time>2026-04-05T14:02:36.999Z</time></trkpt><trkpt lat="44.32804478644271" lon="10.858911822110523"><ele>706.0</ele><time>2026-04-05T14:02:39.999Z</time></trkpt><trkpt lat="44.328164732991524" lon="10.858882172207151"><ele>709.3333333333334</ele><time>2026-04-05T14:02:41.999Z</time></trkpt><trkpt lat="44.32824727848429" lon="10.858869041839302"><ele>712.6666666666667</ele><time>2026-04-05T14:02:44.999Z</time></trkpt><trkpt lat="44.328312389177746" lon="10.858852347550837"><ele>716.0</ele><time>2026-04-05T14:02:46.999Z</time></trkpt><trkpt lat="44.328387461086585" lon="10.85883576742338"><ele>719.3333333333334</ele><time>2026-04-05T14:03:07Z</time></trkpt><trkpt lat="44.32847386392383" lon="10.858803371830495"><ele>722.6666666666666</ele><time>2026-04-05T14:03:09Z</time></trkpt><trkpt lat="44.32852936875227" lon="10.858749843910728"><ele>726.0</ele><time>2026-04-05T14:03:11Z</time></trkpt><trkpt lat="44.328456694288114" lon="10.858798478436603"><ele>726.0</ele><time>2026-04-05T14:03:31Z</time></trkpt><trkpt lat="44.328332025844624" lon="10.858851111108045"><ele>726.0</ele><time>2026-04-05T14:03:33Z</time></trkpt><trkpt lat="44.32821195317885" lon="10.858859321266184"><ele>726.0</ele><time>2026-04-05T14:03:35Z</time></trkpt><trkpt lat="44.32814942345226" lon="10.858877761532668"><ele>726.0</ele><time>2026-04-05T14:03:37Z</time></trkpt><trkpt lat="44.32805836776625" lon="10.858924840134378"><ele>726.0</ele><time>2026-04-05T14:03:40Z</time></trkpt><trkpt lat="44.3279209064702" lon="10.858979737218869"><ele>722.6666666666666</ele><time>2026-04-05T14:03:42Z</time></trkpt><trkpt lat="44.32783923042309" lon="10.858984049190159"><ele>719.3333333333334</ele><time>2026-04-05T14:03:43Z</time></trkpt><trkpt lat="44.32776751156361" lon="10.858996325626947"><ele>716.0</ele><time>2026-04-05T14:03:44Z</time></trkpt><trkpt lat="44.32769573055943" lon="10.85902564663958"><ele>712.6666666666667</ele><time>2026-04-05T14:03:45Z</time></trkpt><trkpt lat="44.32758911283066" lon="10.859065842854845"><ele>709.3333333333334</ele><time>2026-04-05T14:03:46.999Z</time></trkpt><trkpt lat="44.327508456024795" lon="10.859112972259954"><ele>706.0</ele><time>2026-04-05T14:03:48.999Z</time></trkpt><trkpt lat="44.32743445852684" lon="10.859115359124075"><ele>706.0</ele><time>2026-04-05T14:03:50.999Z</time></trkpt><trkpt lat="44.32736718713845" lon="10.859122876148923"><ele>706.0</ele><time>2026-04-05T14:03:52.999Z</time></trkpt><trkpt lat="44.32730443828394" lon="10.859144725841666"><ele>706.0</ele><time>2026-04-05T14:03:55.999Z</time></trkpt><trkpt lat="44.327222215489876" lon="10.859159709072387"><ele>706.0</ele><time>2026-04-05T14:03:58.999Z</time></trkpt><trkpt lat="44.32713135316628" lon="10.859161913679479"><ele>706.0</ele><time>2026-04-05T14:04:00.999Z</time></trkpt><trkpt lat="44.32704342441678" lon="10.85918582542001"><ele>706.0</ele><time>2026-04-05T14:04:03.999Z</time></trkpt><trkpt lat="44.32696167255299" lon="10.859223556822904"><ele>702.2857142857142</ele><time>2026-04-05T14:04:07.999Z</time></trkpt><trkpt lat="44.326907668800324" lon="10.859274715687317"><ele>698.5714285714287</ele><time>2026-04-05T14:04:11.999Z</time></trkpt><trkpt lat="44.326868471244914" lon="10.859358645235005"><ele>694.8571428571429</ele><time>2026-04-05T14:04:44.999Z</time></trkpt><trkpt lat="44.32687667740346" lon="10.859461801800485"><ele>691.1428571428571</ele><time>2026-04-05T14:04:47.999Z</time></trkpt><trkpt lat="44.326862518247474" lon="10.859575283325709"><ele>687.4285714285713</ele><time>2026-04-05T14:04:58.999Z</time></trkpt><trkpt lat="44.32684231165916" lon="10.859671479075562"><ele>683.7142857142858</ele><time>2026-04-05T14:05:14Z</time></trkpt><trkpt lat="44.32684191482139" lon="10.859582028864933"><ele>680.0</ele><time>2026-04-05T14:05:31Z</time></trkpt><trkpt lat="44.3268350135803" lon="10.859461266855005"><ele>680.0</ele><time>2026-04-05T14:05:33Z</time></trkpt><trkpt lat="44.326844068418886" lon="10.859361008133497"><ele>680.0</ele><time>2026-04-05T14:05:35Z</time></trkpt><trkpt lat="44.32688144603738" lon="10.859287357212024"><ele>680.0</ele><time>2026-04-05T14:05:50Z</time></trkpt><trkpt lat="44.32695904670507" lon="10.859223747826105"><ele>680.0</ele><time>2026-04-05T14:05:52.999Z</time></trkpt><trkpt lat="44.32701832598274" lon="10.859190266246362"><ele>680.0</ele><time>2026-04-05T14:05:55.999Z</time></trkpt><trkpt lat="44.32708368216293" lon="10.859159527352153"><ele>680.0</ele><time>2026-04-05T14:06:17.999Z</time></trkpt><trkpt lat="44.3271851653291" lon="10.85914382604398"><ele>684.3333333333333</ele><time>2026-04-05T14:06:19.999Z</time></trkpt><trkpt lat="44.32725848474409" lon="10.859134714866348"><ele>688.6666666666666</ele><time>2026-04-05T14:06:20.999Z</time></trkpt><trkpt lat="44.32734639330445" lon="10.859102287795706"><ele>693.0</ele><time>2026-04-05T14:06:22.999Z</time></trkpt><trkpt lat="44.32746034122504" lon="10.859111092370597"><ele>697.3333333333334</ele><time>2026-04-05T14:06:24.999Z</time></trkpt><trkpt lat="44.32753212925076" lon="10.85909488131251"><ele>701.6666666666667</ele><time>2026-04-05T14:06:25.999Z</time></trkpt><trkpt lat="44.32760309262906" lon="10.85906378217537"><ele>706.0</ele><time>2026-04-05T14:06:27.999Z</time></trkpt><trkpt lat="44.3276884033047" lon="10.859028378352178"><ele>706.0</ele><time>2026-04-05T14:06:29.999Z</time></trkpt><trkpt lat="44.32777488434865" lon="10.859005966606132"><ele>706.0</ele><time>2026-04-05T14:06:31.999Z</time></trkpt><trkpt lat="44.32785812419123" lon="10.85898179290198"><ele>706.0</ele><time>2026-04-05T14:06:33.999Z</time></trkpt><trkpt lat="44.32796275908485" lon="10.858969702205169"><ele>706.0</ele><time>2026-04-05T14:06:35.999Z</time></trkpt><trkpt lat="44.32802442248958" lon="10.85894029980057"><ele>706.0</ele><time>2026-04-05T14:06:36.999Z</time></trkpt><trkpt lat="44.328098635915" lon="10.858882510400809"><ele>706.0</ele><time>2026-04-05T14:06:38.999Z</time></trkpt><trkpt lat="44.32820140478111" lon="10.85886765335993"><ele>709.3333333333334</ele><time>2026-04-05T14:06:40.999Z</time></trkpt><trkpt lat="44.32826905491589" lon="10.858861411541952"><ele>712.6666666666667</ele><time>2026-04-05T14:06:41.999Z</time></trkpt><trkpt lat="44.32838527353923" lon="10.858847463436666"><ele>716.0</ele><time>2026-04-05T14:06:43.999Z</time></trkpt><trkpt lat="44.3284668949606" lon="10.858802591326175"><ele>719.3333333333334</ele><time>2026-04-05T14:06:45.999Z</time></trkpt><trkpt lat="44.328557912076725" lon="10.858735896446033"><ele>722.6666666666666</ele><time>2026-04-05T14:06:47.999Z</time></trkpt><trkpt lat="44.328609437939654" lon="10.858674107708842"><ele>726.0</ele><time>2026-04-05T14:06:50.999Z</time></trkpt><trkpt lat="44.328651613286844" lon="10.858553697778282"><ele>727.1999999999999</ele><time>2026-04-05T14:06:52.999Z</time></trkpt><trkpt lat="44.32869668276004" lon="10.858418963095277"><ele>728.4</ele><time>2026-04-05T14:06:54.999Z</time></trkpt><trkpt lat="44.328742973766566" lon="10.858322765415426"><ele>729.6</ele><time>2026-04-05T14:06:56.999Z</time></trkpt><trkpt lat="44.32880545611807" lon="10.858211241491066"><ele>730.8</ele><time>2026-04-05T14:06:58.999Z</time></trkpt><trkpt lat="44.32886622052926" lon="10.858092533257919"><ele>732.0</ele><time>2026-04-05T14:07:00.999Z</time></trkpt><trkpt lat="44.32890117216825" lon="10.858018132115525"><ele>732.0</ele><time>2026-04-05T14:07:01.999Z</time></trkpt><trkpt lat="44.32895949850073" lon="10.85792184867504"><ele>732.0</ele><time>2026-04-05T14:07:03.999Z</time></trkpt><trkpt lat="44.32899320286901" lon="10.857836514676569"><ele>732.0</ele><time>2026-04-05T14:07:05.999Z</time></trkpt><trkpt lat="44.329042560150285" lon="10.857755672977982"><ele>732.0</ele><time>2026-04-05T14:07:07.999Z</time></trkpt><trkpt lat="44.32907450964726" lon="10.857650578127032"><ele>732.0</ele><time>2026-04-05T14:07:10.998Z</time></trkpt><trkpt lat="44.32901565888061" lon="10.857593808208737"><ele>732.0</ele><time>2026-04-05T14:08:17.999Z</time></trkpt><trkpt lat="44.32893869651311" lon="10.857566861972884"><ele>728.3333333333334</ele><time>2026-04-05T14:08:19.999Z</time></trkpt><trkpt lat="44.32887140785" lon="10.857542660960087"><ele>724.6666666666666</ele><time>2026-04-05T14:08:22.999Z</time></trkpt><trkpt lat="44.32881284959122" lon="10.857454268428835"><ele>721.0</ele><time>2026-04-05T14:08:24.999Z</time></trkpt><trkpt lat="44.32876493171689" lon="10.857347154530538"><ele>717.3333333333333</ele><time>2026-04-05T14:08:26.999Z</time></trkpt><trkpt lat="44.32870619861034" lon="10.857268672971554"><ele>713.6666666666666</ele><time>2026-04-05T14:08:30.999Z</time></trkpt><trkpt lat="44.32873765394936" lon="10.8571752415636"><ele>710.0</ele><time>2026-04-05T14:08:32.999Z</time></trkpt><trkpt lat="44.328825552061254" lon="10.857206575183156"><ele>710.0</ele><time>2026-04-05T14:08:34.999Z</time></trkpt><trkpt lat="44.328799251204586" lon="10.857323764375478"><ele>710.0</ele><time>2026-04-05T14:08:38.999Z</time></trkpt><trkpt lat="44.328738237079726" lon="10.857300465757127"><ele>710.0</ele><time>2026-04-05T14:08:47.999Z</time></trkpt><trkpt lat="44.328771526679354" lon="10.857209690164453"><ele>710.0</ele><time>2026-04-05T14:08:50.999Z</time></trkpt><trkpt lat="44.328863961820055" lon="10.857172386208026"><ele>710.0</ele><time>2026-04-05T14:08:52.999Z</time></trkpt><trkpt lat="44.328914952492404" lon="10.857054995028092"><ele>710.0</ele><time>2026-04-05T14:08:54.999Z</time></trkpt><trkpt lat="44.32891487412478" lon="10.856924670574923"><ele>717.1666666666666</ele><time>2026-04-05T14:08:56.999Z</time></trkpt><trkpt lat="44.32891371475151" lon="10.856764215358556"><ele>724.3333333333333</ele><time>2026-04-05T14:08:58.999Z</time></trkpt><trkpt lat="44.328916289861446" lon="10.85666921129189"><ele>731.5</ele><time>2026-04-05T14:08:59.999Z</time></trkpt><trkpt lat="44.32894925990344" lon="10.856544475865542"><ele>738.6666666666666</ele><time>2026-04-05T14:09:01.999Z</time></trkpt><trkpt lat="44.328978065759244" lon="10.85644454730895"><ele>745.8333333333334</ele><time>2026-04-05T14:09:03.999Z</time></trkpt><trkpt lat="44.3290631316996" lon="10.856392795783163"><ele>753.0</ele><time>2026-04-05T14:09:04.999Z</time></trkpt><trkpt lat="44.329124361661265" lon="10.856265361661716"><ele>753.0</ele><time>2026-04-05T14:09:07.999Z</time></trkpt><trkpt lat="44.32913966593718" lon="10.85613353217585"><ele>753.0</ele><time>2026-04-05T14:09:09.999Z</time></trkpt><trkpt lat="44.32914346739798" lon="10.856015335710822"><ele>753.0</ele><time>2026-04-05T14:09:11.999Z</time></trkpt><trkpt lat="44.329079204583266" lon="10.855973815402125"><ele>753.0</ele><time>2026-04-05T14:09:14.998Z</time></trkpt><trkpt lat="44.32908534312623" lon="10.855854327206549"><ele>753.0</ele><time>2026-04-05T14:09:17.998Z</time></trkpt><trkpt lat="44.32915420336023" lon="10.855792161398576"><ele>753.0</ele><time>2026-04-05T14:09:20.998Z</time></trkpt><trkpt lat="44.32922314158641" lon="10.855830699167624"><ele>754.6666666666666</ele><time>2026-04-05T14:09:24Z</time></trkpt><trkpt lat="44.329291568818185" lon="10.855838030536148"><ele>756.3333333333334</ele><time>2026-04-05T14:09:53Z</time></trkpt><trkpt lat="44.329380400772514" lon="10.85581911341648"><ele>758.0</ele><time>2026-04-05T14:09:54.999Z</time></trkpt><trkpt lat="44.329454742654164" lon="10.855787531853283"><ele>759.6666666666667</ele><time>2026-04-05T14:09:55.999Z</time></trkpt><trkpt lat="44.32952942437798" lon="10.855793262234966"><ele>761.3333333333334</ele><time>2026-04-05T14:09:56.999Z</time></trkpt><trkpt lat="44.32960610907323" lon="10.855818906966064"><ele>763.0</ele><time>2026-04-05T14:09:57.999Z</time></trkpt><trkpt lat="44.32968522889659" lon="10.85583677616783"><ele>762.0</ele><time>2026-04-05T14:09:58.999Z</time></trkpt><trkpt lat="44.32979571251416" lon="10.855851887200682"><ele>761.0</ele><time>2026-04-05T14:09:59.999Z</time></trkpt><trkpt lat="44.329899193454054" lon="10.85590471311442"><ele>760.0</ele><time>2026-04-05T14:10:00.999Z</time></trkpt><trkpt lat="44.330011541329355" lon="10.855958012207063"><ele>759.0</ele><time>2026-04-05T14:10:01.999Z</time></trkpt><trkpt lat="44.330100314969584" lon="10.856005277744874"><ele>758.0</ele><time>2026-04-05T14:10:02.999Z</time></trkpt><trkpt lat="44.33020047088191" lon="10.856041403263564"><ele>758.0</ele><time>2026-04-05T14:10:03.999Z</time></trkpt><trkpt lat="44.33030859232365" lon="10.85605286539542"><ele>758.0</ele><time>2026-04-05T14:10:04.999Z</time></trkpt><trkpt lat="44.330447001887194" lon="10.85611024904867"><ele>758.0</ele><time>2026-04-05T14:10:05.999Z</time></trkpt><trkpt lat="44.33062353348543" lon="10.856179764347427"><ele>758.0</ele><time>2026-04-05T14:10:06.999Z</time></trkpt><trkpt lat="44.33078190886523" lon="10.856235144624659"><ele>761.0</ele><time>2026-04-05T14:10:07.999Z</time></trkpt><trkpt lat="44.33092594013125" lon="10.856240420570241"><ele>764.0</ele><time>2026-04-05T14:10:08.999Z</time></trkpt><trkpt lat="44.33104021231545" lon="10.856288993191107"><ele>767.0</ele><time>2026-04-05T14:10:09.999Z</time></trkpt><trkpt lat="44.331148732833675" lon="10.856315622599665"><ele>770.0</ele><time>2026-04-05T14:10:10.999Z</time></trkpt><trkpt lat="44.33125163854654" lon="10.856302870095615"><ele>770.0000000000001</ele><time>2026-04-05T14:10:11.999Z</time></trkpt><trkpt lat="44.33132889213204" lon="10.85631564177974"><ele>770.0</ele><time>2026-04-05T14:10:12.999Z</time></trkpt><trkpt lat="44.331405110898544" lon="10.856305719998225"><ele>770.0</ele><time>2026-04-05T14:10:13.999Z</time></trkpt><trkpt lat="44.33148134605748" lon="10.856340044190942"><ele>770.0</ele><time>2026-04-05T14:10:14.999Z</time></trkpt><trkpt lat="44.33155015311044" lon="10.856356863954506"><ele>770.0000000000001</ele><time>2026-04-05T14:10:15.999Z</time></trkpt><trkpt lat="44.3316250406655" lon="10.85637383266888"><ele>770.0</ele><time>2026-04-05T14:10:16.999Z</time></trkpt><trkpt lat="44.331684546664164" lon="10.856448915369043"><ele>771.3333333333334</ele><time>2026-04-05T14:10:17.999Z</time></trkpt><trkpt lat="44.33174981070548" lon="10.856504443966323"><ele>772.6666666666667</ele><time>2026-04-05T14:10:18.999Z</time></trkpt><trkpt lat="44.33181369825564" lon="10.856549880097447"><ele>774.0</ele><time>2026-04-05T14:10:19.999Z</time></trkpt><trkpt lat="44.331899605515716" lon="10.856703653183507"><ele>775.3333333333333</ele><time>2026-04-05T14:10:21.999Z</time></trkpt><trkpt lat="44.331923485544415" lon="10.856792287806515"><ele>776.6666666666666</ele><time>2026-04-05T14:10:22.999Z</time></trkpt><trkpt lat="44.331910639999236" lon="10.856895890975332"><ele>778.0</ele><time>2026-04-05T14:10:23.999Z</time></trkpt><trkpt lat="44.331920591365794" lon="10.856984936939632"><ele>779.3333333333333</ele><time>2026-04-05T14:10:24.999Z</time></trkpt><trkpt lat="44.33192096211982" lon="10.857074055948615"><ele>780.6666666666666</ele><time>2026-04-05T14:10:25.999Z</time></trkpt><trkpt lat="44.33193708177359" lon="10.85723022484129"><ele>782.0</ele><time>2026-04-05T14:10:27.999Z</time></trkpt><trkpt lat="44.331947727149014" lon="10.85731764111576"><ele>783.3333333333333</ele><time>2026-04-05T14:10:28.999Z</time></trkpt><trkpt lat="44.33197836176998" lon="10.857409411676192"><ele>784.6666666666666</ele><time>2026-04-05T14:10:29.999Z</time></trkpt><trkpt lat="44.33202057162004" lon="10.857517053605477"><ele>786.0</ele><time>2026-04-05T14:10:30.999Z</time></trkpt><trkpt lat="44.33207575443889" lon="10.857624008254618"><ele>787.1999999999999</ele><time>2026-04-05T14:10:31.999Z</time></trkpt><trkpt lat="44.33214601388861" lon="10.857724294793925"><ele>788.4</ele><time>2026-04-05T14:10:32.999Z</time></trkpt><trkpt lat="44.33220898369284" lon="10.857816430895477"><ele>789.6</ele><time>2026-04-05T14:10:33.999Z</time></trkpt><trkpt lat="44.332270839727485" lon="10.857921648475267"><ele>790.8</ele><time>2026-04-05T14:10:34.999Z</time></trkpt><trkpt lat="44.33232540589898" lon="10.858025531217885"><ele>792.0</ele><time>2026-04-05T14:10:35.999Z</time></trkpt><trkpt lat="44.33237549431557" lon="10.85810502608724"><ele>789.6666666666666</ele><time>2026-04-05T14:10:36.999Z</time></trkpt><trkpt lat="44.33243673091951" lon="10.858203112863254"><ele>787.3333333333333</ele><time>2026-04-05T14:10:37.999Z</time></trkpt><trkpt lat="44.33249024695861" lon="10.858289395349052"><ele>785.0</ele><time>2026-04-05T14:10:38.999Z</time></trkpt><trkpt lat="44.33254667685659" lon="10.858370585021184"><ele>782.6666666666666</ele><time>2026-04-05T14:10:39.999Z</time></trkpt><trkpt lat="44.33260275111461" lon="10.858439729730147"><ele>780.3333333333333</ele><time>2026-04-05T14:10:40.999Z</time></trkpt><trkpt lat="44.332656441733796" lon="10.858493470087295"><ele>778.0</ele><time>2026-04-05T14:10:41.999Z</time></trkpt><trkpt lat="44.332736434902046" lon="10.858584329118953"><ele>777.9999999999999</ele><time>2026-04-05T14:10:43.999Z</time></trkpt><trkpt lat="44.332803751569415" lon="10.858662909892505"><ele>778.0</ele><time>2026-04-05T14:10:45.999Z</time></trkpt><trkpt lat="44.33289116880553" lon="10.85876426861863"><ele>778.0</ele><time>2026-04-05T14:10:47.999Z</time></trkpt><trkpt lat="44.33293504086001" lon="10.858831235885768"><ele>778.0</ele><time>2026-04-05T14:10:49.999Z</time></trkpt><trkpt lat="44.33301053952562" lon="10.858912853927519"><ele>777.9999999999999</ele><time>2026-04-05T14:11:29Z</time></trkpt><trkpt lat="44.33308037714269" lon="10.858962361538037"><ele>778.0</ele><time>2026-04-05T14:11:30Z</time></trkpt><trkpt lat="44.33314789150343" lon="10.859063996046652"><ele>776.0</ele><time>2026-04-05T14:11:31Z</time></trkpt><trkpt lat="44.33325097519699" lon="10.859181842595468"><ele>774.0</ele><time>2026-04-05T14:11:32Z</time></trkpt><trkpt lat="44.3333610964429" lon="10.859286776990679"><ele>772.0</ele><time>2026-04-05T14:11:33Z</time></trkpt><trkpt lat="44.33347539928151" lon="10.859417903909504"><ele>770.0</ele><time>2026-04-05T14:11:34Z</time></trkpt><trkpt lat="44.33358793207521" lon="10.859542748836217"><ele>768.75</ele><time>2026-04-05T14:11:35Z</time></trkpt><trkpt lat="44.33369289049325" lon="10.859692298073213"><ele>767.5</ele><time>2026-04-05T14:11:36Z</time></trkpt><trkpt lat="44.3338002766486" lon="10.859821224644396"><ele>766.25</ele><time>2026-04-05T14:11:37Z</time></trkpt><trkpt lat="44.33391250714677" lon="10.859946313466946"><ele>765.0</ele><time>2026-04-05T14:11:38Z</time></trkpt><trkpt lat="44.33403216622279" lon="10.860035539011475"><ele>764.75</ele><time>2026-04-05T14:11:39Z</time></trkpt><trkpt lat="44.334133899590825" lon="10.860113095763667"><ele>764.5</ele><time>2026-04-05T14:11:40Z</time></trkpt><trkpt lat="44.334251816051186" lon="10.860188548135637"><ele>764.25</ele><time>2026-04-05T14:11:41Z</time></trkpt><trkpt lat="44.33438408382483" lon="10.860194473084837"><ele>764.0</ele><time>2026-04-05T14:11:42Z</time></trkpt><trkpt lat="44.334520067179874" lon="10.860155288628052"><ele>764.0</ele><time>2026-04-05T14:11:43Z</time></trkpt><trkpt lat="44.33465768828111" lon="10.860114344894665"><ele>764.0</ele><time>2026-04-05T14:11:44Z</time></trkpt><trkpt lat="44.3347946288922" lon="10.860073610672973"><ele>764.0</ele><time>2026-04-05T14:11:45Z</time></trkpt><trkpt lat="44.33494272578285" lon="10.860038841212887"><ele>764.0</ele><time>2026-04-05T14:11:46Z</time></trkpt><trkpt lat="44.33509696504523" lon="10.860003103517906"><ele>765.0</ele><time>2026-04-05T14:11:47Z</time></trkpt><trkpt lat="44.335237246459435" lon="10.859969972881615"><ele>766.0</ele><time>2026-04-05T14:11:48Z</time></trkpt><trkpt lat="44.335355100480875" lon="10.859942057385435"><ele>767.0</ele><time>2026-04-05T14:11:49Z</time></trkpt><trkpt lat="44.33545790293247" lon="10.859940208769254"><ele>768.0</ele><time>2026-04-05T14:11:50Z</time></trkpt><trkpt lat="44.335556705553" lon="10.86000717175169"><ele>768.25</ele><time>2026-04-05T14:11:51Z</time></trkpt><trkpt lat="44.335663528063534" lon="10.860090280978437"><ele>768.5</ele><time>2026-04-05T14:11:52Z</time></trkpt><trkpt lat="44.33578415787957" lon="10.860191141228976"><ele>768.75</ele><time>2026-04-05T14:11:53Z</time></trkpt><trkpt lat="44.335945577831154" lon="10.860289703546316"><ele>769.0</ele><time>2026-04-05T14:11:54Z</time></trkpt><trkpt lat="44.336102039852626" lon="10.860416240282063"><ele>769.0</ele><time>2026-04-05T14:11:55Z</time></trkpt><trkpt lat="44.336281841258675" lon="10.860481257853026"><ele>769.0</ele><time>2026-04-05T14:11:56Z</time></trkpt><trkpt lat="44.33648656716791" lon="10.860491088443926"><ele>769.0</ele><time>2026-04-05T14:11:57Z</time></trkpt><trkpt lat="44.336656398540605" lon="10.86053102331829"><ele>768.75</ele><time>2026-04-05T14:11:57.999Z</time></trkpt><trkpt lat="44.33681702242907" lon="10.860551929312212"><ele>768.5</ele><time>2026-04-05T14:11:58.999Z</time></trkpt><trkpt lat="44.336952370610234" lon="10.860552681488407"><ele>768.25</ele><time>2026-04-05T14:11:59.999Z</time></trkpt><trkpt lat="44.33707953928939" lon="10.860577855666218"><ele>768.0</ele><time>2026-04-05T14:12:00.999Z</time></trkpt><trkpt lat="44.33719352062698" lon="10.860590201039557"><ele>768.5999999999999</ele><time>2026-04-05T14:12:01.999Z</time></trkpt><trkpt lat="44.33730576751397" lon="10.860611322453101"><ele>769.1999999999999</ele><time>2026-04-05T14:12:02.999Z</time></trkpt><trkpt lat="44.33742210281385" lon="10.860627951484902"><ele>769.8</ele><time>2026-04-05T14:12:03.999Z</time></trkpt><trkpt lat="44.33751768556745" lon="10.860640934304415"><ele>770.4</ele><time>2026-04-05T14:12:04.999Z</time></trkpt><trkpt lat="44.33762989955547" lon="10.860655228974954"><ele>771.0</ele><time>2026-04-05T14:12:05.999Z</time></trkpt><trkpt lat="44.33773059514495" lon="10.860666400865925"><ele>771.0</ele><time>2026-04-05T14:12:06.999Z</time></trkpt><trkpt lat="44.337803197788986" lon="10.860679109255662"><ele>771.0</ele><time>2026-04-05T14:12:07.999Z</time></trkpt><trkpt lat="44.337872647269556" lon="10.860711135474123"><ele>771.0</ele><time>2026-04-05T14:12:08.999Z</time></trkpt><trkpt lat="44.33793769589171" lon="10.860718222262783"><ele>771.0</ele><time>2026-04-05T14:12:10.999Z</time></trkpt><trkpt lat="44.33793195490401" lon="10.860847979568176"><ele>771.0</ele><time>2026-04-05T14:12:13.999Z</time></trkpt><trkpt lat="44.33789921759464" lon="10.860939147007853"><ele>771.0</ele><time>2026-04-05T14:12:14.999Z</time></trkpt><trkpt lat="44.337865266759636" lon="10.861080288304453"><ele>772.5</ele><time>2026-04-05T14:12:15.999Z</time></trkpt><trkpt lat="44.33786256308631" lon="10.861234458723551"><ele>774.0</ele><time>2026-04-05T14:12:16.999Z</time></trkpt><trkpt lat="44.3378997244017" lon="10.861398672908962"><ele>775.5</ele><time>2026-04-05T14:12:17.999Z</time></trkpt><trkpt lat="44.33795969564164" lon="10.861572644984617"><ele>777.0</ele><time>2026-04-05T14:12:18.999Z</time></trkpt><trkpt lat="44.33803230870742" lon="10.86175386565324"><ele>776.3333333333333</ele><time>2026-04-05T14:12:19.999Z</time></trkpt><trkpt lat="44.33809978848105" lon="10.8619364687841"><ele>775.6666666666666</ele><time>2026-04-05T14:12:20.999Z</time></trkpt><trkpt lat="44.33818007184547" lon="10.862146405859377"><ele>775.0</ele><time>2026-04-05T14:12:21.999Z</time></trkpt><trkpt lat="44.338267548905236" lon="10.86236487040736"><ele>775.0</ele><time>2026-04-05T14:12:22.999Z</time></trkpt><trkpt lat="44.33833948210675" lon="10.862558262688422"><ele>775.0</ele><time>2026-04-05T14:12:23.999Z</time></trkpt><trkpt lat="44.33840820829962" lon="10.86275337822208"><ele>775.0</ele><time>2026-04-05T14:12:24.999Z</time></trkpt><trkpt lat="44.33846815290197" lon="10.862939410367837"><ele>775.3333333333333</ele><time>2026-04-05T14:12:25.999Z</time></trkpt><trkpt lat="44.33850676285097" lon="10.863128054788183"><ele>775.6666666666667</ele><time>2026-04-05T14:12:26.999Z</time></trkpt><trkpt lat="44.33853431555592" lon="10.863342982063035"><ele>776.0</ele><time>2026-04-05T14:12:27.999Z</time></trkpt><trkpt lat="44.33855409824701" lon="10.863557965091868"><ele>776.0</ele><time>2026-04-05T14:12:28.999Z</time></trkpt><trkpt lat="44.33857957772161" lon="10.863761447326764"><ele>776.0</ele><time>2026-04-05T14:12:29.999Z</time></trkpt><trkpt lat="44.338608220598026" lon="10.863981777881271"><ele>776.0</ele><time>2026-04-05T14:12:30.999Z</time></trkpt><trkpt lat="44.33863284858065" lon="10.864189122230467"><ele>774.0</ele><time>2026-04-05T14:12:31.999Z</time></trkpt><trkpt lat="44.33864512201292" lon="10.864392893998344"><ele>772.0</ele><time>2026-04-05T14:12:32.999Z</time></trkpt><trkpt lat="44.33863218262134" lon="10.86459440878042"><ele>770.0</ele><time>2026-04-05T14:12:33.999Z</time></trkpt><trkpt lat="44.33859383854452" lon="10.864799560378314"><ele>768.0</ele><time>2026-04-05T14:12:34.999Z</time></trkpt><trkpt lat="44.33854026209427" lon="10.86501203607871"><ele>765.6666666666666</ele><time>2026-04-05T14:12:35.999Z</time></trkpt><trkpt lat="44.338493598513395" lon="10.865240856839124"><ele>763.3333333333333</ele><time>2026-04-05T14:12:36.999Z</time></trkpt><trkpt lat="44.33844480961565" lon="10.86543974172888"><ele>761.0</ele><time>2026-04-05T14:12:37.999Z</time></trkpt><trkpt lat="44.33839303026513" lon="10.865639612305447"><ele>761.0</ele><time>2026-04-05T14:12:38.999Z</time></trkpt><trkpt lat="44.3383423891852" lon="10.86583997513783"><ele>761.0</ele><time>2026-04-05T14:12:39.999Z</time></trkpt><trkpt lat="44.338290821022966" lon="10.86606601208325"><ele>761.0</ele><time>2026-04-05T14:12:40.999Z</time></trkpt><trkpt lat="44.33824781590495" lon="10.866257471241175"><ele>760.0</ele><time>2026-04-05T14:12:41.999Z</time></trkpt><trkpt lat="44.33820523472036" lon="10.866463825070053"><ele>759.0</ele><time>2026-04-05T14:12:42.999Z</time></trkpt><trkpt lat="44.33816653664875" lon="10.86666031572006"><ele>758.0</ele><time>2026-04-05T14:12:43.999Z</time></trkpt><trkpt lat="44.33813438737742" lon="10.86688125852283"><ele>757.5</ele><time>2026-04-05T14:12:44.999Z</time></trkpt><trkpt lat="44.338124566022536" lon="10.867077630507675"><ele>757.0</ele><time>2026-04-05T14:12:45.999Z</time></trkpt><trkpt lat="44.33813219158003" lon="10.867296475802558"><ele>756.5</ele><time>2026-04-05T14:12:46.999Z</time></trkpt><trkpt lat="44.33815729992722" lon="10.867486699113313"><ele>756.0</ele><time>2026-04-05T14:12:47.999Z</time></trkpt><trkpt lat="44.338209858662225" lon="10.867655090047172"><ele>755.75</ele><time>2026-04-05T14:12:48.999Z</time></trkpt><trkpt lat="44.3383066361081" lon="10.867804414401267"><ele>755.5</ele><time>2026-04-05T14:12:49.999Z</time></trkpt><trkpt lat="44.338414041508905" lon="10.867929240605402"><ele>755.25</ele><time>2026-04-05T14:12:50.999Z</time></trkpt><trkpt lat="44.338518594827114" lon="10.868030733781264"><ele>755.0</ele><time>2026-04-05T14:12:51.999Z</time></trkpt><trkpt lat="44.33865648496356" lon="10.86808834376945"><ele>755.0</ele><time>2026-04-05T14:12:52.999Z</time></trkpt><trkpt lat="44.33880010387602" lon="10.868105378463415"><ele>755.0</ele><time>2026-04-05T14:12:53.999Z</time></trkpt><trkpt lat="44.33893387716989" lon="10.868117111625695"><ele>755.0</ele><time>2026-04-05T14:12:54.999Z</time></trkpt><trkpt lat="44.33905281784546" lon="10.868157579521927"><ele>755.0</ele><time>2026-04-05T14:12:55.999Z</time></trkpt><trkpt lat="44.33916184486574" lon="10.868253358650678"><ele>753.2</ele><time>2026-04-05T14:12:56.999Z</time></trkpt><trkpt lat="44.33926374279332" lon="10.868334948250464"><ele>751.4</ele><time>2026-04-05T14:12:57.999Z</time></trkpt><trkpt lat="44.33932766363999" lon="10.868458788979197"><ele>749.5999999999999</ele><time>2026-04-05T14:12:58.999Z</time></trkpt><trkpt lat="44.339359438445534" lon="10.868599010095997"><ele>747.8</ele><time>2026-04-05T14:12:59.999Z</time></trkpt><trkpt lat="44.33933802352308" lon="10.868743371968682"><ele>746.0</ele><time>2026-04-05T14:13:00.999Z</time></trkpt><trkpt lat="44.339274924807974" lon="10.868880421816842"><ele>744.3333333333333</ele><time>2026-04-05T14:13:01.999Z</time></trkpt><trkpt lat="44.33917841285267" lon="10.869014229226398"><ele>742.6666666666666</ele><time>2026-04-05T14:13:02.999Z</time></trkpt><trkpt lat="44.339061704913995" lon="10.869171203965271"><ele>741.0</ele><time>2026-04-05T14:13:03.999Z</time></trkpt><trkpt lat="44.33894229829252" lon="10.869365177410302"><ele>738.6666666666666</ele><time>2026-04-05T14:13:04.999Z</time></trkpt><trkpt lat="44.338816024468144" lon="10.869608142758185"><ele>736.3333333333333</ele><time>2026-04-05T14:13:05.999Z</time></trkpt><trkpt lat="44.33869686157439" lon="10.86988635829767"><ele>734.0</ele><time>2026-04-05T14:13:06.999Z</time></trkpt><trkpt lat="44.338590498126266" lon="10.870169136670501"><ele>730.0</ele><time>2026-04-05T14:13:07.999Z</time></trkpt><trkpt lat="44.338499618047955" lon="10.870494724147951"><ele>726.0</ele><time>2026-04-05T14:13:08.999Z</time></trkpt><trkpt lat="44.3384292601158" lon="10.870829039173406"><ele>724.6666666666666</ele><time>2026-04-05T14:13:09.999Z</time></trkpt><trkpt lat="44.338367988675664" lon="10.871131881972657"><ele>723.3333333333333</ele><time>2026-04-05T14:13:10.999Z</time></trkpt><trkpt lat="44.338297253535494" lon="10.871414966851702"><ele>722.0</ele><time>2026-04-05T14:13:11.999Z</time></trkpt><trkpt lat="44.33823786073615" lon="10.871666377368795"><ele>722.6666666666666</ele><time>2026-04-05T14:13:12.999Z</time></trkpt><trkpt lat="44.33819749333266" lon="10.871909094686993"><ele>723.3333333333334</ele><time>2026-04-05T14:13:13.999Z</time></trkpt><trkpt lat="44.33814844132889" lon="10.87209756695856"><ele>724.0</ele><time>2026-04-05T14:13:14.999Z</time></trkpt><trkpt lat="44.338190861183925" lon="10.872295086208934"><ele>724.0</ele><time>2026-04-05T14:13:15.999Z</time></trkpt><trkpt lat="44.338194500839855" lon="10.87245529773605"><ele>724.0</ele><time>2026-04-05T14:13:16.999Z</time></trkpt><trkpt lat="44.33819708273134" lon="10.8726065412047"><ele>724.0</ele><time>2026-04-05T14:13:17.999Z</time></trkpt><trkpt lat="44.33822004473286" lon="10.872734352410346"><ele>724.0</ele><time>2026-04-05T14:13:18.999Z</time></trkpt><trkpt lat="44.33828551164504" lon="10.872819272993414"><ele>724.0</ele><time>2026-04-05T14:13:19.999Z</time></trkpt><trkpt lat="44.338384332841905" lon="10.872864281020066"><ele>724.75</ele><time>2026-04-05T14:13:20.999Z</time></trkpt><trkpt lat="44.33849787336418" lon="10.872887178305401"><ele>725.5</ele><time>2026-04-05T14:13:21.999Z</time></trkpt><trkpt lat="44.33862931250322" lon="10.872892082813108"><ele>726.25</ele><time>2026-04-05T14:13:22.999Z</time></trkpt><trkpt lat="44.3387535725904" lon="10.872887872238074"><ele>727.0</ele><time>2026-04-05T14:13:23.998Z</time></trkpt><trkpt lat="44.338868302454124" lon="10.872892913015356"><ele>724.8</ele><time>2026-04-05T14:13:24.998Z</time></trkpt><trkpt lat="44.33896935769411" lon="10.872900158375279"><ele>722.6</ele><time>2026-04-05T14:13:25.998Z</time></trkpt><trkpt lat="44.33904669791939" lon="10.872928588273664"><ele>720.4</ele><time>2026-04-05T14:13:26.998Z</time></trkpt><trkpt lat="44.33911598567208" lon="10.872999587602319"><ele>718.1999999999999</ele><time>2026-04-05T14:13:27.998Z</time></trkpt><trkpt lat="44.33914377495492" lon="10.873114451370553"><ele>716.0</ele><time>2026-04-05T14:13:28.998Z</time></trkpt><trkpt lat="44.339190162646915" lon="10.873274858044935"><ele>716.0</ele><time>2026-04-05T14:13:29.998Z</time></trkpt><trkpt lat="44.33921720223514" lon="10.873395229844565"><ele>716.0</ele><time>2026-04-05T14:13:30.998Z</time></trkpt><trkpt lat="44.33924406456467" lon="10.873518324227959"><ele>716.0</ele><time>2026-04-05T14:13:31.998Z</time></trkpt><trkpt lat="44.33923006668459" lon="10.873634247048518"><ele>716.0</ele><time>2026-04-05T14:13:32.998Z</time></trkpt><trkpt lat="44.339171369690035" lon="10.873719936270811"><ele>716.0</ele><time>2026-04-05T14:13:33.998Z</time></trkpt><trkpt lat="44.33908966547115" lon="10.87378482978438"><ele>716.0</ele><time>2026-04-05T14:13:35Z</time></trkpt><trkpt lat="44.338995883153686" lon="10.873849069839311"><ele>716.4</ele><time>2026-04-05T14:13:36Z</time></trkpt><trkpt lat="44.33890355120438" lon="10.87392192881723"><ele>716.8</ele><time>2026-04-05T14:13:37Z</time></trkpt><trkpt lat="44.338820570558006" lon="10.87399963570585"><ele>717.1999999999999</ele><time>2026-04-05T14:13:38Z</time></trkpt><trkpt lat="44.338759511841396" lon="10.874096369338936"><ele>717.5999999999999</ele><time>2026-04-05T14:13:39Z</time></trkpt><trkpt lat="44.33872952976964" lon="10.874218237893011"><ele>718.0</ele><time>2026-04-05T14:13:40Z</time></trkpt><trkpt lat="44.33873273009192" lon="10.874355635087587"><ele>718.0</ele><time>2026-04-05T14:13:41Z</time></trkpt><trkpt lat="44.338806905227955" lon="10.87450993373374"><ele>718.0</ele><time>2026-04-05T14:13:42Z</time></trkpt><trkpt lat="44.338875192145544" lon="10.874639223389702"><ele>718.0</ele><time>2026-04-05T14:13:43Z</time></trkpt><trkpt lat="44.338940765533614" lon="10.874758348284185"><ele>718.0</ele><time>2026-04-05T14:13:44Z</time></trkpt><trkpt lat="44.33898474813438" lon="10.874880055984702"><ele>712.0</ele><time>2026-04-05T14:13:45Z</time></trkpt><trkpt lat="44.33900401844833" lon="10.87503228196084"><ele>706.0</ele><time>2026-04-05T14:13:46Z</time></trkpt><trkpt lat="44.338975712416634" lon="10.875191413424043"><ele>700.0</ele><time>2026-04-05T14:13:47Z</time></trkpt><trkpt lat="44.338985751114144" lon="10.875349023780227"><ele>694.0</ele><time>2026-04-05T14:13:48Z</time></trkpt><trkpt lat="44.33900738511319" lon="10.875518504594325"><ele>693.25</ele><time>2026-04-05T14:13:49Z</time></trkpt><trkpt lat="44.33904468892798" lon="10.875682507945427"><ele>692.5</ele><time>2026-04-05T14:13:50Z</time></trkpt><trkpt lat="44.33907758403927" lon="10.875853333762189"><ele>691.75</ele><time>2026-04-05T14:13:51Z</time></trkpt><trkpt lat="44.33910841484856" lon="10.876029042332485"><ele>691.0</ele><time>2026-04-05T14:13:52Z</time></trkpt><trkpt lat="44.339135493251256" lon="10.876211043825501"><ele>690.25</ele><time>2026-04-05T14:13:53Z</time></trkpt><trkpt lat="44.339164104080986" lon="10.876380024491636"><ele>689.5</ele><time>2026-04-05T14:13:54Z</time></trkpt><trkpt lat="44.33919587811944" lon="10.876558189898846"><ele>688.75</ele><time>2026-04-05T14:13:55Z</time></trkpt><trkpt lat="44.33921105176366" lon="10.876722484044386"><ele>688.0</ele><time>2026-04-05T14:13:56Z</time></trkpt><trkpt lat="44.339204904454135" lon="10.876878599742998"><ele>687.8</ele><time>2026-04-05T14:13:57Z</time></trkpt><trkpt lat="44.33919553161242" lon="10.877030535801483"><ele>687.5999999999999</ele><time>2026-04-05T14:13:58Z</time></trkpt><trkpt lat="44.33920243059437" lon="10.877149575693583"><ele>687.4000000000001</ele><time>2026-04-05T14:13:59Z</time></trkpt><trkpt lat="44.33923762035228" lon="10.877267387778614"><ele>687.2</ele><time>2026-04-05T14:14:00Z</time></trkpt><trkpt lat="44.33932819238999" lon="10.877360620680234"><ele>687.0</ele><time>2026-04-05T14:14:01Z</time></trkpt><trkpt lat="44.33945961856193" lon="10.877392378678406"><ele>687.0</ele><time>2026-04-05T14:14:01.999Z</time></trkpt><trkpt lat="44.33959475940621" lon="10.877448416684633"><ele>687.0</ele><time>2026-04-05T14:14:02.999Z</time></trkpt><trkpt lat="44.339710117479754" lon="10.877492393434677"><ele>687.0</ele><time>2026-04-05T14:14:03.999Z</time></trkpt><trkpt lat="44.3398337349473" lon="10.8775028458719"><ele>687.0</ele><time>2026-04-05T14:14:04.999Z</time></trkpt><trkpt lat="44.339965841460625" lon="10.877503904285705"><ele>684.5</ele><time>2026-04-05T14:14:05.999Z</time></trkpt><trkpt lat="44.34009014550067" lon="10.877455339483618"><ele>682.0</ele><time>2026-04-05T14:14:06.999Z</time></trkpt><trkpt lat="44.34022042343108" lon="10.877421030899884"><ele>679.5</ele><time>2026-04-05T14:14:07.999Z</time></trkpt><trkpt lat="44.340338007826105" lon="10.877368279560152"><ele>677.0</ele><time>2026-04-05T14:14:08.999Z</time></trkpt><trkpt lat="44.34043665957965" lon="10.877284971885894"><ele>677.0</ele><time>2026-04-05T14:14:09.999Z</time></trkpt><trkpt lat="44.340538798574286" lon="10.8771884425827"><ele>677.0</ele><time>2026-04-05T14:14:10.999Z</time></trkpt><trkpt lat="44.34062724056973" lon="10.877051691549966"><ele>677.0</ele><time>2026-04-05T14:14:11.999Z</time></trkpt><trkpt lat="44.340716451364976" lon="10.876879934325334"><ele>677.0</ele><time>2026-04-05T14:14:12.999Z</time></trkpt><trkpt lat="44.34082591713748" lon="10.87671016679928"><ele>674.75</ele><time>2026-04-05T14:14:13.999Z</time></trkpt><trkpt lat="44.340920104712126" lon="10.876551303911146"><ele>672.5</ele><time>2026-04-05T14:14:14.999Z</time></trkpt><trkpt lat="44.34100344970613" lon="10.876376108964761"><ele>670.25</ele><time>2026-04-05T14:14:15.999Z</time></trkpt><trkpt lat="44.3410429886571" lon="10.876194544764898"><ele>668.0</ele><time>2026-04-05T14:14:16.999Z</time></trkpt><trkpt lat="44.341086853229186" lon="10.875972394581185"><ele>666.6666666666666</ele><time>2026-04-05T14:14:17.999Z</time></trkpt><trkpt lat="44.34114541457848" lon="10.875772788877239"><ele>665.3333333333334</ele><time>2026-04-05T14:14:18.999Z</time></trkpt><trkpt lat="44.34122433888547" lon="10.875571876141102"><ele>664.0</ele><time>2026-04-05T14:14:19.999Z</time></trkpt><trkpt lat="44.34130337276412" lon="10.875366622673328"><ele>664.0</ele><time>2026-04-05T14:14:20.999Z</time></trkpt><trkpt lat="44.341363637095434" lon="10.875161515541489"><ele>664.0</ele><time>2026-04-05T14:14:21.999Z</time></trkpt><trkpt lat="44.34144505789243" lon="10.874991299083934"><ele>664.0</ele><time>2026-04-05T14:14:22.999Z</time></trkpt><trkpt lat="44.341511060609484" lon="10.874829232233282"><ele>664.0</ele><time>2026-04-05T14:14:23.999Z</time></trkpt><trkpt lat="44.341586568307605" lon="10.87469384460441"><ele>662.0</ele><time>2026-04-05T14:14:24.999Z</time></trkpt><trkpt lat="44.34167225455191" lon="10.87457614198343"><ele>660.0</ele><time>2026-04-05T14:14:25.999Z</time></trkpt><trkpt lat="44.341765323332325" lon="10.874516588262058"><ele>658.0</ele><time>2026-04-05T14:14:26.999Z</time></trkpt><trkpt lat="44.34185634803784" lon="10.874430275279018"><ele>656.0</ele><time>2026-04-05T14:14:27.999Z</time></trkpt><trkpt lat="44.34193321420365" lon="10.87433915381534"><ele>654.0</ele><time>2026-04-05T14:14:28.999Z</time></trkpt><trkpt lat="44.3419843508325" lon="10.874218902367405"><ele>654.0</ele><time>2026-04-05T14:14:29.999Z</time></trkpt><trkpt lat="44.34205054467673" lon="10.874123035157242"><ele>654.0</ele><time>2026-04-05T14:14:30.999Z</time></trkpt><trkpt lat="44.342096278058214" lon="10.874027701995178"><ele>654.0</ele><time>2026-04-05T14:14:31.999Z</time></trkpt><trkpt lat="44.34213382788777" lon="10.873949427751622"><ele>654.0</ele><time>2026-04-05T14:14:32.999Z</time></trkpt><trkpt lat="44.34217756484968" lon="10.873859186260098"><ele>654.0</ele><time>2026-04-05T14:14:34.999Z</time></trkpt><trkpt lat="44.34212169354755" lon="10.873958500511899"><ele>654.0</ele><time>2026-04-05T14:14:40.999Z</time></trkpt><trkpt lat="44.34208780610501" lon="10.874039995529362"><ele>654.0</ele><time>2026-04-05T14:14:41.999Z</time></trkpt><trkpt lat="44.342025079980836" lon="10.87410405409291"><ele>654.0</ele><time>2026-04-05T14:14:42.999Z</time></trkpt><trkpt lat="44.341956790674665" lon="10.874209674391368"><ele>654.0</ele><time>2026-04-05T14:14:43.999Z</time></trkpt><trkpt lat="44.34188354023936" lon="10.874326076075743"><ele>654.0</ele><time>2026-04-05T14:14:44.999Z</time></trkpt><trkpt lat="44.341786364687216" lon="10.874453891065844"><ele>654.0</ele><time>2026-04-05T14:14:45.999Z</time></trkpt><trkpt lat="44.34168922635243" lon="10.874537112534599"><ele>653.4000000000001</ele><time>2026-04-05T14:14:46.999Z</time></trkpt><trkpt lat="44.34160691312889" lon="10.874620318521705"><ele>652.8</ele><time>2026-04-05T14:14:48.999Z</time></trkpt><trkpt lat="44.34161360600373" lon="10.874737620005662"><ele>652.2</ele><time>2026-04-05T14:14:50.999Z</time></trkpt><trkpt lat="44.341649391326584" lon="10.8749098057219"><ele>651.5999999999999</ele><time>2026-04-05T14:14:52.999Z</time></trkpt><trkpt lat="44.341706665683546" lon="10.875016845555242"><ele>651.0</ele><time>2026-04-05T14:14:53.999Z</time></trkpt><trkpt lat="44.341777035400256" lon="10.87508106874761"><ele>651.0</ele><time>2026-04-05T14:14:54.999Z</time></trkpt><trkpt lat="44.34182979641623" lon="10.875149383384013"><ele>651.0</ele><time>2026-04-05T14:14:55.999Z</time></trkpt><trkpt lat="44.3418984964261" lon="10.875261854780717"><ele>651.0</ele><time>2026-04-05T14:14:56.999Z</time></trkpt><trkpt lat="44.34197531469867" lon="10.875350090181774"><ele>651.0</ele><time>2026-04-05T14:14:57.999Z</time></trkpt><trkpt lat="44.34204745181206" lon="10.875426824672381"><ele>651.0</ele><time>2026-04-05T14:14:59.999Z</time></trkpt><trkpt lat="44.34211985388312" lon="10.87548727819687"><ele>651.0</ele><time>2026-04-05T14:15:00.999Z</time></trkpt><trkpt lat="44.342204406639226" lon="10.875547238081673"><ele>651.0</ele><time>2026-04-05T14:15:01.999Z</time></trkpt><trkpt lat="44.34226951439474" lon="10.875601002671955"><ele>651.0</ele><time>2026-04-05T14:15:02.999Z</time></trkpt><trkpt lat="44.34232507285481" lon="10.875737274810795"><ele>651.0</ele><time>2026-04-05T14:15:04.999Z</time></trkpt><trkpt lat="44.34236822925848" lon="10.87581326892398"><ele>651.0</ele><time>2026-04-05T14:15:05.999Z</time></trkpt><trkpt lat="44.342412868843816" lon="10.875885438753278"><ele>651.0</ele><time>2026-04-05T14:15:06.999Z</time></trkpt><trkpt lat="44.342474382095794" lon="10.875946464786145"><ele>648.5999999999999</ele><time>2026-04-05T14:15:07.999Z</time></trkpt><trkpt lat="44.342542366131944" lon="10.875993974331108"><ele>646.1999999999999</ele><time>2026-04-05T14:15:08.999Z</time></trkpt><trkpt lat="44.34263823171579" lon="10.876014731718694"><ele>643.8</ele><time>2026-04-05T14:15:09.999Z</time></trkpt><trkpt lat="44.342733843084744" lon="10.876008511699213"><ele>641.4</ele><time>2026-04-05T14:15:10.999Z</time></trkpt><trkpt lat="44.34281673773526" lon="10.876029492537576"><ele>639.0</ele><time>2026-04-05T14:15:11.999Z</time></trkpt><trkpt lat="44.342916002420324" lon="10.87603659278704"><ele>639.0</ele><time>2026-04-05T14:15:12.999Z</time></trkpt><trkpt lat="44.34303409354809" lon="10.876058796315759"><ele>639.0</ele><time>2026-04-05T14:15:13.999Z</time></trkpt><trkpt lat="44.3431041390163" lon="10.876078391396048"><ele>639.0</ele><time>2026-04-05T14:15:14.999Z</time></trkpt><trkpt lat="44.34314339913058" lon="10.87620141336877"><ele>639.0</ele><time>2026-04-05T14:15:16.999Z</time></trkpt><trkpt lat="44.34316493829338" lon="10.876362409853419"><ele>639.0</ele><time>2026-04-05T14:15:18.999Z</time></trkpt><trkpt lat="44.34316411513526" lon="10.87652792662677"><ele>636.6666666666666</ele><time>2026-04-05T14:15:20.999Z</time></trkpt><trkpt lat="44.34317299087754" lon="10.876685064715923"><ele>634.3333333333334</ele><time>2026-04-05T14:15:22.999Z</time></trkpt><trkpt lat="44.343163871048716" lon="10.876774329969049"><ele>632.0</ele><time>2026-04-05T14:15:23.999Z</time></trkpt><trkpt lat="44.34315404796399" lon="10.876874113024284"><ele>629.6666666666667</ele><time>2026-04-05T14:15:24.999Z</time></trkpt><trkpt lat="44.34314420232543" lon="10.876967367819619"><ele>627.3333333333334</ele><time>2026-04-05T14:15:25.999Z</time></trkpt><trkpt lat="44.34313133833033" lon="10.877092977893492"><ele>625.0</ele><time>2026-04-05T14:15:26.999Z</time></trkpt><trkpt lat="44.34312063801167" lon="10.877186297026457"><ele>624.6</ele><time>2026-04-05T14:15:27.998Z</time></trkpt><trkpt lat="44.343114325214664" lon="10.877315923095644"><ele>624.2</ele><time>2026-04-05T14:15:28.998Z</time></trkpt><trkpt lat="44.34310253011142" lon="10.877439900919407"><ele>623.8</ele><time>2026-04-05T14:15:29.998Z</time></trkpt><trkpt lat="44.34307961104119" lon="10.8775595854786"><ele>623.4</ele><time>2026-04-05T14:15:30.998Z</time></trkpt><trkpt lat="44.34306527767681" lon="10.877769927586874"><ele>623.0</ele><time>2026-04-05T14:15:32.998Z</time></trkpt><trkpt lat="44.343076506831444" lon="10.877864268682613"><ele>622.5</ele><time>2026-04-05T14:15:33.998Z</time></trkpt><trkpt lat="44.34305945280433" lon="10.877959223460921"><ele>622.0</ele><time>2026-04-05T14:15:34.998Z</time></trkpt><trkpt lat="44.3430629212744" lon="10.878110907239813"><ele>621.5</ele><time>2026-04-05T14:15:36.998Z</time></trkpt><trkpt lat="44.343076464682596" lon="10.878228812215532"><ele>621.0</ele><time>2026-04-05T14:15:38.998Z</time></trkpt><trkpt lat="44.3430794628396" lon="10.878351298163322"><ele>620.5</ele><time>2026-04-05T14:15:41Z</time></trkpt><trkpt lat="44.343094208859576" lon="10.878457674260538"><ele>620.0</ele><time>2026-04-05T14:15:43Z</time></trkpt><trkpt lat="44.34331529980789" lon="10.878464488646374"><ele>620.0</ele><time>2026-04-05T14:15:44Z</time></trkpt><trkpt lat="44.34340859053196" lon="10.878555525626416"><ele>620.0</ele><time>2026-04-05T14:15:46Z</time></trkpt><trkpt lat="44.3435298639259" lon="10.878643874893712"><ele>620.0</ele><time>2026-04-05T14:15:47Z</time></trkpt><trkpt lat="44.34361872720379" lon="10.87870072804489"><ele>620.0</ele><time>2026-04-05T14:15:49Z</time></trkpt><trkpt lat="44.343660122742634" lon="10.87877330715235"><ele>620.0</ele><time>2026-04-05T14:15:50Z</time></trkpt><trkpt lat="44.343703809113805" lon="10.878848899088977"><ele>620.0</ele><time>2026-04-05T14:15:51Z</time></trkpt><trkpt lat="44.34378069589588" lon="10.878901105203099"><ele>620.0</ele><time>2026-04-05T14:15:53Z</time></trkpt><trkpt lat="44.34379577588133" lon="10.879007929385876"><ele>620.0</ele><time>2026-04-05T14:15:55Z</time></trkpt><trkpt lat="44.34374667514591" lon="10.879070101875838"><ele>620.0</ele><time>2026-04-05T14:15:57Z</time></trkpt><trkpt lat="44.34365186274041" lon="10.87910225199619"><ele>620.0</ele><time>2026-04-05T14:16:00Z</time></trkpt><trkpt lat="44.34355138937286" lon="10.87912484964503"><ele>620.0</ele><time>2026-04-05T14:16:02Z</time></trkpt><trkpt lat="44.34344727458733" lon="10.879139205257827"><ele>620.0</ele><time>2026-04-05T14:16:04Z</time></trkpt><trkpt lat="44.34332316042741" lon="10.879149168708583"><ele>620.0</ele><time>2026-04-05T14:16:06Z</time></trkpt><trkpt lat="44.34325102106347" lon="10.879158545829847"><ele>620.0</ele><time>2026-04-05T14:16:07Z</time></trkpt><trkpt lat="44.343187265761195" lon="10.879180348939556"><ele>620.0</ele><time>2026-04-05T14:16:08Z</time></trkpt><trkpt lat="44.34307217546402" lon="10.879204581737538"><ele>620.0</ele><time>2026-04-05T14:16:09.999Z</time></trkpt><trkpt lat="44.34296438219077" lon="10.87928540753539"><ele>619.5</ele><time>2026-04-05T14:16:11.999Z</time></trkpt><trkpt lat="44.34291998223794" lon="10.879364178525838"><ele>619.0</ele><time>2026-04-05T14:16:12.999Z</time></trkpt><trkpt lat="44.34287092974732" lon="10.879440622866513"><ele>618.5</ele><time>2026-04-05T14:16:13.999Z</time></trkpt><trkpt lat="44.342754200959554" lon="10.879486102259452"><ele>618.0</ele><time>2026-04-05T14:16:15.999Z</time></trkpt><trkpt lat="44.342691528292214" lon="10.879496787997576"><ele>617.5</ele><time>2026-04-05T14:16:16.999Z</time></trkpt><trkpt lat="44.34258502687082" lon="10.879528312411248"><ele>617.0</ele><time>2026-04-05T14:16:18.999Z</time></trkpt><trkpt lat="44.34251391151135" lon="10.879585544274875"><ele>617.0</ele><time>2026-04-05T14:16:20.999Z</time></trkpt><trkpt lat="44.34253268843434" lon="10.87972612525227"><ele>617.0</ele><time>2026-04-05T14:16:23.999Z</time></trkpt><trkpt lat="44.34259217575195" lon="10.879768632401865"><ele>617.0</ele><time>2026-04-05T14:16:24.999Z</time></trkpt><trkpt lat="44.34266313839995" lon="10.87985878583348"><ele>617.0</ele><time>2026-04-05T14:16:25.999Z</time></trkpt><trkpt lat="44.34277417610998" lon="10.879971804191909"><ele>617.0</ele><time>2026-04-05T14:16:27.999Z</time></trkpt><trkpt lat="44.34281932501041" lon="10.880064526140886"><ele>618.0</ele><time>2026-04-05T14:16:28.999Z</time></trkpt><trkpt lat="44.34287165868858" lon="10.880146004321368"><ele>619.0</ele><time>2026-04-05T14:16:29.999Z</time></trkpt><trkpt lat="44.3429363064893" lon="10.880247801135422"><ele>620.0</ele><time>2026-04-05T14:16:30.999Z</time></trkpt><trkpt lat="44.343009467017644" lon="10.880328493187296"><ele>621.0</ele><time>2026-04-05T14:16:31.999Z</time></trkpt><trkpt lat="44.343080392728936" lon="10.880416015538122"><ele>622.0</ele><time>2026-04-05T14:16:32.999Z</time></trkpt><trkpt lat="44.34314678230715" lon="10.880485247614669"><ele>623.0</ele><time>2026-04-05T14:16:33.999Z</time></trkpt><trkpt lat="44.34321500085836" lon="10.880569322984547"><ele>617.5</ele><time>2026-04-05T14:16:34.999Z</time></trkpt><trkpt lat="44.34328409524014" lon="10.880660452881601"><ele>612.0</ele><time>2026-04-05T14:16:35.999Z</time></trkpt><trkpt lat="44.3433526954942" lon="10.880691947658118"><ele>606.5</ele><time>2026-04-05T14:16:36.999Z</time></trkpt><trkpt lat="44.34342534392852" lon="10.880743595746146"><ele>601.0</ele><time>2026-04-05T14:16:37.999Z</time></trkpt><trkpt lat="44.3434976086171" lon="10.880781649240125"><ele>595.5</ele><time>2026-04-05T14:16:38.999Z</time></trkpt><trkpt lat="44.343564905589666" lon="10.880804713420304"><ele>590.0</ele><time>2026-04-05T14:16:39.999Z</time></trkpt><trkpt lat="44.34362279640066" lon="10.88085437142589"><ele>590.0</ele><time>2026-04-05T14:16:40.999Z</time></trkpt><trkpt lat="44.343691176910184" lon="10.880909029039588"><ele>590.0</ele><time>2026-04-05T14:16:41.999Z</time></trkpt><trkpt lat="44.34374127647863" lon="10.880971602645374"><ele>590.0</ele><time>2026-04-05T14:16:42.999Z</time></trkpt><trkpt lat="44.34377860429403" lon="10.881146378670376"><ele>590.0</ele><time>2026-04-05T14:16:44.999Z</time></trkpt><trkpt lat="44.343775235569254" lon="10.881255030781054"><ele>590.0</ele><time>2026-04-05T14:16:45.999Z</time></trkpt><trkpt lat="44.34376261688379" lon="10.881355382943728"><ele>590.0</ele><time>2026-04-05T14:16:46.999Z</time></trkpt><trkpt lat="44.34376538314735" lon="10.881522538024878"><ele>591.25</ele><time>2026-04-05T14:16:48.999Z</time></trkpt><trkpt lat="44.34379499244701" lon="10.881624543727911"><ele>592.5</ele><time>2026-04-05T14:16:49.999Z</time></trkpt><trkpt lat="44.343916252510176" lon="10.881744603145608"><ele>593.75</ele><time>2026-04-05T14:16:51.999Z</time></trkpt><trkpt lat="44.34404179312629" lon="10.881768627490253"><ele>595.0</ele><time>2026-04-05T14:16:53.999Z</time></trkpt><trkpt lat="44.34416348517839" lon="10.881774373836123"><ele>591.8</ele><time>2026-04-05T14:16:55.999Z</time></trkpt><trkpt lat="44.34426282831661" lon="10.88179034439718"><ele>588.6</ele><time>2026-04-05T14:16:57.999Z</time></trkpt><trkpt lat="44.34436309409336" lon="10.88182475415664"><ele>585.4</ele><time>2026-04-05T14:16:59.999Z</time></trkpt><trkpt lat="44.34445150117584" lon="10.881858576289483"><ele>582.2</ele><time>2026-04-05T14:17:01.999Z</time></trkpt><trkpt lat="44.34453951015184" lon="10.881897932265632"><ele>579.0</ele><time>2026-04-05T14:17:03.999Z</time></trkpt><trkpt lat="44.3445941042713" lon="10.88195627291983"><ele>579.0</ele><time>2026-04-05T14:17:05.999Z</time></trkpt><trkpt lat="44.34469139946383" lon="10.881989715258605"><ele>579.0</ele><time>2026-04-05T14:17:07.999Z</time></trkpt><trkpt lat="44.34477756294689" lon="10.8820171794058"><ele>579.0</ele><time>2026-04-05T14:17:08.999Z</time></trkpt><trkpt lat="44.3448790667247" lon="10.882049086673579"><ele>579.0</ele><time>2026-04-05T14:17:10.999Z</time></trkpt><trkpt lat="44.34493147399677" lon="10.882153779661063"><ele>579.0</ele><time>2026-04-05T14:17:20.999Z</time></trkpt><trkpt lat="44.3449906772044" lon="10.88221925094878"><ele>577.6</ele><time>2026-04-05T14:17:21.999Z</time></trkpt><trkpt lat="44.34506722432962" lon="10.882306962303641"><ele>576.2</ele><time>2026-04-05T14:17:22.999Z</time></trkpt><trkpt lat="44.34515213306743" lon="10.882431085554822"><ele>574.8000000000001</ele><time>2026-04-05T14:17:23.999Z</time></trkpt><trkpt lat="44.34525082935101" lon="10.882564678473436"><ele>573.4</ele><time>2026-04-05T14:17:24.999Z</time></trkpt><trkpt lat="44.345311606693535" lon="10.882633799772753"><ele>572.0</ele><time>2026-04-05T14:17:25.999Z</time></trkpt><trkpt lat="44.34538682217687" lon="10.882728056849157"><ele>572.0</ele><time>2026-04-05T14:17:27.999Z</time></trkpt><trkpt lat="44.345479730770556" lon="10.88275920249781"><ele>572.0</ele><time>2026-04-05T14:17:30.999Z</time></trkpt><trkpt lat="44.34558739219581" lon="10.88280381836771"><ele>572.0</ele><time>2026-04-05T14:17:32.998Z</time></trkpt><trkpt lat="44.345653159091604" lon="10.882836182163304"><ele>572.0</ele><time>2026-04-05T14:17:33.998Z</time></trkpt><trkpt lat="44.345721791419905" lon="10.882880713651947"><ele>572.0</ele><time>2026-04-05T14:17:34.998Z</time></trkpt><trkpt lat="44.34578641032238" lon="10.882932752679737"><ele>572.0</ele><time>2026-04-05T14:17:35.998Z</time></trkpt><trkpt lat="44.34584980895447" lon="10.88299001973531"><ele>570.6</ele><time>2026-04-05T14:17:36.998Z</time></trkpt><trkpt lat="44.3459165216416" lon="10.883059463411573"><ele>569.2</ele><time>2026-04-05T14:17:37.998Z</time></trkpt><trkpt lat="44.34602204622815" lon="10.883169203365577"><ele>567.8</ele><time>2026-04-05T14:17:38.998Z</time></trkpt><trkpt lat="44.346108907618714" lon="10.88324173754085"><ele>566.4</ele><time>2026-04-05T14:17:39.998Z</time></trkpt><trkpt lat="44.34618615334997" lon="10.883301057903372"><ele>565.0</ele><time>2026-04-05T14:17:40.998Z</time></trkpt><trkpt lat="44.34625851052688" lon="10.883350558900636"><ele>565.0</ele><time>2026-04-05T14:17:41.998Z</time></trkpt><trkpt lat="44.34632451643631" lon="10.88338529953551"><ele>565.0</ele><time>2026-04-05T14:17:42.998Z</time></trkpt><trkpt lat="44.34643492481755" lon="10.883448521375817"><ele>565.0</ele><time>2026-04-05T14:17:44.998Z</time></trkpt><trkpt lat="44.34649722863428" lon="10.883486228225825"><ele>565.0</ele><time>2026-04-05T14:17:45.998Z</time></trkpt><trkpt lat="44.346552615542905" lon="10.883531244974268"><ele>565.0</ele><time>2026-04-05T14:17:47Z</time></trkpt><trkpt lat="44.346654789679576" lon="10.883612285472026"><ele>565.0</ele><time>2026-04-05T14:17:49Z</time></trkpt><trkpt lat="44.346729078256345" lon="10.883628783644868"><ele>564.1666666666667</ele><time>2026-04-05T14:17:50Z</time></trkpt><trkpt lat="44.34680172881873" lon="10.883630766058596"><ele>563.3333333333334</ele><time>2026-04-05T14:17:51Z</time></trkpt><trkpt lat="44.34687319705375" lon="10.883632812043295"><ele>562.5</ele><time>2026-04-05T14:17:52Z</time></trkpt><trkpt lat="44.346938508550785" lon="10.883645334705959"><ele>561.6666666666666</ele><time>2026-04-05T14:17:53Z</time></trkpt><trkpt lat="44.3470098099219" lon="10.883672406247252"><ele>560.8333333333333</ele><time>2026-04-05T14:17:54Z</time></trkpt><trkpt lat="44.34709087006642" lon="10.883715620397806"><ele>560.0</ele><time>2026-04-05T14:17:55Z</time></trkpt><trkpt lat="44.347176572742036" lon="10.883764749460205"><ele>554.8</ele><time>2026-04-05T14:17:56Z</time></trkpt><trkpt lat="44.34726957044165" lon="10.883801619491067"><ele>549.6</ele><time>2026-04-05T14:17:57Z</time></trkpt><trkpt lat="44.347350538121376" lon="10.883830681857473"><ele>544.4</ele><time>2026-04-05T14:17:58Z</time></trkpt><trkpt lat="44.34742585989086" lon="10.88384730063273"><ele>539.2</ele><time>2026-04-05T14:17:59Z</time></trkpt><trkpt lat="44.347553769201106" lon="10.883906326329374"><ele>534.0</ele><time>2026-04-05T14:18:01Z</time></trkpt><trkpt lat="44.347658840943225" lon="10.883985510918096"><ele>534.0</ele><time>2026-04-05T14:18:03Z</time></trkpt><trkpt lat="44.347712785042404" lon="10.884044575598217"><ele>534.0</ele><time>2026-04-05T14:18:04Z</time></trkpt><trkpt lat="44.347797122398596" lon="10.884200400133773"><ele>534.0</ele><time>2026-04-05T14:18:06Z</time></trkpt><trkpt lat="44.34783830716324" lon="10.884277655347153"><ele>534.0</ele><time>2026-04-05T14:18:07Z</time></trkpt><trkpt lat="44.34789279381589" lon="10.884369093870948"><ele>534.0</ele><time>2026-04-05T14:18:09Z</time></trkpt><trkpt lat="44.347961643146185" lon="10.88431173864656"><ele>534.0</ele><time>2026-04-05T14:18:11Z</time></trkpt><trkpt lat="44.34802622808114" lon="10.884287989535936"><ele>529.2</ele><time>2026-04-05T14:18:13Z</time></trkpt><trkpt lat="44.34809099535561" lon="10.884235129137963"><ele>524.4</ele><time>2026-04-05T14:18:30.999Z</time></trkpt><trkpt lat="44.34815295385778" lon="10.884116127574123"><ele>519.6</ele><time>2026-04-05T14:18:33.999Z</time></trkpt><trkpt lat="44.3482262926714" lon="10.884068097173097"><ele>514.8</ele><time>2026-04-05T14:18:35.999Z</time></trkpt><trkpt lat="44.348325436601286" lon="10.884064976499667"><ele>510.0</ele><time>2026-04-05T14:18:37.999Z</time></trkpt><trkpt lat="44.348425617685564" lon="10.884112942248562"><ele>510.0</ele><time>2026-04-05T14:18:39.999Z</time></trkpt><trkpt lat="44.34850356044614" lon="10.884105165105515"><ele>510.0</ele><time>2026-04-05T14:18:41.999Z</time></trkpt><trkpt lat="44.34859482766456" lon="10.884050096097917"><ele>510.0</ele><time>2026-04-05T14:18:43.999Z</time></trkpt><trkpt lat="44.34870215047695" lon="10.884021034536831"><ele>510.0</ele><time>2026-04-05T14:18:45.999Z</time></trkpt><trkpt lat="44.34882490148518" lon="10.883950473823944"><ele>510.0</ele><time>2026-04-05T14:18:47.999Z</time></trkpt><trkpt lat="44.34889804620298" lon="10.883886922716579"><ele>508.6666666666667</ele><time>2026-04-05T14:18:49.999Z</time></trkpt><trkpt lat="44.34894150024267" lon="10.883791249075491"><ele>507.33333333333337</ele><time>2026-04-05T14:18:52.999Z</time></trkpt><trkpt lat="44.34892405011768" lon="10.883705332147812"><ele>506.0</ele><time>2026-04-05T14:18:53.999Z</time></trkpt><trkpt lat="44.34893465777324" lon="10.883532063924024"><ele>504.6666666666667</ele><time>2026-04-05T14:18:55.999Z</time></trkpt><trkpt lat="44.34894293396005" lon="10.883440477285463"><ele>503.33333333333337</ele><time>2026-04-05T14:18:56.999Z</time></trkpt><trkpt lat="44.34896905685729" lon="10.883344702905987"><ele>502.0</ele><time>2026-04-05T14:18:57.999Z</time></trkpt><trkpt lat="44.34899036062836" lon="10.883229259162848"><ele>502.0</ele><time>2026-04-05T14:18:58.999Z</time></trkpt><trkpt lat="44.34901539594475" lon="10.883133627472109"><ele>502.00000000000006</ele><time>2026-04-05T14:18:59.999Z</time></trkpt><trkpt lat="44.349072307057455" lon="10.88306020847627"><ele>502.00000000000006</ele><time>2026-04-05T14:19:00.999Z</time></trkpt><trkpt lat="44.34915114644831" lon="10.882979111733583"><ele>502.0</ele><time>2026-04-05T14:19:01.999Z</time></trkpt><trkpt lat="44.349261778195256" lon="10.882877777508297"><ele>502.0</ele><time>2026-04-05T14:19:02.999Z</time></trkpt><trkpt lat="44.349362954185736" lon="10.882822129142065"><ele>502.00000000000006</ele><time>2026-04-05T14:19:03.999Z</time></trkpt><trkpt lat="44.34947792830137" lon="10.882782399016302"><ele>502.0</ele><time>2026-04-05T14:19:04.999Z</time></trkpt><trkpt lat="44.3495581694594" lon="10.882730665735098"><ele>502.0</ele><time>2026-04-05T14:19:05.999Z</time></trkpt><trkpt lat="44.349621729473725" lon="10.882703808171735"><ele>502.0</ele><time>2026-04-05T14:19:06.999Z</time></trkpt><trkpt lat="44.34968664247854" lon="10.882718424365702"><ele>502.00000000000006</ele><time>2026-04-05T14:19:07.999Z</time></trkpt><trkpt lat="44.349773170657706" lon="10.882758918842187"><ele>502.0</ele><time>2026-04-05T14:19:08.999Z</time></trkpt><trkpt lat="44.34983620655458" lon="10.882787521163142"><ele>500.0</ele><time>2026-04-05T14:19:09.999Z</time></trkpt><trkpt lat="44.3499121133259" lon="10.882786479779172"><ele>498.00000000000006</ele><time>2026-04-05T14:19:10.999Z</time></trkpt><trkpt lat="44.34999014854724" lon="10.882696190314695"><ele>496.00000000000006</ele><time>2026-04-05T14:19:12.999Z</time></trkpt><trkpt lat="44.3500169643917" lon="10.882586980494747"><ele>494.0</ele><time>2026-04-05T14:19:13.999Z</time></trkpt><trkpt lat="44.350065494896356" lon="10.882426192528872"><ele>492.0</ele><time>2026-04-05T14:19:14.999Z</time></trkpt><trkpt lat="44.350105246718066" lon="10.882319245156996"><ele>496.20000000000005</ele><time>2026-04-05T14:19:15.999Z</time></trkpt><trkpt lat="44.350189897985416" lon="10.882256510198042"><ele>500.40000000000003</ele><time>2026-04-05T14:19:16.999Z</time></trkpt><trkpt lat="44.35026320580718" lon="10.882231064215496"><ele>504.59999999999997</ele><time>2026-04-05T14:19:17.999Z</time></trkpt><trkpt lat="44.35036668628214" lon="10.882252583909992"><ele>508.79999999999995</ele><time>2026-04-05T14:19:18.999Z</time></trkpt><trkpt lat="44.35046673950561" lon="10.882314849278979"><ele>513.0</ele><time>2026-04-05T14:19:19.999Z</time></trkpt><trkpt lat="44.350539977371085" lon="10.88231266926725"><ele>512.3333333333334</ele><time>2026-04-05T14:19:20.999Z</time></trkpt><trkpt lat="44.35062557191508" lon="10.88227790929137"><ele>511.66666666666663</ele><time>2026-04-05T14:19:21.999Z</time></trkpt><trkpt lat="44.350702335274235" lon="10.882152647458794"><ele>511.0</ele><time>2026-04-05T14:19:22.999Z</time></trkpt><trkpt lat="44.350793441782265" lon="10.882158204391015"><ele>510.3333333333333</ele><time>2026-04-05T14:19:23.999Z</time></trkpt><trkpt lat="44.35085302913891" lon="10.882123701407389"><ele>509.66666666666663</ele><time>2026-04-05T14:19:24.999Z</time></trkpt><trkpt lat="44.35091818301894" lon="10.882107804666521"><ele>509.0</ele><time>2026-04-05T14:19:25.999Z</time></trkpt><trkpt lat="44.35099125463126" lon="10.882113050267058"><ele>509.0</ele><time>2026-04-05T14:19:26.999Z</time></trkpt><trkpt lat="44.35110561411518" lon="10.88211335361842"><ele>509.0</ele><time>2026-04-05T14:19:28.999Z</time></trkpt><trkpt lat="44.35121671783208" lon="10.882128002806256"><ele>509.0</ele><time>2026-04-05T14:19:30.999Z</time></trkpt><trkpt lat="44.351308439493124" lon="10.88214467440212"><ele>509.0</ele><time>2026-04-05T14:19:32.999Z</time></trkpt><trkpt lat="44.35140065116995" lon="10.882188741970946"><ele>509.0</ele><time>2026-04-05T14:19:34.999Z</time></trkpt><trkpt lat="44.351515138201556" lon="10.882229761061028"><ele>508.79999999999995</ele><time>2026-04-05T14:19:36.999Z</time></trkpt><trkpt lat="44.3515833703116" lon="10.88226069688464"><ele>508.59999999999997</ele><time>2026-04-05T14:19:38.998Z</time></trkpt><trkpt lat="44.351684213092796" lon="10.882292661293112"><ele>508.4</ele><time>2026-04-05T14:19:41.998Z</time></trkpt><trkpt lat="44.35179601969268" lon="10.882332247675572"><ele>508.2</ele><time>2026-04-05T14:19:43.998Z</time></trkpt><trkpt lat="44.35188466577171" lon="10.882284098985702"><ele>508.0</ele><time>2026-04-05T14:19:45.998Z</time></trkpt><trkpt lat="44.351969825286574" lon="10.882269536267016"><ele>508.0</ele><time>2026-04-05T14:19:47.998Z</time></trkpt><trkpt lat="44.3519592421673" lon="10.882386807137651"><ele>507.99999999999994</ele><time>2026-04-05T14:19:49.998Z</time></trkpt><trkpt lat="44.35185011962946" lon="10.882401734280972"><ele>507.99999999999994</ele><time>2026-04-05T14:19:51.998Z</time></trkpt><trkpt lat="44.35172562456196" lon="10.882326464671593"><ele>508.0</ele><time>2026-04-05T14:19:54Z</time></trkpt><trkpt lat="44.35164237334765" lon="10.882294535899703"><ele>508.0</ele><time>2026-04-05T14:19:55Z</time></trkpt><trkpt lat="44.351523835115216" lon="10.882251780711233"><ele>508.00000000000006</ele><time>2026-04-05T14:19:56Z</time></trkpt><trkpt lat="44.35141647124048" lon="10.882212918965877"><ele>508.0</ele><time>2026-04-05T14:19:57Z</time></trkpt><trkpt lat="44.35134366074507" lon="10.882179444290086"><ele>508.0</ele><time>2026-04-05T14:19:58Z</time></trkpt><trkpt lat="44.351268131561476" lon="10.882156282536558"><ele>508.0</ele><time>2026-04-05T14:19:59Z</time></trkpt><trkpt lat="44.35116451611965" lon="10.882114290355434"><ele>508.00000000000006</ele><time>2026-04-05T14:20:01Z</time></trkpt><trkpt lat="44.35109937541304" lon="10.88213061315345"><ele>508.0</ele><time>2026-04-05T14:20:02Z</time></trkpt><trkpt lat="44.35103550374151" lon="10.882145108826089"><ele>508.1666666666667</ele><time>2026-04-05T14:20:03Z</time></trkpt><trkpt lat="44.35094524211692" lon="10.882143698183118"><ele>508.33333333333337</ele><time>2026-04-05T14:20:05Z</time></trkpt><trkpt lat="44.35094614827072" lon="10.88204509780028"><ele>508.5</ele><time>2026-04-05T14:20:09Z</time></trkpt><trkpt lat="44.35100017704504" lon="10.88199841777819"><ele>508.66666666666663</ele><time>2026-04-05T14:20:14Z</time></trkpt><trkpt lat="44.35107635863124" lon="10.881933830937504"><ele>508.8333333333333</ele><time>2026-04-05T14:20:16Z</time></trkpt><trkpt lat="44.35115156560904" lon="10.881858402784367"><ele>509.0</ele><time>2026-04-05T14:20:17.999Z</time></trkpt><trkpt lat="44.3511964890992" lon="10.88166731631289"><ele>510.79999999999995</ele><time>2026-04-05T14:20:19.999Z</time></trkpt><trkpt lat="44.35121201219735" lon="10.881548514854302"><ele>512.5999999999999</ele><time>2026-04-05T14:20:20.999Z</time></trkpt><trkpt lat="44.351214671444595" lon="10.88142483674266"><ele>514.4</ele><time>2026-04-05T14:20:22.999Z</time></trkpt><trkpt lat="44.35126777309098" lon="10.881339766902162"><ele>516.1999999999999</ele><time>2026-04-05T14:20:23.999Z</time></trkpt><trkpt lat="44.35135021606678" lon="10.881242661024785"><ele>518.0</ele><time>2026-04-05T14:20:24.999Z</time></trkpt><trkpt lat="44.35139811398203" lon="10.881125308412079"><ele>518.0</ele><time>2026-04-05T14:20:26.999Z</time></trkpt><trkpt lat="44.35140172292203" lon="10.881016884344543"><ele>518.0</ele><time>2026-04-05T14:20:27.999Z</time></trkpt><trkpt lat="44.351405244754" lon="10.880922562008388"><ele>518.0</ele><time>2026-04-05T14:20:28.999Z</time></trkpt><trkpt lat="44.35141180098754" lon="10.880829914603925"><ele>518.0</ele><time>2026-04-05T14:20:29.999Z</time></trkpt><trkpt lat="44.35141459353547" lon="10.880726052587745"><ele>518.0</ele><time>2026-04-05T14:20:30.999Z</time></trkpt><trkpt lat="44.351418326166794" lon="10.880617875038249"><ele>518.0</ele><time>2026-04-05T14:20:31.999Z</time></trkpt><trkpt lat="44.35144241113377" lon="10.8805280378228"><ele>518.0</ele><time>2026-04-05T14:20:32.999Z</time></trkpt><trkpt lat="44.351455884296655" lon="10.880418387837015"><ele>521.0</ele><time>2026-04-05T14:20:33.999Z</time></trkpt><trkpt lat="44.351456313107896" lon="10.880294426145923"><ele>524.0</ele><time>2026-04-05T14:20:34.999Z</time></trkpt><trkpt lat="44.35146813970157" lon="10.880197318367843"><ele>527.0</ele><time>2026-04-05T14:20:35.999Z</time></trkpt><trkpt lat="44.35151616805237" lon="10.880070036950126"><ele>530.0</ele><time>2026-04-05T14:20:37.999Z</time></trkpt><trkpt lat="44.35158294741516" lon="10.880037641996957"><ele>533.0</ele><time>2026-04-05T14:20:46.999Z</time></trkpt><trkpt lat="44.35164978739493" lon="10.880012312420808"><ele>536.0</ele><time>2026-04-05T14:20:48.999Z</time></trkpt><trkpt lat="44.35169171729168" lon="10.87989445353337"><ele>538.3333333333333</ele><time>2026-04-05T14:20:50.999Z</time></trkpt><trkpt lat="44.351696594223526" lon="10.879790179419723"><ele>540.6666666666666</ele><time>2026-04-05T14:20:51.999Z</time></trkpt><trkpt lat="44.351679174968126" lon="10.879700965599167"><ele>543.0</ele><time>2026-04-05T14:20:52.999Z</time></trkpt><trkpt lat="44.35163511331974" lon="10.879579138969689"><ele>545.3333333333334</ele><time>2026-04-05T14:20:54.999Z</time></trkpt><trkpt lat="44.35156518379993" lon="10.879519729794275"><ele>547.6666666666667</ele><time>2026-04-05T14:20:56.999Z</time></trkpt><trkpt lat="44.351546248853644" lon="10.879423014944274"><ele>550.0</ele><time>2026-04-05T14:20:59.999Z</time></trkpt><trkpt lat="44.35157593773254" lon="10.879290971621485"><ele>551.6</ele><time>2026-04-05T14:21:01.999Z</time></trkpt><trkpt lat="44.351573616499564" lon="10.879176303244106"><ele>553.2</ele><time>2026-04-05T14:21:02.999Z</time></trkpt><trkpt lat="44.35156661190645" lon="10.879085446165861"><ele>554.8</ele><time>2026-04-05T14:21:03.999Z</time></trkpt><trkpt lat="44.351551576746985" lon="10.878925743033275"><ele>556.4</ele><time>2026-04-05T14:21:05.999Z</time></trkpt><trkpt lat="44.35152959367568" lon="10.878768113689341"><ele>558.0</ele><time>2026-04-05T14:21:07.999Z</time></trkpt><trkpt lat="44.35149605340462" lon="10.878633548127729"><ele>558.0</ele><time>2026-04-05T14:21:09.999Z</time></trkpt><trkpt lat="44.351466372501385" lon="10.878539487606597"><ele>558.0</ele><time>2026-04-05T14:21:10.999Z</time></trkpt><trkpt lat="44.35143460166704" lon="10.878441690521129"><ele>558.0</ele><time>2026-04-05T14:21:11.999Z</time></trkpt><trkpt lat="44.35139235645414" lon="10.878339514020247"><ele>558.0</ele><time>2026-04-05T14:21:12.999Z</time></trkpt><trkpt lat="44.35134823073152" lon="10.8782194343881"><ele>558.0</ele><time>2026-04-05T14:21:13.999Z</time></trkpt><trkpt lat="44.35130725927752" lon="10.878095133926463"><ele>558.0</ele><time>2026-04-05T14:21:14.999Z</time></trkpt><trkpt lat="44.35128465737457" lon="10.878007553711543"><ele>565.6</ele><time>2026-04-05T14:21:15.999Z</time></trkpt><trkpt lat="44.35124228354871" lon="10.877846551086396"><ele>573.1999999999999</ele><time>2026-04-05T14:21:17.999Z</time></trkpt><trkpt lat="44.35121771348226" lon="10.877753385430317"><ele>580.8</ele><time>2026-04-05T14:21:18.999Z</time></trkpt><trkpt lat="44.351232826552" lon="10.877579253725278"><ele>588.4</ele><time>2026-04-05T14:21:20.999Z</time></trkpt><trkpt lat="44.35123617580097" lon="10.877476473314983"><ele>596.0</ele><time>2026-04-05T14:21:21.999Z</time></trkpt><trkpt lat="44.35124557435947" lon="10.877372190930778"><ele>596.1666666666666</ele><time>2026-04-05T14:21:22.999Z</time></trkpt><trkpt lat="44.351263654552" lon="10.877274300342291"><ele>596.3333333333333</ele><time>2026-04-05T14:21:23.999Z</time></trkpt><trkpt lat="44.35128997163838" lon="10.877192955856728"><ele>596.5</ele><time>2026-04-05T14:21:24.999Z</time></trkpt><trkpt lat="44.3513177308635" lon="10.87711039469773"><ele>596.6666666666666</ele><time>2026-04-05T14:21:25.999Z</time></trkpt><trkpt lat="44.35133037409813" lon="10.87700877613169"><ele>596.8333333333334</ele><time>2026-04-05T14:21:26.999Z</time></trkpt><trkpt lat="44.3513383500545" lon="10.876908734274604"><ele>597.0</ele><time>2026-04-05T14:21:27.999Z</time></trkpt><trkpt lat="44.35135403977602" lon="10.876763403094635"><ele>597.0</ele><time>2026-04-05T14:21:29.999Z</time></trkpt><trkpt lat="44.351342542054304" lon="10.876872609116521"><ele>597.0</ele><time>2026-04-05T14:22:21Z</time></trkpt><trkpt lat="44.35133590509205" lon="10.876961444887879"><ele>597.0</ele><time>2026-04-05T14:22:22Z</time></trkpt><trkpt lat="44.3513215873177" lon="10.877143473062697"><ele>597.0</ele><time>2026-04-05T14:22:24Z</time></trkpt><trkpt lat="44.351303481860846" lon="10.877263831844152"><ele>597.0</ele><time>2026-04-05T14:22:25Z</time></trkpt><trkpt lat="44.351267978344005" lon="10.877368097104837"><ele>597.0</ele><time>2026-04-05T14:22:25.999Z</time></trkpt><trkpt lat="44.351238483319904" lon="10.87746115280039"><ele>597.0</ele><time>2026-04-05T14:22:26.999Z</time></trkpt><trkpt lat="44.35123193011229" lon="10.877556377368265"><ele>597.0</ele><time>2026-04-05T14:22:27.999Z</time></trkpt><trkpt lat="44.351239338141994" lon="10.877659883658051"><ele>597.0</ele><time>2026-04-05T14:22:28.999Z</time></trkpt><trkpt lat="44.35123471438116" lon="10.877755768918913"><ele>597.0</ele><time>2026-04-05T14:22:29.999Z</time></trkpt><trkpt lat="44.351249394725905" lon="10.877891675320864"><ele>597.0</ele><time>2026-04-05T14:22:31.999Z</time></trkpt><trkpt lat="44.35126746272689" lon="10.877993003060057"><ele>597.0</ele><time>2026-04-05T14:22:32.999Z</time></trkpt><trkpt lat="44.35130639724158" lon="10.87810931962722"><ele>596.8333333333334</ele><time>2026-04-05T14:22:33.999Z</time></trkpt><trkpt lat="44.35133266898242" lon="10.878190681243428"><ele>596.6666666666666</ele><time>2026-04-05T14:22:34.999Z</time></trkpt><trkpt lat="44.351400749178204" lon="10.87835383764737"><ele>596.5</ele><time>2026-04-05T14:22:36.999Z</time></trkpt><trkpt lat="44.35143419060163" lon="10.87844483198327"><ele>596.3333333333333</ele><time>2026-04-05T14:22:37.999Z</time></trkpt><trkpt lat="44.35147638871696" lon="10.878552760880822"><ele>596.1666666666666</ele><time>2026-04-05T14:22:38.999Z</time></trkpt><trkpt lat="44.35150706703584" lon="10.878640891756998"><ele>596.0</ele><time>2026-04-05T14:22:39.999Z</time></trkpt><trkpt lat="44.351535041852685" lon="10.878782544478861"><ele>588.4</ele><time>2026-04-05T14:22:41.999Z</time></trkpt><trkpt lat="44.35155200769519" lon="10.878929185917084"><ele>580.8</ele><time>2026-04-05T14:22:43.999Z</time></trkpt><trkpt lat="44.35156050569629" lon="10.879080593821625"><ele>573.1999999999999</ele><time>2026-04-05T14:22:45.999Z</time></trkpt><trkpt lat="44.35158304955477" lon="10.879199542669637"><ele>565.6</ele><time>2026-04-05T14:22:47.999Z</time></trkpt><trkpt lat="44.35160148959684" lon="10.879320444455903"><ele>558.0</ele><time>2026-04-05T14:22:50.999Z</time></trkpt><trkpt lat="44.351665401850624" lon="10.879358930539686"><ele>556.8571428571428</ele><time>2026-04-05T14:22:53.999Z</time></trkpt><trkpt lat="44.35172804629049" lon="10.879338464614257"><ele>555.7142857142857</ele><time>2026-04-05T14:22:54.999Z</time></trkpt><trkpt lat="44.35180753163703" lon="10.8793094988599"><ele>554.5714285714286</ele><time>2026-04-05T14:22:56.999Z</time></trkpt><trkpt lat="44.35187249872394" lon="10.879353700372329"><ele>553.4285714285713</ele><time>2026-04-05T14:22:58.999Z</time></trkpt><trkpt lat="44.351913471406625" lon="10.879459655276158"><ele>552.2857142857142</ele><time>2026-04-05T14:23:00.999Z</time></trkpt><trkpt lat="44.351955999704444" lon="10.879526240267564"><ele>551.1428571428571</ele><time>2026-04-05T14:23:03.999Z</time></trkpt><trkpt lat="44.35197208868021" lon="10.879430165185394"><ele>550.0</ele><time>2026-04-05T14:23:06.999Z</time></trkpt><trkpt lat="44.35197227048817" lon="10.879282716200741"><ele>551.6</ele><time>2026-04-05T14:23:08.999Z</time></trkpt><trkpt lat="44.35195333960518" lon="10.879144601492866"><ele>553.2</ele><time>2026-04-05T14:23:10.999Z</time></trkpt><trkpt lat="44.35191074959337" lon="10.879049254735685"><ele>554.8</ele><time>2026-04-05T14:23:12.999Z</time></trkpt><trkpt lat="44.351892230220436" lon="10.878862481428293"><ele>556.4</ele><time>2026-04-05T14:23:14.999Z</time></trkpt><trkpt lat="44.35190819609856" lon="10.878745952092777"><ele>558.0</ele><time>2026-04-05T14:23:15.999Z</time></trkpt><trkpt lat="44.351904614293446" lon="10.878625245275865"><ele>558.0</ele><time>2026-04-05T14:23:17.999Z</time></trkpt><trkpt lat="44.351884479175425" lon="10.878467486443753"><ele>558.0</ele><time>2026-04-05T14:23:19.999Z</time></trkpt><trkpt lat="44.35186473375559" lon="10.878344174520175"><ele>558.0</ele><time>2026-04-05T14:23:21.999Z</time></trkpt><trkpt lat="44.3518692092493" lon="10.878221948196778"><ele>558.0</ele><time>2026-04-05T14:23:23.999Z</time></trkpt><trkpt lat="44.35188791701848" lon="10.878090069893082"><ele>558.0</ele><time>2026-04-05T14:23:26.999Z</time></trkpt><trkpt lat="44.351904867119956" lon="10.878003250666708"><ele>557.6666666666666</ele><time>2026-04-05T14:23:27.999Z</time></trkpt><trkpt lat="44.351952507465334" lon="10.87787833339536"><ele>557.3333333333334</ele><time>2026-04-05T14:23:29.999Z</time></trkpt><trkpt lat="44.352032368226446" lon="10.877836728351575"><ele>557.0</ele><time>2026-04-05T14:23:31.999Z</time></trkpt><trkpt lat="44.352129514529345" lon="10.87782862606476"><ele>556.6666666666667</ele><time>2026-04-05T14:23:33.999Z</time></trkpt><trkpt lat="44.352210062726954" lon="10.877746468823677"><ele>556.3333333333334</ele><time>2026-04-05T14:23:36.999Z</time></trkpt><trkpt lat="44.35226172430011" lon="10.87768902858837"><ele>556.0</ele><time>2026-04-05T14:23:37.999Z</time></trkpt><trkpt lat="44.35234537194719" lon="10.877590008498254"><ele>552.0</ele><time>2026-04-05T14:23:39.999Z</time></trkpt><trkpt lat="44.352356893062044" lon="10.877493088399998"><ele>548.0</ele><time>2026-04-05T14:23:41.999Z</time></trkpt><trkpt lat="44.35233256705479" lon="10.877404661181341"><ele>544.0</ele><time>2026-04-05T14:23:43.999Z</time></trkpt><trkpt lat="44.35230685658586" lon="10.877319565251653"><ele>540.0</ele><time>2026-04-05T14:23:44.999Z</time></trkpt><trkpt lat="44.35227160906039" lon="10.877240257339933"><ele>536.0</ele><time>2026-04-05T14:23:45.999Z</time></trkpt><trkpt lat="44.352224357343694" lon="10.87710047006912"><ele>532.0</ele><time>2026-04-05T14:23:47.998Z</time></trkpt><trkpt lat="44.352245934662" lon="10.876987904238083"><ele>532.0</ele><time>2026-04-05T14:23:49.998Z</time></trkpt><trkpt lat="44.35230587885788" lon="10.87692667806894"><ele>532.0</ele><time>2026-04-05T14:23:51.998Z</time></trkpt><trkpt lat="44.352372563814995" lon="10.87682433759343"><ele>532.0</ele><time>2026-04-05T14:23:53.998Z</time></trkpt><trkpt lat="44.35241857768407" lon="10.876709249082058"><ele>532.0</ele><time>2026-04-05T14:23:55.998Z</time></trkpt><trkpt lat="44.35244141851874" lon="10.876619879770782"><ele>532.0</ele><time>2026-04-05T14:23:57.998Z</time></trkpt><trkpt lat="44.35247213888236" lon="10.876540749030854"><ele>532.0</ele><time>2026-04-05T14:23:59.998Z</time></trkpt><trkpt lat="44.35251373348631" lon="10.876436038530649"><ele>531.2857142857143</ele><time>2026-04-05T14:24:01.998Z</time></trkpt><trkpt lat="44.352489998020424" lon="10.87633868104734"><ele>530.5714285714286</ele><time>2026-04-05T14:24:06Z</time></trkpt><trkpt lat="44.35245274985941" lon="10.876236183615323"><ele>529.8571428571429</ele><time>2026-04-05T14:24:12Z</time></trkpt><trkpt lat="44.3523884193374" lon="10.876151292753876"><ele>529.1428571428571</ele><time>2026-04-05T14:24:14Z</time></trkpt><trkpt lat="44.35238695985102" lon="10.876059690954728"><ele>528.4285714285714</ele><time>2026-04-05T14:24:20Z</time></trkpt><trkpt lat="44.3523838426137" lon="10.875966434809213"><ele>527.7142857142858</ele><time>2026-04-05T14:24:27Z</time></trkpt><trkpt lat="44.352411418410334" lon="10.875881406174287"><ele>527.0</ele><time>2026-04-05T14:24:30Z</time></trkpt><trkpt lat="44.352469472809666" lon="10.875792783653145"><ele>525.3333333333333</ele><time>2026-04-05T14:24:32.999Z</time></trkpt><trkpt lat="44.35252372175749" lon="10.875736162142204"><ele>523.6666666666666</ele><time>2026-04-05T14:25:27.999Z</time></trkpt><trkpt lat="44.35256452575669" lon="10.87560843442158"><ele>522.0</ele><time>2026-04-05T14:29:21.999Z</time></trkpt><trkpt lat="44.35256733304931" lon="10.875510755643907"><ele>520.3333333333334</ele><time>2026-04-05T14:29:23.999Z</time></trkpt><trkpt lat="44.35256467989445" lon="10.875413739270092"><ele>518.6666666666667</ele><time>2026-04-05T14:29:26.999Z</time></trkpt><trkpt lat="44.352571075601034" lon="10.875289496169538"><ele>517.0</ele><time>2026-04-05T14:29:31.999Z</time></trkpt><trkpt lat="44.3525640993354" lon="10.875176281511377"><ele>516.1428571428571</ele><time>2026-04-05T14:29:38Z</time></trkpt><trkpt lat="44.35255538156819" lon="10.875060796529219"><ele>515.2857142857143</ele><time>2026-04-05T14:29:49Z</time></trkpt><trkpt lat="44.35257432749028" lon="10.87497500224962"><ele>514.4285714285714</ele><time>2026-04-05T14:29:51Z</time></trkpt><trkpt lat="44.35257375152028" lon="10.87487241249537"><ele>513.5714285714286</ele><time>2026-04-05T14:29:52.999Z</time></trkpt><trkpt lat="44.35257494017937" lon="10.874782436118666"><ele>512.7142857142858</ele><time>2026-04-05T14:29:54.999Z</time></trkpt><trkpt lat="44.352618014987435" lon="10.8747136736981"><ele>511.8571428571429</ele><time>2026-04-05T14:30:06.999Z</time></trkpt><trkpt lat="44.35269032626644" lon="10.874677366133557"><ele>511.0</ele><time>2026-04-05T14:30:09.999Z</time></trkpt><trkpt lat="44.35274116161231" lon="10.874584096825538"><ele>511.00000000000006</ele><time>2026-04-05T14:30:18.999Z</time></trkpt><trkpt lat="44.35270929116254" lon="10.87445824968197"><ele>511.0</ele><time>2026-04-05T14:30:22Z</time></trkpt><trkpt lat="44.352726389996874" lon="10.874331546430207"><ele>511.0</ele><time>2026-04-05T14:30:24Z</time></trkpt><trkpt lat="44.352739922279824" lon="10.874209649016974"><ele>511.0</ele><time>2026-04-05T14:30:26Z</time></trkpt><trkpt lat="44.35272000616625" lon="10.874088699897525"><ele>511.00000000000006</ele><time>2026-04-05T14:30:28Z</time></trkpt><trkpt lat="44.35266937934526" lon="10.873995708890195"><ele>511.0</ele><time>2026-04-05T14:30:30Z</time></trkpt><trkpt lat="44.352664483565114" lon="10.873889178512249"><ele>511.20000000000005</ele><time>2026-04-05T14:30:37Z</time></trkpt><trkpt lat="44.35269057436877" lon="10.87378325025113"><ele>511.40000000000003</ele><time>2026-04-05T14:30:39Z</time></trkpt><trkpt lat="44.35274351565918" lon="10.873715622332762"><ele>511.6</ele><time>2026-04-05T14:30:41Z</time></trkpt><trkpt lat="44.35280562585843" lon="10.873620271790509"><ele>511.8</ele><time>2026-04-05T14:30:44Z</time></trkpt><trkpt lat="44.352842694560124" lon="10.873405485377576"><ele>512.0</ele><time>2026-04-05T14:30:46Z</time></trkpt><trkpt lat="44.352806093043796" lon="10.873276726704722"><ele>512.5</ele><time>2026-04-05T14:30:48Z</time></trkpt><trkpt lat="44.35271400668054" lon="10.873235543141918"><ele>513.0</ele><time>2026-04-05T14:30:50Z</time></trkpt><trkpt lat="44.35267976716696" lon="10.873135386666993"><ele>513.5</ele><time>2026-04-05T14:30:52Z</time></trkpt><trkpt lat="44.35266331916205" lon="10.87303944010683"><ele>514.0</ele><time>2026-04-05T14:30:54Z</time></trkpt><trkpt lat="44.35266116429666" lon="10.872942010384845"><ele>514.5</ele><time>2026-04-05T14:30:57Z</time></trkpt><trkpt lat="44.352701934629636" lon="10.87287113413355"><ele>515.0</ele><time>2026-04-05T14:30:59Z</time></trkpt><trkpt lat="44.352767539475465" lon="10.872912151875077"><ele>515.0</ele><time>2026-04-05T14:31:01Z</time></trkpt><trkpt lat="44.352832088898" lon="10.873001610980218"><ele>515.0</ele><time>2026-04-05T14:31:03Z</time></trkpt><trkpt lat="44.352899444534934" lon="10.872998076864338"><ele>515.0</ele><time>2026-04-05T14:31:05Z</time></trkpt><trkpt lat="44.35297326422254" lon="10.872944255836599"><ele>515.0</ele><time>2026-04-05T14:31:07Z</time></trkpt><trkpt lat="44.35300322533656" lon="10.872858066030252"><ele>515.0</ele><time>2026-04-05T14:31:09Z</time></trkpt><trkpt lat="44.352990090226825" lon="10.872721502150108"><ele>515.0</ele><time>2026-04-05T14:31:11Z</time></trkpt><trkpt lat="44.353032531564814" lon="10.872615275043223"><ele>517.0</ele><time>2026-04-05T14:31:13Z</time></trkpt><trkpt lat="44.35310331475772" lon="10.872570876890014"><ele>519.0</ele><time>2026-04-05T14:31:15Z</time></trkpt><trkpt lat="44.353231172069954" lon="10.87253586744333"><ele>521.0</ele><time>2026-04-05T14:31:17Z</time></trkpt><trkpt lat="44.35334497260957" lon="10.87250504571091"><ele>523.0</ele><time>2026-04-05T14:31:19Z</time></trkpt><trkpt lat="44.35345647436277" lon="10.87248879834817"><ele>525.0</ele><time>2026-04-05T14:31:21Z</time></trkpt><trkpt lat="44.35351753093559" lon="10.872452954282009"><ele>525.0</ele><time>2026-04-05T14:31:22Z</time></trkpt><trkpt lat="44.353514314822725" lon="10.87236325230961"><ele>525.0</ele><time>2026-04-05T14:31:24Z</time></trkpt><trkpt lat="44.35355465965927" lon="10.872289672707563"><ele>525.0</ele><time>2026-04-05T14:31:25Z</time></trkpt><trkpt lat="44.35356494848266" lon="10.872191658961315"><ele>525.0</ele><time>2026-04-05T14:31:27Z</time></trkpt><trkpt lat="44.35357224017429" lon="10.87209082471402"><ele>525.0</ele><time>2026-04-05T14:31:28Z</time></trkpt><trkpt lat="44.35356143069662" lon="10.871986469113008"><ele>525.0</ele><time>2026-04-05T14:31:29Z</time></trkpt><trkpt lat="44.353553668334136" lon="10.87189615761887"><ele>525.0</ele><time>2026-04-05T14:31:30Z</time></trkpt><trkpt lat="44.35352207238057" lon="10.87174759779178"><ele>527.6</ele><time>2026-04-05T14:31:32Z</time></trkpt><trkpt lat="44.35351955976063" lon="10.87159406658366"><ele>530.2</ele><time>2026-04-05T14:31:34Z</time></trkpt><trkpt lat="44.353445609235834" lon="10.871440141304491"><ele>532.8</ele><time>2026-04-05T14:31:36Z</time></trkpt><trkpt lat="44.35343681602172" lon="10.871334222627745"><ele>535.4</ele><time>2026-04-05T14:31:38Z</time></trkpt><trkpt lat="44.35352938233273" lon="10.871219836086208"><ele>538.0</ele><time>2026-04-05T14:31:40Z</time></trkpt><trkpt lat="44.353596073970714" lon="10.871163583382705"><ele>538.0</ele><time>2026-04-05T14:31:41Z</time></trkpt><trkpt lat="44.353672943714656" lon="10.871071102184334"><ele>538.0</ele><time>2026-04-05T14:31:42Z</time></trkpt><trkpt lat="44.353704455488376" lon="10.87099167305776"><ele>538.0</ele><time>2026-04-05T14:31:44Z</time></trkpt><trkpt lat="44.35369453781992" lon="10.870885746248586"><ele>538.0</ele><time>2026-04-05T14:31:45Z</time></trkpt><trkpt lat="44.35371854031534" lon="10.87079982436562"><ele>538.0</ele><time>2026-04-05T14:31:46Z</time></trkpt><trkpt lat="44.35383970588593" lon="10.870806234717996"><ele>538.0</ele><time>2026-04-05T14:31:48Z</time></trkpt><trkpt lat="44.353913286988984" lon="10.870814254223191"><ele>541.6</ele><time>2026-04-05T14:31:49Z</time></trkpt><trkpt lat="44.35401088506733" lon="10.870946989102828"><ele>545.1999999999999</ele><time>2026-04-05T14:31:50.999Z</time></trkpt><trkpt lat="44.35408648331123" lon="10.871055544819262"><ele>548.8</ele><time>2026-04-05T14:31:51.999Z</time></trkpt><trkpt lat="44.354173572202974" lon="10.871147023896054"><ele>552.4</ele><time>2026-04-05T14:31:52.999Z</time></trkpt><trkpt lat="44.354233296754906" lon="10.871212405392933"><ele>556.0</ele><time>2026-04-05T14:31:53.999Z</time></trkpt><trkpt lat="44.35425814173731" lon="10.87137387538294"><ele>556.0</ele><time>2026-04-05T14:31:55.999Z</time></trkpt><trkpt lat="44.35432864526761" lon="10.871359445819403"><ele>556.0</ele><time>2026-04-05T14:31:57.999Z</time></trkpt><trkpt lat="44.35436979045539" lon="10.871217592716185"><ele>556.0</ele><time>2026-04-05T14:31:59.999Z</time></trkpt><trkpt lat="44.354413875684415" lon="10.871110410962588"><ele>556.0</ele><time>2026-04-05T14:32:00.999Z</time></trkpt><trkpt lat="44.35448390479026" lon="10.871021041282061"><ele>556.0</ele><time>2026-04-05T14:32:01.999Z</time></trkpt><trkpt lat="44.35457270208311" lon="10.870927537170203"><ele>558.8</ele><time>2026-04-05T14:32:02.999Z</time></trkpt><trkpt lat="44.354646307474034" lon="10.8708060907853"><ele>561.6</ele><time>2026-04-05T14:32:03.999Z</time></trkpt><trkpt lat="44.354699517809145" lon="10.870692226052789"><ele>564.4</ele><time>2026-04-05T14:32:04.999Z</time></trkpt><trkpt lat="44.35472486019183" lon="10.870584372771061"><ele>567.2</ele><time>2026-04-05T14:32:05.999Z</time></trkpt><trkpt lat="44.3547529743948" lon="10.870464793811545"><ele>570.0</ele><time>2026-04-05T14:32:06.999Z</time></trkpt><trkpt lat="44.35476661124498" lon="10.870362579356"><ele>571.0</ele><time>2026-04-05T14:32:07.999Z</time></trkpt><trkpt lat="44.354809756266334" lon="10.870170912964618"><ele>572.0</ele><time>2026-04-05T14:32:09.999Z</time></trkpt><trkpt lat="44.354867897398165" lon="10.870067948765753"><ele>573.0</ele><time>2026-04-05T14:32:10.999Z</time></trkpt><trkpt lat="44.35499827399033" lon="10.86998350130901"><ele>574.0</ele><time>2026-04-05T14:32:12.999Z</time></trkpt><trkpt lat="44.355066024901646" lon="10.869918837133634"><ele>578.0</ele><time>2026-04-05T14:32:13.999Z</time></trkpt><trkpt lat="44.35512848936677" lon="10.8698781619171"><ele>582.0</ele><time>2026-04-05T14:32:14.999Z</time></trkpt><trkpt lat="44.355191690803885" lon="10.869885264445966"><ele>586.0</ele><time>2026-04-05T14:32:15.999Z</time></trkpt><trkpt lat="44.35526925814843" lon="10.869911867678248"><ele>590.0</ele><time>2026-04-05T14:32:16.999Z</time></trkpt><trkpt lat="44.35537290644871" lon="10.869920591082618"><ele>594.0</ele><time>2026-04-05T14:32:17.999Z</time></trkpt><trkpt lat="44.355463694233336" lon="10.86992003651297"><ele>598.0</ele><time>2026-04-05T14:32:18.999Z</time></trkpt><trkpt lat="44.355536751626836" lon="10.869940246809435"><ele>599.8333333333334</ele><time>2026-04-05T14:32:19.999Z</time></trkpt><trkpt lat="44.35561881109298" lon="10.869973295780365"><ele>601.6666666666667</ele><time>2026-04-05T14:32:20.999Z</time></trkpt><trkpt lat="44.35569710040472" lon="10.870001389758242"><ele>603.5</ele><time>2026-04-05T14:32:21.999Z</time></trkpt><trkpt lat="44.355775221585155" lon="10.870007996071"><ele>605.3333333333334</ele><time>2026-04-05T14:32:22.999Z</time></trkpt><trkpt lat="44.35585471202382" lon="10.870021849696633"><ele>607.1666666666666</ele><time>2026-04-05T14:32:23.999Z</time></trkpt><trkpt lat="44.35592159253106" lon="10.870037841477137"><ele>609.0</ele><time>2026-04-05T14:32:24.999Z</time></trkpt><trkpt lat="44.35601999195389" lon="10.870092388340444"><ele>609.0</ele><time>2026-04-05T14:32:25.999Z</time></trkpt><trkpt lat="44.35609817187993" lon="10.870091104509305"><ele>609.0</ele><time>2026-04-05T14:32:26.999Z</time></trkpt><trkpt lat="44.356172780539396" lon="10.870074587819474"><ele>609.0</ele><time>2026-04-05T14:32:28Z</time></trkpt><trkpt lat="44.35632187923453" lon="10.870357057714076"><ele>609.0</ele><time>2026-04-05T14:32:29Z</time></trkpt><trkpt lat="44.35635285649237" lon="10.870122262778864"><ele>607.0</ele><time>2026-04-05T14:32:30Z</time></trkpt><trkpt lat="44.356407840011045" lon="10.870078118153243"><ele>605.0</ele><time>2026-04-05T14:32:31Z</time></trkpt><trkpt lat="44.35652909454541" lon="10.870018533424322"><ele>603.0</ele><time>2026-04-05T14:32:33Z</time></trkpt><trkpt lat="44.35661847381651" lon="10.870023199393655"><ele>601.0</ele><time>2026-04-05T14:32:34Z</time></trkpt><trkpt lat="44.35671691586859" lon="10.870013091665472"><ele>599.0</ele><time>2026-04-05T14:32:35Z</time></trkpt><trkpt lat="44.3568288372658" lon="10.870025738126605"><ele>599.0</ele><time>2026-04-05T14:32:36Z</time></trkpt><trkpt lat="44.35694695909585" lon="10.870058158267941"><ele>599.0</ele><time>2026-04-05T14:32:37Z</time></trkpt><trkpt lat="44.35706375798839" lon="10.870058687333882"><ele>599.0</ele><time>2026-04-05T14:32:38Z</time></trkpt><trkpt lat="44.35716683418821" lon="10.870069767435561"><ele>599.0</ele><time>2026-04-05T14:32:39Z</time></trkpt><trkpt lat="44.35724803214082" lon="10.870068997458272"><ele>599.0</ele><time>2026-04-05T14:32:40Z</time></trkpt><trkpt lat="44.35731991269395" lon="10.870029484626373"><ele>597.75</ele><time>2026-04-05T14:32:41Z</time></trkpt><trkpt lat="44.357424839984574" lon="10.869953585433722"><ele>596.5</ele><time>2026-04-05T14:32:42Z</time></trkpt><trkpt lat="44.35755677270787" lon="10.86984829728488"><ele>595.25</ele><time>2026-04-05T14:32:43Z</time></trkpt><trkpt lat="44.35770648230603" lon="10.869778370581813"><ele>594.0</ele><time>2026-04-05T14:32:44Z</time></trkpt><trkpt lat="44.35779156215687" lon="10.86971807203033"><ele>594.0</ele><time>2026-04-05T14:32:45Z</time></trkpt><trkpt lat="44.3578328255329" lon="10.869650804288948"><ele>594.0</ele><time>2026-04-05T14:32:46Z</time></trkpt><trkpt lat="44.35783787349577" lon="10.869542976613669"><ele>594.0</ele><time>2026-04-05T14:32:47Z</time></trkpt><trkpt lat="44.357825494813845" lon="10.869418895062934"><ele>594.0</ele><time>2026-04-05T14:32:48Z</time></trkpt><trkpt lat="44.35780577466482" lon="10.869242097536452"><ele>594.0</ele><time>2026-04-05T14:32:49Z</time></trkpt><trkpt lat="44.35783486291512" lon="10.86903934437752"><ele>595.0</ele><time>2026-04-05T14:32:50Z</time></trkpt><trkpt lat="44.35788679265852" lon="10.868937760259465"><ele>596.0</ele><time>2026-04-05T14:32:51Z</time></trkpt><trkpt lat="44.35795890069956" lon="10.86888172088215"><ele>597.0</ele><time>2026-04-05T14:32:52Z</time></trkpt><trkpt lat="44.35804792925185" lon="10.868800551468755"><ele>598.0</ele><time>2026-04-05T14:32:53Z</time></trkpt><trkpt lat="44.358141134107825" lon="10.868730885018334"><ele>599.0</ele><time>2026-04-05T14:32:54Z</time></trkpt><trkpt lat="44.35826110661017" lon="10.868671936748813"><ele>599.0</ele><time>2026-04-05T14:32:55Z</time></trkpt><trkpt lat="44.35840048414562" lon="10.868567396826974"><ele>599.0</ele><time>2026-04-05T14:32:56Z</time></trkpt><trkpt lat="44.3584598540388" lon="10.86850276173393"><ele>599.0</ele><time>2026-04-05T14:32:57Z</time></trkpt><trkpt lat="44.35853223643177" lon="10.868385935218889"><ele>599.0</ele><time>2026-04-05T14:32:58Z</time></trkpt><trkpt lat="44.35862822619781" lon="10.868248546348902"><ele>601.0</ele><time>2026-04-05T14:32:59Z</time></trkpt><trkpt lat="44.35875255941295" lon="10.868144584895402"><ele>603.0</ele><time>2026-04-05T14:33:00Z</time></trkpt><trkpt lat="44.35888954642877" lon="10.868036587717647"><ele>605.0</ele><time>2026-04-05T14:33:01Z</time></trkpt><trkpt lat="44.35902721287132" lon="10.867904311176172"><ele>605.0</ele><time>2026-04-05T14:33:02Z</time></trkpt><trkpt lat="44.359188673127804" lon="10.867754236448702"><ele>605.0</ele><time>2026-04-05T14:33:03Z</time></trkpt><trkpt lat="44.359351450442226" lon="10.867615612806684"><ele>605.0</ele><time>2026-04-05T14:33:04Z</time></trkpt><trkpt lat="44.359506502656956" lon="10.867488608124658"><ele>609.0</ele><time>2026-04-05T14:33:05Z</time></trkpt><trkpt lat="44.35965608398706" lon="10.867381705909274"><ele>613.0</ele><time>2026-04-05T14:33:06Z</time></trkpt><trkpt lat="44.359790113517334" lon="10.86729655305888"><ele>617.0</ele><time>2026-04-05T14:33:07Z</time></trkpt><trkpt lat="44.359910954097884" lon="10.867209110369895"><ele>617.0</ele><time>2026-04-05T14:33:08Z</time></trkpt><trkpt lat="44.360030496266596" lon="10.867153460516949"><ele>617.0</ele><time>2026-04-05T14:33:09Z</time></trkpt><trkpt lat="44.360139006469744" lon="10.867148256316558"><ele>617.0</ele><time>2026-04-05T14:33:10Z</time></trkpt><trkpt lat="44.360227348062146" lon="10.867235042998315"><ele>617.0</ele><time>2026-04-05T14:33:11Z</time></trkpt><trkpt lat="44.36032865238813" lon="10.86728455825238"><ele>617.0</ele><time>2026-04-05T14:33:12Z</time></trkpt><trkpt lat="44.36042306537093" lon="10.867333811781355"><ele>617.0</ele><time>2026-04-05T14:33:13Z</time></trkpt><trkpt lat="44.360546181673335" lon="10.86733099144838"><ele>617.0</ele><time>2026-04-05T14:33:14Z</time></trkpt><trkpt lat="44.360669928280224" lon="10.867298129983155"><ele>617.0</ele><time>2026-04-05T14:33:15Z</time></trkpt><trkpt lat="44.360794194305306" lon="10.867301083145673"><ele>618.75</ele><time>2026-04-05T14:33:16Z</time></trkpt><trkpt lat="44.360924181190946" lon="10.8672909242963"><ele>620.5</ele><time>2026-04-05T14:33:17Z</time></trkpt><trkpt lat="44.36104560828622" lon="10.86727751567458"><ele>622.25</ele><time>2026-04-05T14:33:18Z</time></trkpt><trkpt lat="44.361155966696906" lon="10.86726172714886"><ele>624.0</ele><time>2026-04-05T14:33:19Z</time></trkpt><trkpt lat="44.361272576265456" lon="10.86722440525402"><ele>624.75</ele><time>2026-04-05T14:33:20Z</time></trkpt><trkpt lat="44.36139183313982" lon="10.867208738103505"><ele>625.5</ele><time>2026-04-05T14:33:21Z</time></trkpt><trkpt lat="44.361496116077134" lon="10.867183583534736"><ele>626.25</ele><time>2026-04-05T14:33:22Z</time></trkpt><trkpt lat="44.36161037939707" lon="10.867152024589037"><ele>627.0</ele><time>2026-04-05T14:33:23Z</time></trkpt><trkpt lat="44.36174726155339" lon="10.867119686399137"><ele>627.0</ele><time>2026-04-05T14:33:24Z</time></trkpt><trkpt lat="44.36190080381088" lon="10.867088977796456"><ele>627.0</ele><time>2026-04-05T14:33:25Z</time></trkpt><trkpt lat="44.36205512084002" lon="10.86705847322941"><ele>627.0</ele><time>2026-04-05T14:33:26Z</time></trkpt><trkpt lat="44.36219081354802" lon="10.86703020138529"><ele>627.0</ele><time>2026-04-05T14:33:27Z</time></trkpt><trkpt lat="44.362329052751306" lon="10.866995252438185"><ele>627.0</ele><time>2026-04-05T14:33:28Z</time></trkpt><trkpt lat="44.36250935747725" lon="10.866958521981806"><ele>627.0</ele><time>2026-04-05T14:33:29Z</time></trkpt><trkpt lat="44.36267416655571" lon="10.866987094647069"><ele>627.0</ele><time>2026-04-05T14:33:30Z</time></trkpt><trkpt lat="44.362814685492815" lon="10.867002838094502"><ele>627.0</ele><time>2026-04-05T14:33:31Z</time></trkpt><trkpt lat="44.362927172915015" lon="10.867016464560395"><ele>627.0</ele><time>2026-04-05T14:33:32Z</time></trkpt><trkpt lat="44.36303401245182" lon="10.867029501665233"><ele>627.0</ele><time>2026-04-05T14:33:33Z</time></trkpt><trkpt lat="44.363140513917095" lon="10.867042726855175"><ele>627.0</ele><time>2026-04-05T14:33:34Z</time></trkpt><trkpt lat="44.363259507660715" lon="10.86704717698446"><ele>627.0</ele><time>2026-04-05T14:33:35Z</time></trkpt><trkpt lat="44.36336512712544" lon="10.867062467923631"><ele>626.6</ele><time>2026-04-05T14:33:36Z</time></trkpt><trkpt lat="44.363465226409744" lon="10.867063074481887"><ele>626.2</ele><time>2026-04-05T14:33:37Z</time></trkpt><trkpt lat="44.363540566408375" lon="10.867068848844335"><ele>625.8</ele><time>2026-04-05T14:33:38Z</time></trkpt><trkpt lat="44.36365436896666" lon="10.867024297938485"><ele>625.4</ele><time>2026-04-05T14:33:39Z</time></trkpt><trkpt lat="44.36377220526325" lon="10.866947081467758"><ele>625.0</ele><time>2026-04-05T14:33:40Z</time></trkpt><trkpt lat="44.36386211415116" lon="10.866862610090504"><ele>626.25</ele><time>2026-04-05T14:33:41Z</time></trkpt><trkpt lat="44.363982984747764" lon="10.866803849143967"><ele>627.5</ele><time>2026-04-05T14:33:42Z</time></trkpt><trkpt lat="44.364145714797466" lon="10.866733643299744"><ele>628.75</ele><time>2026-04-05T14:33:43Z</time></trkpt><trkpt lat="44.364294185719345" lon="10.866748438442631"><ele>630.0</ele><time>2026-04-05T14:33:44Z</time></trkpt><trkpt lat="44.36440405905249" lon="10.866758491654057"><ele>631.2</ele><time>2026-04-05T14:33:45Z</time></trkpt><trkpt lat="44.36452105541264" lon="10.866756922254682"><ele>632.4</ele><time>2026-04-05T14:33:46Z</time></trkpt><trkpt lat="44.36464188486981" lon="10.866774901444153"><ele>633.6</ele><time>2026-04-05T14:33:47Z</time></trkpt><trkpt lat="44.36475419352422" lon="10.866786122523159"><ele>634.8</ele><time>2026-04-05T14:33:48Z</time></trkpt><trkpt lat="44.36484299658381" lon="10.866797702682955"><ele>636.0</ele><time>2026-04-05T14:33:49Z</time></trkpt><trkpt lat="44.36491541875118" lon="10.866800571558885"><ele>636.0</ele><time>2026-04-05T14:33:50Z</time></trkpt><trkpt lat="44.36497768908601" lon="10.866826135292941"><ele>636.0</ele><time>2026-04-05T14:33:52Z</time></trkpt><trkpt lat="44.3650459587826" lon="10.866786774125226"><ele>636.0</ele><time>2026-04-05T14:34:25.999Z</time></trkpt><trkpt lat="44.365111286956896" lon="10.86678020028314"><ele>636.0</ele><time>2026-04-05T14:34:27.999Z</time></trkpt><trkpt lat="44.36508499915212" lon="10.866959388100781"><ele>636.0</ele><time>2026-04-05T14:34:30.999Z</time></trkpt><trkpt lat="44.365074642573035" lon="10.8670623154244"><ele>636.0</ele><time>2026-04-05T14:34:31.999Z</time></trkpt><trkpt lat="44.365046682081214" lon="10.867174316185986"><ele>636.0</ele><time>2026-04-05T14:34:33Z</time></trkpt><trkpt lat="44.365033651590906" lon="10.867290887983405"><ele>636.0</ele><time>2026-04-05T14:34:34Z</time></trkpt><trkpt lat="44.36501327806116" lon="10.8674266877621"><ele>636.0</ele><time>2026-04-05T14:34:35Z</time></trkpt><trkpt lat="44.36499405530695" lon="10.867552236351363"><ele>636.0</ele><time>2026-04-05T14:34:36Z</time></trkpt><trkpt lat="44.36497238364163" lon="10.867713399100943"><ele>636.0</ele><time>2026-04-05T14:34:37Z</time></trkpt><trkpt lat="44.36495670648517" lon="10.867836069043207"><ele>634.6666666666666</ele><time>2026-04-05T14:34:38Z</time></trkpt><trkpt lat="44.36494048797594" lon="10.86795906618618"><ele>633.3333333333334</ele><time>2026-04-05T14:34:39Z</time></trkpt><trkpt lat="44.36493039701119" lon="10.868084845403594"><ele>632.0</ele><time>2026-04-05T14:34:40Z</time></trkpt><trkpt lat="44.36491338659132" lon="10.868195689248818"><ele>630.6666666666667</ele><time>2026-04-05T14:34:41Z</time></trkpt><trkpt lat="44.36492928353583" lon="10.868308542742257"><ele>629.3333333333334</ele><time>2026-04-05T14:34:42Z</time></trkpt><trkpt lat="44.36492609644874" lon="10.86844300596591"><ele>628.0</ele><time>2026-04-05T14:34:43Z</time></trkpt><trkpt lat="44.36493377177331" lon="10.868537364561252"><ele>627.25</ele><time>2026-04-05T14:34:44Z</time></trkpt><trkpt lat="44.36493740774246" lon="10.868633892472342"><ele>626.5</ele><time>2026-04-05T14:34:45Z</time></trkpt><trkpt lat="44.36490847754092" lon="10.868796012377533"><ele>625.75</ele><time>2026-04-05T14:34:47Z</time></trkpt><trkpt lat="44.364898657145524" lon="10.868891936355523"><ele>625.0</ele><time>2026-04-05T14:34:49Z</time></trkpt><trkpt lat="44.364573061458515" lon="10.868984348626965"><ele>623.6</ele><time>2026-04-05T14:34:50Z</time></trkpt><trkpt lat="44.364518141042765" lon="10.869053434393315"><ele>622.2</ele><time>2026-04-05T14:34:51Z</time></trkpt><trkpt lat="44.3644432076214" lon="10.869152098852213"><ele>620.8</ele><time>2026-04-05T14:34:52Z</time></trkpt><trkpt lat="44.36440607716146" lon="10.86926572373265"><ele>619.4</ele><time>2026-04-05T14:34:53Z</time></trkpt><trkpt lat="44.364388919229036" lon="10.869402946057727"><ele>618.0</ele><time>2026-04-05T14:34:54Z</time></trkpt><trkpt lat="44.364352317254465" lon="10.869582800248121"><ele>618.0</ele><time>2026-04-05T14:34:55Z</time></trkpt><trkpt lat="44.364324954866404" lon="10.869733209146295"><ele>618.0</ele><time>2026-04-05T14:34:56Z</time></trkpt><trkpt lat="44.36429846371294" lon="10.869857914148708"><ele>618.0</ele><time>2026-04-05T14:34:57Z</time></trkpt><trkpt lat="44.36427628985539" lon="10.869979545301321"><ele>618.0</ele><time>2026-04-05T14:34:58Z</time></trkpt><trkpt lat="44.364254099263306" lon="10.870113314302518"><ele>618.0</ele><time>2026-04-05T14:34:59Z</time></trkpt><trkpt lat="44.36423968559877" lon="10.870247495947599"><ele>617.6666666666666</ele><time>2026-04-05T14:35:00Z</time></trkpt><trkpt lat="44.36425397483534" lon="10.870351037752913"><ele>617.3333333333334</ele><time>2026-04-05T14:35:01Z</time></trkpt><trkpt lat="44.36425608702242" lon="10.870481524742907"><ele>617.0</ele><time>2026-04-05T14:35:02Z</time></trkpt><trkpt lat="44.36425453278914" lon="10.870602698442658"><ele>616.6666666666667</ele><time>2026-04-05T14:35:03Z</time></trkpt><trkpt lat="44.3642893671499" lon="10.87075669044704"><ele>616.3333333333334</ele><time>2026-04-05T14:35:05Z</time></trkpt><trkpt lat="44.36430321497866" lon="10.870848957573532"><ele>616.0</ele><time>2026-04-05T14:35:06Z</time></trkpt><trkpt lat="44.36429499137193" lon="10.870965410074517"><ele>614.8333333333334</ele><time>2026-04-05T14:35:07Z</time></trkpt><trkpt lat="44.36428885060184" lon="10.871079598819893"><ele>613.6666666666667</ele><time>2026-04-05T14:35:08Z</time></trkpt><trkpt lat="44.36427941865596" lon="10.871190477543907"><ele>612.5</ele><time>2026-04-05T14:35:09Z</time></trkpt><trkpt lat="44.364266655698685" lon="10.871300748127126"><ele>611.3333333333334</ele><time>2026-04-05T14:35:10Z</time></trkpt><trkpt lat="44.36424586368047" lon="10.87138610946485"><ele>610.1666666666666</ele><time>2026-04-05T14:35:11Z</time></trkpt><trkpt lat="44.36419700793858" lon="10.871465391461573"><ele>609.0</ele><time>2026-04-05T14:35:12Z</time></trkpt><trkpt lat="44.3641299256071" lon="10.871558484986235"><ele>609.0</ele><time>2026-04-05T14:35:13Z</time></trkpt><trkpt lat="44.36406627026023" lon="10.871667919084398"><ele>609.0</ele><time>2026-04-05T14:35:14Z</time></trkpt><trkpt lat="44.364016963936464" lon="10.871762071000283"><ele>609.0</ele><time>2026-04-05T14:35:15Z</time></trkpt><trkpt lat="44.363956642168475" lon="10.871882989730906"><ele>609.0</ele><time>2026-04-05T14:35:16Z</time></trkpt><trkpt lat="44.363897714873" lon="10.872015720647315"><ele>609.0</ele><time>2026-04-05T14:35:17Z</time></trkpt><trkpt lat="44.36385625629563" lon="10.872127230212222"><ele>604.75</ele><time>2026-04-05T14:35:18Z</time></trkpt><trkpt lat="44.3637996167239" lon="10.872262259863152"><ele>600.5</ele><time>2026-04-05T14:35:19Z</time></trkpt><trkpt lat="44.36372699304183" lon="10.872429404055586"><ele>596.25</ele><time>2026-04-05T14:35:20Z</time></trkpt><trkpt lat="44.363652148352315" lon="10.87257224207524"><ele>592.0</ele><time>2026-04-05T14:35:21Z</time></trkpt><trkpt lat="44.3635689557414" lon="10.872722125087298"><ele>592.0</ele><time>2026-04-05T14:35:22Z</time></trkpt><trkpt lat="44.36354714911814" lon="10.872853872893963"><ele>592.0</ele><time>2026-04-05T14:35:25Z</time></trkpt><trkpt lat="44.363523264110405" lon="10.872946633380364"><ele>592.0</ele><time>2026-04-05T14:35:26Z</time></trkpt><trkpt lat="44.3634855507472" lon="10.873049598651223"><ele>592.0</ele><time>2026-04-05T14:35:27Z</time></trkpt><trkpt lat="44.36343899471286" lon="10.873150404488536"><ele>592.0</ele><time>2026-04-05T14:35:28Z</time></trkpt><trkpt lat="44.36338767523633" lon="10.873227730248383"><ele>592.0</ele><time>2026-04-05T14:35:29Z</time></trkpt><trkpt lat="44.363329365043015" lon="10.873308697567495"><ele>592.0</ele><time>2026-04-05T14:35:30Z</time></trkpt><trkpt lat="44.363280561864045" lon="10.873383796877699"><ele>592.0</ele><time>2026-04-05T14:35:31Z</time></trkpt><trkpt lat="44.36323693635475" lon="10.873470830860027"><ele>592.0</ele><time>2026-04-05T14:35:32Z</time></trkpt><trkpt lat="44.36320088413924" lon="10.873570997904356"><ele>592.0</ele><time>2026-04-05T14:35:33Z</time></trkpt><trkpt lat="44.363154339530844" lon="10.873672251060126"><ele>592.0</ele><time>2026-04-05T14:35:34Z</time></trkpt><trkpt lat="44.36312355474507" lon="10.873751877767248"><ele>592.0</ele><time>2026-04-05T14:35:35Z</time></trkpt><trkpt lat="44.36309459440358" lon="10.873830308498109"><ele>592.0</ele><time>2026-04-05T14:35:36Z</time></trkpt><trkpt lat="44.363065299849" lon="10.873914407288893"><ele>591.3333333333334</ele><time>2026-04-05T14:35:37Z</time></trkpt><trkpt lat="44.3630446325838" lon="10.874000262269197"><ele>590.6666666666667</ele><time>2026-04-05T14:35:38Z</time></trkpt><trkpt lat="44.363021392353865" lon="10.874094996313527"><ele>590.0</ele><time>2026-04-05T14:35:39Z</time></trkpt><trkpt lat="44.36305460294642" lon="10.874255469631034"><ele>589.3333333333334</ele><time>2026-04-05T14:35:41Z</time></trkpt><trkpt lat="44.36310645512971" lon="10.874366910258011"><ele>588.6666666666666</ele><time>2026-04-05T14:35:42Z</time></trkpt><trkpt lat="44.36314931365981" lon="10.874488622064876"><ele>588.0</ele><time>2026-04-05T14:35:43Z</time></trkpt><trkpt lat="44.363185663322525" lon="10.874614641337171"><ele>592.25</ele><time>2026-04-05T14:35:44Z</time></trkpt><trkpt lat="44.363235586025965" lon="10.87476643678551"><ele>596.5</ele><time>2026-04-05T14:35:45Z</time></trkpt><trkpt lat="44.36330065994526" lon="10.874889383758344"><ele>600.75</ele><time>2026-04-05T14:35:46Z</time></trkpt><trkpt lat="44.36335047753354" lon="10.875044967529892"><ele>605.0</ele><time>2026-04-05T14:35:47Z</time></trkpt><trkpt lat="44.36342684459602" lon="10.875212263687763"><ele>607.25</ele><time>2026-04-05T14:35:48Z</time></trkpt><trkpt lat="44.36351192139172" lon="10.875369294937709"><ele>609.5</ele><time>2026-04-05T14:35:49Z</time></trkpt><trkpt lat="44.36358728572128" lon="10.875560777227964"><ele>611.75</ele><time>2026-04-05T14:35:50Z</time></trkpt><trkpt lat="44.363629132641" lon="10.875707374805039"><ele>614.0</ele><time>2026-04-05T14:35:51Z</time></trkpt><trkpt lat="44.36367825716176" lon="10.875797098427316"><ele>614.0</ele><time>2026-04-05T14:35:52Z</time></trkpt><trkpt lat="44.36372374942462" lon="10.875860797626059"><ele>614.0</ele><time>2026-04-05T14:35:55Z</time></trkpt><trkpt lat="44.36356665084856" lon="10.875940133747529"><ele>617.0</ele><time>2026-04-05T14:35:57Z</time></trkpt><trkpt lat="44.36349231082782" lon="10.875981897750094"><ele>617.0</ele><time>2026-04-05T14:35:58Z</time></trkpt><trkpt lat="44.363393910250664" lon="10.876058120795365"><ele>617.0</ele><time>2026-04-05T14:35:59Z</time></trkpt></trkseg></trk></gpx>